Donnes mto: Actuelle samedi, 22/09/2018 13:34
Date Horaire Temp. Ext. Temp. +10cm Temp. -10cm Temp. -30cm Temp. -50cm Hum. Ext. Hum.feuil. Hum.feuil. 2 Hum. -10cm Hum. -30cm Hum. -50cm Baro. Pluie Vent Direction Direction Ensoleilleme Ev.Tr. UV Solaire P. de rose Temp au vent Rafales
22/09/2018 13:34 13,2 C 13,3 C 16,1 C 16,7 C 16,7 C 86 % 15 lf 15 lf 6 cb 3 cb 10 cb 1020,8 hPa 0,0 mm 7,8 km/h (2 Bft) O-SO 256 0 min 0,000 mm 0,7 UV-I 141 W/m 10,9 C 12,3 C 14,5 km/h (3 Bft)
22/09/2018 13:32 13,2 C 13,3 C 16,1 C 16,7 C 16,7 C 86 % 15 lf 15 lf 6 cb 3 cb 10 cb 1020,8 hPa 0,2 mm 7,8 km/h (2 Bft) O 281 0 min 0,000 mm 0,7 UV-I 146 W/m 10,9 C 12,3 C 14,5 km/h (3 Bft)
22/09/2018 13:30 13,2 C 13,3 C 16,1 C 16,7 C 16,7 C 87 % 15 lf 15 lf 6 cb 3 cb 10 cb 1020,7 hPa 0,0 mm 3,5 km/h (1 Bft) O-SO 255 0 min 0,000 mm 0,7 UV-I 148 W/m 11,1 C 13,2 C 11,3 km/h (2 Bft)
22/09/2018 13:28 13,2 C 13,3 C 16,1 C 16,7 C 16,7 C 87 % 15 lf 15 lf 6 cb 3 cb 10 cb 1020,8 hPa 0,0 mm 3,9 km/h (1 Bft) O 261 0 min 0,000 mm 0,7 UV-I 142 W/m 11,1 C 13,2 C 9,7 km/h (2 Bft)
22/09/2018 13:26 13,2 C 13,3 C 16,1 C 16,7 C 16,7 C 86 % 15 lf 15 lf 6 cb 3 cb 10 cb 1020,8 hPa 0,0 mm 7,4 km/h (2 Bft) O 277 0 min 0,000 mm 0,7 UV-I 139 W/m 10,9 C 12,6 C 14,5 km/h (3 Bft)
22/09/2018 13:24 13,3 C 13,3 C 16,1 C 16,7 C 16,7 C 86 % 15 lf 15 lf 6 cb 3 cb 10 cb 1020,8 hPa 0,0 mm 7,0 km/h (2 Bft) O 266 0 min 0,000 mm 0,6 UV-I 127 W/m 11,0 C 12,9 C 12,9 km/h (3 Bft)
22/09/2018 13:22 13,3 C 13,3 C 16,1 C 16,7 C 16,7 C 86 % 15 lf 15 lf 6 cb 3 cb 10 cb 1020,7 hPa 0,0 mm 6,4 km/h (2 Bft) O 275 0 min 0,000 mm 0,6 UV-I 123 W/m 11,0 C 13,3 C 12,9 km/h (3 Bft)
22/09/2018 13:20 13,3 C 13,3 C 16,1 C 16,7 C 16,7 C 86 % 15 lf 15 lf 6 cb 3 cb 10 cb 1020,6 hPa 0,0 mm 5,3 km/h (1 Bft) O 278 0 min 0,000 mm 0,6 UV-I 123 W/m 11,0 C 13,3 C 9,7 km/h (2 Bft)
22/09/2018 13:18 13,4 C 13,3 C 16,1 C 16,7 C 16,7 C 86 % 15 lf 15 lf 6 cb 3 cb 10 cb 1020,6 hPa 0,0 mm 6,1 km/h (2 Bft) O 275 0 min 0,000 mm 0,6 UV-I 130 W/m 11,1 C 13,4 C 12,9 km/h (3 Bft)
22/09/2018 13:16 13,4 C 13,3 C 16,1 C 16,7 C 16,7 C 85 % 15 lf 15 lf 6 cb 3 cb 10 cb 1020,6 hPa 0,0 mm 10,4 km/h (2 Bft) O-SO 249 0 min 0,000 mm 0,6 UV-I 139 W/m 10,9 C 11,2 C 16,1 km/h (3 Bft)
22/09/2018 13:14 13,4 C 13,3 C 16,1 C 16,7 C 16,7 C 86 % 15 lf 15 lf 6 cb 3 cb 10 cb 1020,6 hPa 0,0 mm 5,7 km/h (1 Bft) O 260 0 min 0,000 mm 0,7 UV-I 162 W/m 11,1 C 13,4 C 14,5 km/h (3 Bft)
22/09/2018 13:12 13,5 C 13,9 C 16,1 C 16,7 C 16,7 C 86 % 15 lf 15 lf 6 cb 3 cb 10 cb 1020,4 hPa 0,0 mm 6,2 km/h (2 Bft) O 271 0 min 0,000 mm 0,8 UV-I 171 W/m 11,2 C 13,5 C 12,9 km/h (3 Bft)
22/09/2018 13:10 13,6 C 13,9 C 16,1 C 16,7 C 16,7 C 85 % 15 lf 15 lf 6 cb 3 cb 10 cb 1020,5 hPa 0,2 mm 7,8 km/h (2 Bft) O-NO 282 0 min 0,000 mm 0,7 UV-I 153 W/m 11,1 C 12,7 C 17,7 km/h (3 Bft)
22/09/2018 13:08 13,6 C 13,9 C 16,1 C 16,7 C 16,7 C 85 % 15 lf 15 lf 6 cb 3 cb 10 cb 1020,5 hPa 0,0 mm 8,0 km/h (2 Bft) O 279 0 min 0,000 mm 0,7 UV-I 144 W/m 11,1 C 12,6 C 20,9 km/h (4 Bft)
22/09/2018 13:06 13,6 C 13,9 C 16,1 C 16,7 C 16,7 C 85 % 15 lf 15 lf 6 cb 3 cb 10 cb 1020,5 hPa 0,0 mm 8,3 km/h (2 Bft) O-SO 250 0 min 0,000 mm 0,7 UV-I 153 W/m 11,1 C 12,5 C 14,5 km/h (3 Bft)
22/09/2018 13:04 13,7 C 13,9 C 16,1 C 16,7 C 16,7 C 84 % 15 lf 15 lf 6 cb 3 cb 10 cb 1020,5 hPa 0,0 mm 7,1 km/h (2 Bft) O-NO 285 0 min 0,000 mm 0,8 UV-I 163 W/m 11,0 C 13,3 C 12,9 km/h (3 Bft)
22/09/2018 13:02 13,7 C 13,9 C 16,1 C 16,7 C 16,7 C 84 % 15 lf 15 lf 6 cb 3 cb 10 cb 1020,5 hPa 0,0 mm 10,4 km/h (2 Bft) SO 234 0 min 0,000 mm 0,8 UV-I 181 W/m 11,0 C 11,5 C 14,5 km/h (3 Bft)
22/09/2018 13:00 13,8 C 14,4 C 16,1 C 16,7 C 16,7 C 84 % 15 lf 15 lf 6 cb 3 cb 10 cb 1020,6 hPa 0,0 mm 9,2 km/h (2 Bft) O 269 0 min 0,127 mm 0,8 UV-I 163 W/m 11,1 C 12,2 C 17,7 km/h (3 Bft)
22/09/2018 12:58 13,9 C 14,4 C 16,1 C 16,7 C 16,7 C 83 % 15 lf 15 lf 6 cb 3 cb 10 cb 1020,6 hPa 0,0 mm 8,0 km/h (2 Bft) O 269 0 min 0,000 mm 0,7 UV-I 148 W/m 11,1 C 12,9 C 11,3 km/h (2 Bft)
22/09/2018 12:56 13,9 C 14,4 C 16,1 C 16,7 C 16,7 C 83 % 15 lf 15 lf 6 cb 3 cb 10 cb 1020,5 hPa 0,0 mm 11,0 km/h (2 Bft) O 263 0 min 0,000 mm 0,7 UV-I 144 W/m 11,1 C 11,4 C 19,3 km/h (3 Bft)
22/09/2018 12:54 14,1 C 15,0 C 16,1 C 16,7 C 16,7 C 83 % 15 lf 15 lf 6 cb 3 cb 10 cb 1020,4 hPa 0,0 mm 8,0 km/h (2 Bft) O-SO 253 0 min 0,000 mm 0,7 UV-I 158 W/m 11,3 C 13,2 C 14,5 km/h (3 Bft)
22/09/2018 12:52 14,1 C 15,0 C 16,1 C 16,7 C 16,7 C 83 % 15 lf 15 lf 6 cb 3 cb 10 cb 1020,3 hPa 0,0 mm 9,2 km/h (2 Bft) O 275 0 min 0,000 mm 0,8 UV-I 190 W/m 11,3 C 12,5 C 16,1 km/h (3 Bft)
22/09/2018 12:50 14,2 C 15,0 C 16,1 C 16,7 C 16,7 C 83 % 15 lf 15 lf 6 cb 3 cb 10 cb 1020,2 hPa 0,0 mm 8,3 km/h (2 Bft) SO 221 0 min 0,000 mm 0,9 UV-I 179 W/m 11,4 C 13,1 C 16,1 km/h (3 Bft)
22/09/2018 12:48 14,2 C 15,0 C 16,1 C 16,7 C 16,7 C 82 % 15 lf 15 lf 6 cb 3 cb 10 cb 1020,2 hPa 0,0 mm 9,1 km/h (2 Bft) O-NO 296 0 min 0,000 mm 0,8 UV-I 160 W/m 11,2 C 12,7 C 14,5 km/h (3 Bft)
22/09/2018 12:46 14,3 C 15,0 C 16,1 C 16,7 C 16,7 C 83 % 15 lf 15 lf 6 cb 3 cb 10 cb 1020,1 hPa 0,0 mm 5,9 km/h (2 Bft) O 260 0 min 0,000 mm 0,9 UV-I 220 W/m 11,5 C 14,3 C 20,9 km/h (4 Bft)
22/09/2018 12:44 14,3 C 15,0 C 16,1 C 16,7 C 16,7 C 82 % 6 lf 5 lf 6 cb 3 cb 10 cb 1020,1 hPa 0,0 mm 6,4 km/h (2 Bft) O-NO 287 0 min 0,000 mm 1,1 UV-I 232 W/m 11,3 C 14,3 C 12,9 km/h (3 Bft)
22/09/2018 12:42 14,3 C 15,0 C 16,1 C 16,7 C 16,7 C 81 % 14 lf 15 lf 6 cb 3 cb 10 cb 1020,1 hPa 0,0 mm 9,3 km/h (2 Bft) O-SO 246 0 min 0,000 mm 1,0 UV-I 223 W/m 11,1 C 12,7 C 16,1 km/h (3 Bft)
22/09/2018 12:40 14,4 C 15,6 C 16,1 C 16,7 C 16,7 C 81 % 15 lf 15 lf 6 cb 3 cb 10 cb 1020,1 hPa 0,0 mm 12,3 km/h (3 Bft) O 264 0 min 0,000 mm 1,0 UV-I 192 W/m 11,2 C 11,5 C 17,7 km/h (3 Bft)
22/09/2018 12:38 14,5 C 15,6 C 16,1 C 16,7 C 16,7 C 81 % 15 lf 14 lf 6 cb 3 cb 10 cb 1020,2 hPa 0,0 mm 8,3 km/h (2 Bft) SO 227 0 min 0,000 mm 1,0 UV-I 225 W/m 11,3 C 13,4 C 14,5 km/h (3 Bft)
22/09/2018 12:36 14,6 C 15,6 C 16,1 C 16,7 C 16,7 C 80 % 15 lf 15 lf 6 cb 3 cb 10 cb 1020,2 hPa 0,0 mm 6,7 km/h (2 Bft) SO 214 0 min 0,000 mm 1,0 UV-I 221 W/m 11,2 C 14,4 C 12,9 km/h (3 Bft)
22/09/2018 12:34 14,6 C 15,6 C 16,1 C 16,7 C 16,7 C 78 % 15 lf 7 lf 6 cb 3 cb 10 cb 1020,1 hPa 0,0 mm 10,0 km/h (2 Bft) O 272 0 min 0,000 mm 1,0 UV-I 214 W/m 10,8 C 12,7 C 16,1 km/h (3 Bft)
22/09/2018 12:32 14,6 C 15,6 C 16,1 C 16,7 C 16,7 C 78 % 9 lf 3 lf 6 cb 3 cb 10 cb 1020,1 hPa 0,0 mm 5,4 km/h (1 Bft) O-SO 242 0 min 0,000 mm 1,0 UV-I 221 W/m 10,8 C 14,6 C 12,9 km/h (3 Bft)
22/09/2018 12:30 14,6 C 15,6 C 16,1 C 16,7 C 16,7 C 77 % 3 lf 6 lf 6 cb 3 cb 10 cb 1020,1 hPa 0,0 mm 11,2 km/h (2 Bft) O-SO 243 0 min 0,000 mm 1,1 UV-I 237 W/m 10,6 C 12,1 C 16,1 km/h (3 Bft)
22/09/2018 12:28 14,6 C 15,6 C 16,1 C 16,7 C 16,7 C 77 % 1 lf 0 lf 6 cb 3 cb 10 cb 1020,0 hPa 0,0 mm 7,4 km/h (2 Bft) O-NO 284 0 min 0,000 mm 1,1 UV-I 248 W/m 10,6 C 14,0 C 17,7 km/h (3 Bft)
22/09/2018 12:26 14,6 C 15,6 C 16,1 C 16,7 C 16,7 C 77 % 0 lf 0 lf 6 cb 3 cb 10 cb 1019,9 hPa 0,0 mm 7,7 km/h (2 Bft) S 185 0 min 0,000 mm 1,1 UV-I 241 W/m 10,6 C 13,8 C 16,1 km/h (3 Bft)
22/09/2018 12:24 14,6 C 15,6 C 16,1 C 16,7 C 16,7 C 78 % 1 lf 0 lf 6 cb 3 cb 10 cb 1019,9 hPa 0,0 mm 8,3 km/h (2 Bft) SO 226 0 min 0,000 mm 1,1 UV-I 243 W/m 10,8 C 13,5 C 16,1 km/h (3 Bft)
22/09/2018 12:22 14,6 C 15,6 C 16,1 C 16,7 C 16,7 C 77 % 0 lf 0 lf 6 cb 3 cb 10 cb 1019,9 hPa 0,0 mm 10,4 km/h (2 Bft) O-SO 255 0 min 0,000 mm 1,2 UV-I 265 W/m 10,6 C 12,5 C 17,7 km/h (3 Bft)
22/09/2018 12:20 14,6 C 15,6 C 16,1 C 16,7 C 16,7 C 79 % 0 lf 0 lf 6 cb 3 cb 10 cb 1019,9 hPa 0,0 mm 3,5 km/h (1 Bft) O-SO 254 0 min 0,000 mm 1,1 UV-I 246 W/m 11,0 C 14,6 C 11,3 km/h (2 Bft)
22/09/2018 12:18 14,6 C 15,6 C 16,1 C 16,7 C 16,7 C 80 % 0 lf 1 lf 6 cb 3 cb 10 cb 1019,9 hPa 0,0 mm 5,4 km/h (1 Bft) O-NO 288 0 min 0,000 mm 1,0 UV-I 232 W/m 11,2 C 14,6 C 11,3 km/h (2 Bft)
22/09/2018 12:16 14,6 C 15,6 C 16,1 C 16,7 C 16,7 C 81 % 1 lf 0 lf 6 cb 3 cb 10 cb 1020,0 hPa 0,0 mm 5,2 km/h (1 Bft) SO 215 0 min 0,000 mm 1,0 UV-I 232 W/m 11,4 C 14,6 C 11,3 km/h (2 Bft)
22/09/2018 12:14 14,5 C 15,6 C 16,1 C 16,7 C 16,7 C 81 % 0 lf 11 lf 6 cb 3 cb 10 cb 1020,2 hPa 0,0 mm 3,3 km/h (1 Bft) O-SO 246 0 min 0,000 mm 1,0 UV-I 239 W/m 11,3 C 14,5 C 11,3 km/h (2 Bft)
22/09/2018 12:12 14,4 C 15,6 C 16,1 C 16,7 C 16,7 C 83 % 0 lf 15 lf 6 cb 3 cb 10 cb 1020,2 hPa 0,0 mm 2,4 km/h (1 Bft) SO 233 0 min 0,000 mm 1,1 UV-I 267 W/m 11,5 C 14,4 C 6,4 km/h (2 Bft)
22/09/2018 12:10 14,4 C 15,6 C 16,1 C 16,7 C 16,7 C 83 % 10 lf 15 lf 6 cb 3 cb 10 cb 1020,2 hPa 0,0 mm 4,1 km/h (1 Bft) O-SO 253 0 min 0,000 mm 1,2 UV-I 281 W/m 11,5 C 14,4 C 8,0 km/h (2 Bft)
22/09/2018 12:08 14,3 C 15,6 C 16,1 C 16,7 C 16,7 C 84 % 13 lf 15 lf 6 cb 3 cb 10 cb 1020,3 hPa 0,0 mm 4,5 km/h (1 Bft) O 264 0 min 0,000 mm 1,1 UV-I 255 W/m 11,6 C 14,3 C 9,7 km/h (2 Bft)
22/09/2018 12:06 14,3 C 15,6 C 16,1 C 16,7 C 16,7 C 85 % 15 lf 15 lf 6 cb 3 cb 10 cb 1020,3 hPa 0,0 mm 1,9 km/h (1 Bft) O-SO 250 0 min 0,000 mm 1,0 UV-I 234 W/m 11,8 C 14,3 C 6,4 km/h (2 Bft)
22/09/2018 12:04 14,3 C 15,0 C 16,1 C 16,7 C 16,7 C 86 % 15 lf 15 lf 6 cb 3 cb 10 cb 1020,3 hPa 0,0 mm 5,1 km/h (1 Bft) O 262 0 min 0,000 mm 0,9 UV-I 223 W/m 12,0 C 14,3 C 9,7 km/h (2 Bft)
22/09/2018 12:02 14,2 C 15,0 C 16,1 C 16,7 C 16,7 C 86 % 15 lf 15 lf 6 cb 3 cb 10 cb 1020,2 hPa 0,0 mm 3,5 km/h (1 Bft) O 279 0 min 0,000 mm 1,0 UV-I 248 W/m 11,9 C 14,2 C 8,0 km/h (2 Bft)
22/09/2018 12:00 14,1 C 15,0 C 16,1 C 16,7 C 16,7 C 86 % 15 lf 15 lf 6 cb 3 cb 10 cb 1020,1 hPa 0,0 mm 4,7 km/h (1 Bft) O-SO 249 0 min 0,101 mm 1,0 UV-I 248 W/m 11,8 C 14,1 C 11,3 km/h (2 Bft)
22/09/2018 11:58 14,1 C 15,0 C 16,1 C 16,7 C 16,7 C 86 % 15 lf 15 lf 6 cb 3 cb 10 cb 1020,2 hPa 0,0 mm 3,3 km/h (1 Bft) O 259 0 min 0,000 mm 1,0 UV-I 251 W/m 11,8 C 14,1 C 4,8 km/h (1 Bft)
22/09/2018 11:56 13,9 C 15,0 C 16,1 C 16,7 C 16,7 C 86 % 15 lf 15 lf 6 cb 3 cb 10 cb 1020,3 hPa 0,0 mm 3,6 km/h (1 Bft) O-SO 241 0 min 0,000 mm 1,0 UV-I 221 W/m 11,6 C 13,9 C 8,0 km/h (2 Bft)
22/09/2018 11:54 13,9 C 15,0 C 16,1 C 16,7 C 16,7 C 87 % 15 lf 15 lf 6 cb 3 cb 10 cb 1020,3 hPa 0,0 mm 4,3 km/h (1 Bft) SO 225 0 min 0,000 mm 0,9 UV-I 211 W/m 11,8 C 13,9 C 8,0 km/h (2 Bft)
22/09/2018 11:52 13,9 C 14,4 C 16,1 C 16,7 C 16,7 C 87 % 15 lf 15 lf 6 cb 3 cb 10 cb 1020,2 hPa 0,0 mm 3,4 km/h (1 Bft) O 278 0 min 0,000 mm 0,8 UV-I 195 W/m 11,8 C 13,9 C 8,0 km/h (2 Bft)
22/09/2018 11:50 13,8 C 14,4 C 16,1 C 16,7 C 16,7 C 87 % 15 lf 15 lf 6 cb 3 cb 10 cb 1020,3 hPa 0,0 mm 4,7 km/h (1 Bft) O 273 0 min 0,000 mm 0,8 UV-I 197 W/m 11,7 C 13,8 C 11,3 km/h (2 Bft)
22/09/2018 11:48 13,8 C 14,4 C 16,1 C 16,7 C 16,7 C 87 % 15 lf 15 lf 6 cb 3 cb 10 cb 1020,2 hPa 0,0 mm 4,5 km/h (1 Bft) O 276 0 min 0,000 mm 0,8 UV-I 204 W/m 11,7 C 13,8 C 9,7 km/h (2 Bft)
22/09/2018 11:46 13,8 C 14,4 C 16,1 C 16,7 C 16,7 C 87 % 15 lf 15 lf 6 cb 3 cb 10 cb 1020,0 hPa 0,0 mm 5,0 km/h (1 Bft) O-SO 242 0 min 0,000 mm 0,9 UV-I 211 W/m 11,7 C 13,8 C 12,9 km/h (3 Bft)
22/09/2018 11:44 13,7 C 14,4 C 16,1 C 16,7 C 16,7 C 87 % 15 lf 15 lf 6 cb 3 cb 10 cb 1019,9 hPa 0,0 mm 7,4 km/h (2 Bft) O-SO 244 0 min 0,000 mm 0,8 UV-I 204 W/m 11,6 C 13,1 C 12,9 km/h (3 Bft)
22/09/2018 11:42 13,7 C 14,4 C 16,1 C 16,7 C 16,7 C 87 % 15 lf 15 lf 6 cb 3 cb 10 cb 1019,9 hPa 0,0 mm 7,0 km/h (2 Bft) S-SO 213 0 min 0,000 mm 0,8 UV-I 199 W/m 11,6 C 13,3 C 12,9 km/h (3 Bft)
22/09/2018 11:40 13,7 C 14,4 C 16,1 C 16,7 C 16,7 C 87 % 15 lf 15 lf 6 cb 3 cb 10 cb 1020,0 hPa 0,0 mm 2,1 km/h (1 Bft) O-SO 252 0 min 0,000 mm 0,8 UV-I 193 W/m 11,6 C 13,7 C 8,0 km/h (2 Bft)
22/09/2018 11:38 13,7 C 14,4 C 16,1 C 16,7 C 16,7 C 87 % 15 lf 15 lf 6 cb 3 cb 10 cb 1020,1 hPa 0,0 mm 5,8 km/h (2 Bft) O 266 0 min 0,000 mm 0,7 UV-I 174 W/m 11,6 C 13,7 C 11,3 km/h (2 Bft)
22/09/2018 11:36 13,7 C 14,4 C 16,1 C 16,7 C 16,7 C 87 % 15 lf 15 lf 6 cb 3 cb 10 cb 1020,3 hPa 0,0 mm 7,4 km/h (2 Bft) SO 233 0 min 0,000 mm 0,7 UV-I 171 W/m 11,6 C 13,1 C 14,5 km/h (3 Bft)
22/09/2018 11:34 13,7 C 14,4 C 16,1 C 16,7 C 16,7 C 86 % 15 lf 15 lf 6 cb 3 cb 10 cb 1020,5 hPa 0,0 mm 6,1 km/h (2 Bft) O 267 0 min 0,000 mm 0,7 UV-I 178 W/m 11,4 C 13,7 C 12,9 km/h (3 Bft)
22/09/2018 11:32 13,7 C 14,4 C 16,1 C 16,7 C 16,7 C 86 % 15 lf 15 lf 6 cb 3 cb 10 cb 1020,4 hPa 0,0 mm 8,2 km/h (2 Bft) O-SO 254 0 min 0,000 mm 0,7 UV-I 206 W/m 11,4 C 12,6 C 16,1 km/h (3 Bft)
22/09/2018 11:30 13,6 C 14,4 C 16,1 C 16,7 C 16,7 C 86 % 15 lf 15 lf 6 cb 3 cb 10 cb 1020,4 hPa 0,0 mm 7,2 km/h (2 Bft) O 273 0 min 0,000 mm 0,8 UV-I 232 W/m 11,3 C 13,1 C 14,5 km/h (3 Bft)
22/09/2018 11:28 13,6 C 14,4 C 16,1 C 16,7 C 16,7 C 86 % 15 lf 15 lf 6 cb 3 cb 10 cb 1020,3 hPa 0,0 mm 4,1 km/h (1 Bft) O-SO 246 0 min 0,000 mm 0,8 UV-I 230 W/m 11,3 C 13,6 C 11,3 km/h (2 Bft)
22/09/2018 11:26 13,6 C 14,4 C 16,1 C 16,7 C 16,7 C 87 % 15 lf 15 lf 6 cb 3 cb 10 cb 1020,2 hPa 0,0 mm 5,8 km/h (2 Bft) O 263 0 min 0,000 mm 0,8 UV-I 220 W/m 11,5 C 13,6 C 11,3 km/h (2 Bft)
22/09/2018 11:24 13,6 C 13,9 C 16,1 C 16,7 C 16,7 C 86 % 15 lf 15 lf 6 cb 3 cb 10 cb 1020,0 hPa 0,0 mm 4,5 km/h (1 Bft) O-NO 292 0 min 0,000 mm 0,8 UV-I 206 W/m 11,3 C 13,6 C 9,7 km/h (2 Bft)
22/09/2018 11:22 13,5 C 14,4 C 16,1 C 16,7 C 16,7 C 86 % 15 lf 15 lf 6 cb 3 cb 10 cb 1020,0 hPa 0,0 mm 6,4 km/h (2 Bft) SO 236 0 min 0,000 mm 0,7 UV-I 192 W/m 11,2 C 13,5 C 9,7 km/h (2 Bft)
22/09/2018 11:20 13,5 C 14,4 C 16,1 C 16,7 C 16,7 C 86 % 15 lf 15 lf 6 cb 3 cb 10 cb 1020,0 hPa 0,0 mm 6,2 km/h (2 Bft) SO 223 0 min 0,000 mm 0,8 UV-I 214 W/m 11,2 C 13,5 C 12,9 km/h (3 Bft)
22/09/2018 11:18 13,5 C 14,4 C 16,1 C 16,7 C 16,7 C 86 % 15 lf 15 lf 6 cb 3 cb 10 cb 1020,2 hPa 0,0 mm 7,3 km/h (2 Bft) SO 234 0 min 0,000 mm 0,8 UV-I 234 W/m 11,2 C 12,9 C 14,5 km/h (3 Bft)
22/09/2018 11:16 13,5 C 14,4 C 16,1 C 16,7 C 16,7 C 86 % 15 lf 15 lf 6 cb 3 cb 10 cb 1020,4 hPa 0,0 mm 8,6 km/h (2 Bft) O 274 0 min 0,000 mm 0,7 UV-I 160 W/m 11,2 C 12,2 C 14,5 km/h (3 Bft)
22/09/2018 11:14 13,5 C 14,4 C 16,1 C 16,7 C 16,7 C 86 % 15 lf 15 lf 6 cb 3 cb 10 cb 1020,4 hPa 0,0 mm 2,8 km/h (1 Bft) SO 235 0 min 0,000 mm 0,6 UV-I 142 W/m 11,2 C 13,5 C 9,7 km/h (2 Bft)
22/09/2018 11:12 13,4 C 13,9 C 16,1 C 16,7 C 16,7 C 86 % 15 lf 15 lf 6 cb 3 cb 10 cb 1020,6 hPa 0,0 mm 4,8 km/h (1 Bft) SO 236 0 min 0,000 mm 0,7 UV-I 156 W/m 11,1 C 13,4 C 11,3 km/h (2 Bft)
22/09/2018 11:10 13,4 C 13,9 C 16,1 C 16,7 C 16,7 C 86 % 15 lf 15 lf 6 cb 3 cb 10 cb 1020,6 hPa 0,0 mm 3,7 km/h (1 Bft) O-NO 287 0 min 0,000 mm 0,8 UV-I 214 W/m 11,1 C 13,4 C 11,3 km/h (2 Bft)
22/09/2018 11:08 13,3 C 13,9 C 16,1 C 16,7 C 16,7 C 86 % 15 lf 15 lf 6 cb 3 cb 10 cb 1020,5 hPa 0,0 mm 6,5 km/h (2 Bft) O-SO 244 0 min 0,000 mm 0,8 UV-I 195 W/m 11,0 C 13,3 C 12,9 km/h (3 Bft)
22/09/2018 11:06 13,3 C 13,9 C 16,1 C 16,7 C 16,7 C 86 % 15 lf 15 lf 6 cb 3 cb 10 cb 1020,6 hPa 0,0 mm 7,0 km/h (2 Bft) O-SO 248 0 min 0,000 mm 0,7 UV-I 169 W/m 11,0 C 12,9 C 16,1 km/h (3 Bft)
22/09/2018 11:04 13,3 C 13,9 C 16,1 C 16,7 C 16,7 C 86 % 15 lf 15 lf 6 cb 3 cb 10 cb 1020,5 hPa 0,0 mm 6,5 km/h (2 Bft) SO 234 0 min 0,000 mm 0,7 UV-I 169 W/m 11,0 C 13,3 C 16,1 km/h (3 Bft)
22/09/2018 11:02 13,3 C 13,9 C 16,1 C 16,7 C 16,7 C 86 % 15 lf 15 lf 6 cb 3 cb 10 cb 1020,5 hPa 0,0 mm 3,9 km/h (1 Bft) O 260 0 min 0,000 mm 0,7 UV-I 171 W/m 11,0 C 13,3 C 9,7 km/h (2 Bft)
22/09/2018 11:00 13,3 C 13,9 C 16,1 C 16,7 C 16,7 C 86 % 15 lf 15 lf 6 cb 3 cb 10 cb 1020,5 hPa 0,0 mm 6,6 km/h (2 Bft) SO 229 0 min 0,077 mm 0,7 UV-I 179 W/m 11,0 C 13,2 C 12,9 km/h (3 Bft)
22/09/2018 10:58 13,2 C 13,9 C 16,1 C 16,7 C 16,7 C 86 % 15 lf 15 lf 6 cb 3 cb 10 cb 1020,5 hPa 0,0 mm 6,5 km/h (2 Bft) O-SO 240 0 min 0,000 mm 0,6 UV-I 179 W/m 10,9 C 13,2 C 14,5 km/h (3 Bft)
22/09/2018 10:56 13,3 C 13,9 C 16,1 C 16,7 C 16,7 C 86 % 15 lf 15 lf 6 cb 3 cb 10 cb 1020,5 hPa 0,0 mm 4,9 km/h (1 Bft) O 281 0 min 0,000 mm 0,6 UV-I 160 W/m 11,0 C 13,3 C 11,3 km/h (2 Bft)
22/09/2018 10:54 13,2 C 13,9 C 16,1 C 16,7 C 16,7 C 85 % 15 lf 15 lf 6 cb 3 cb 10 cb 1020,5 hPa 0,0 mm 5,6 km/h (1 Bft) O-NO 288 0 min 0,000 mm 0,5 UV-I 128 W/m 10,7 C 13,2 C 11,3 km/h (2 Bft)
22/09/2018 10:52 13,3 C 13,9 C 16,1 C 16,7 C 16,7 C 86 % 15 lf 15 lf 6 cb 3 cb 10 cb 1020,6 hPa 0,0 mm 8,9 km/h (2 Bft) O-NO 288 0 min 0,000 mm 0,5 UV-I 127 W/m 11,0 C 11,8 C 17,7 km/h (3 Bft)
22/09/2018 10:50 13,3 C 13,9 C 16,1 C 16,7 C 16,7 C 86 % 15 lf 15 lf 6 cb 3 cb 10 cb 1020,5 hPa 0,0 mm 7,1 km/h (2 Bft) O-SO 258 0 min 0,000 mm 0,6 UV-I 171 W/m 11,0 C 12,9 C 11,3 km/h (2 Bft)
22/09/2018 10:48 13,3 C 13,9 C 16,1 C 16,7 C 16,7 C 86 % 15 lf 15 lf 6 cb 3 cb 10 cb 1020,5 hPa 0,0 mm 7,8 km/h (2 Bft) O-NO 289 0 min 0,000 mm 0,6 UV-I 183 W/m 11,0 C 12,4 C 16,1 km/h (3 Bft)
22/09/2018 10:46 13,3 C 13,9 C 16,1 C 16,7 C 16,7 C 86 % 15 lf 15 lf 6 cb 3 cb 10 cb 1020,4 hPa 0,0 mm 7,1 km/h (2 Bft) O-SO 256 0 min 0,000 mm 0,6 UV-I 193 W/m 11,0 C 12,9 C 12,9 km/h (3 Bft)
22/09/2018 10:44 13,4 C 13,9 C 16,1 C 16,7 C 16,7 C 87 % 15 lf 15 lf 6 cb 3 cb 10 cb 1020,3 hPa 0,0 mm 4,7 km/h (1 Bft) O-SO 250 0 min 0,000 mm 0,6 UV-I 202 W/m 11,3 C 13,4 C 11,3 km/h (2 Bft)
22/09/2018 10:42 13,4 C 13,9 C 16,1 C 16,7 C 16,7 C 87 % 15 lf 15 lf 6 cb 3 cb 10 cb 1020,3 hPa 0,0 mm 5,0 km/h (1 Bft) O 263 0 min 0,000 mm 0,7 UV-I 213 W/m 11,3 C 13,4 C 11,3 km/h (2 Bft)
22/09/2018 10:40 13,3 C 13,9 C 16,1 C 16,7 C 16,7 C 86 % 15 lf 15 lf 6 cb 3 cb 10 cb 1020,1 hPa 0,0 mm 0,0 km/h (0 Bft) O-SO 252 0 min 0,000 mm 0,7 UV-I 213 W/m 11,0 C 13,3 C 1,6 km/h (1 Bft)
22/09/2018 10:38 13,2 C 13,9 C 16,1 C 16,7 C 16,7 C 86 % 15 lf 15 lf 6 cb 3 cb 10 cb 1020,1 hPa 0,0 mm 1,5 km/h (1 Bft) O 263 0 min 0,000 mm 0,6 UV-I 197 W/m 10,9 C 13,2 C 8,0 km/h (2 Bft)
22/09/2018 10:36 13,2 C 13,9 C 16,1 C 16,7 C 16,7 C 86 % 15 lf 15 lf 6 cb 3 cb 10 cb 1020,2 hPa 0,0 mm 2,7 km/h (1 Bft) O 263 0 min 0,000 mm 0,6 UV-I 192 W/m 10,9 C 13,2 C 9,7 km/h (2 Bft)
22/09/2018 10:34 13,2 C 13,9 C 16,1 C 16,7 C 16,7 C 86 % 15 lf 15 lf 6 cb 3 cb 10 cb 1020,1 hPa 0,0 mm 3,8 km/h (1 Bft) O-NO 300 0 min 0,000 mm 0,6 UV-I 186 W/m 10,9 C 13,2 C 8,0 km/h (2 Bft)
22/09/2018 10:32 13,2 C 13,9 C 16,1 C 16,7 C 16,7 C 85 % 15 lf 15 lf 6 cb 3 cb 10 cb 1020,2 hPa 0,0 mm 8,7 km/h (2 Bft) O 275 0 min 0,000 mm 0,5 UV-I 192 W/m 10,7 C 11,8 C 14,5 km/h (3 Bft)
22/09/2018 10:30 13,2 C 13,9 C 16,1 C 16,7 C 16,7 C 85 % 15 lf 15 lf 6 cb 3 cb 10 cb 1020,2 hPa 0,0 mm 5,0 km/h (1 Bft) O 265 0 min 0,000 mm 0,5 UV-I 195 W/m 10,7 C 13,2 C 12,9 km/h (3 Bft)
22/09/2018 10:28 13,2 C 13,3 C 16,1 C 16,7 C 16,7 C 85 % 15 lf 15 lf 6 cb 3 cb 10 cb 1020,1 hPa 0,0 mm 3,6 km/h (1 Bft) O 265 0 min 0,000 mm 0,5 UV-I 160 W/m 10,7 C 13,2 C 9,7 km/h (2 Bft)
22/09/2018 10:26 13,1 C 13,3 C 16,1 C 16,7 C 16,7 C 85 % 15 lf 3 lf 6 cb 3 cb 10 cb 1020,2 hPa 0,0 mm 2,5 km/h (1 Bft) O-SO 240 0 min 0,000 mm 0,5 UV-I 153 W/m 10,6 C 13,1 C 8,0 km/h (2 Bft)
22/09/2018 10:24 13,1 C 13,3 C 16,1 C 16,7 C 16,7 C 85 % 13 lf 1 lf 6 cb 3 cb 10 cb 1020,3 hPa 0,0 mm 7,2 km/h (2 Bft) O 262 0 min 0,000 mm 0,0 UV-I 141 W/m 10,6 C 12,6 C 14,5 km/h (3 Bft)
22/09/2018 10:22 13,1 C 13,3 C 16,1 C 16,7 C 16,7 C 85 % 1 lf 0 lf 6 cb 3 cb 10 cb 1020,3 hPa 0,0 mm 8,1 km/h (2 Bft) O-NO 298 0 min 0,000 mm 0,0 UV-I 120 W/m 10,6 C 12,0 C 14,5 km/h (3 Bft)
22/09/2018 10:20 13,1 C 13,3 C 16,1 C 16,7 C 16,7 C 85 % 0 lf 0 lf 6 cb 3 cb 10 cb 1020,4 hPa 0,0 mm 6,3 km/h (2 Bft) O-NO 286 0 min 0,000 mm 0,0 UV-I 116 W/m 10,6 C 13,1 C 14,5 km/h (3 Bft)
22/09/2018 10:18 13,0 C 13,3 C 16,1 C 16,7 C 16,7 C 86 % 0 lf 0 lf 6 cb 3 cb 10 cb 1020,4 hPa 0,0 mm 7,8 km/h (2 Bft) O 270 0 min 0,000 mm 0,0 UV-I 107 W/m 10,7 C 12,1 C 14,5 km/h (3 Bft)
22/09/2018 10:16 13,0 C 13,3 C 16,1 C 16,7 C 16,7 C 86 % 0 lf 0 lf 6 cb 3 cb 10 cb 1020,4 hPa 0,0 mm 5,5 km/h (1 Bft) O-SO 251 0 min 0,000 mm 0,0 UV-I 93 W/m 10,7 C 13,0 C 11,3 km/h (2 Bft)
22/09/2018 10:14 13,0 C 13,3 C 16,1 C 16,7 C 16,7 C 86 % 0 lf 0 lf 6 cb 3 cb 10 cb 1020,4 hPa 0,0 mm 6,7 km/h (2 Bft) O 272 0 min 0,000 mm 0,0 UV-I 107 W/m 10,7 C 12,8 C 14,5 km/h (3 Bft)
22/09/2018 10:12 13,1 C 13,3 C 16,1 C 16,7 C 16,7 C 85 % 0 lf 0 lf 6 cb 3 cb 10 cb 1020,3 hPa 0,0 mm 7,0 km/h (2 Bft) O 275 0 min 0,000 mm 0,0 UV-I 102 W/m 10,6 C 12,7 C 14,5 km/h (3 Bft)
22/09/2018 10:10 13,1 C 13,3 C 16,1 C 16,7 C 16,7 C 85 % 0 lf 0 lf 6 cb 3 cb 10 cb 1020,3 hPa 0,0 mm 9,2 km/h (2 Bft) O 281 0 min 0,000 mm 0,0 UV-I 91 W/m 10,6 C 11,4 C 17,7 km/h (3 Bft)
22/09/2018 10:08 13,2 C 13,3 C 16,1 C 16,7 C 16,7 C 85 % 0 lf 0 lf 6 cb 3 cb 10 cb 1020,4 hPa 0,0 mm 9,8 km/h (2 Bft) O-SO 241 0 min 0,000 mm 0,0 UV-I 83 W/m 10,7 C 11,2 C 16,1 km/h (3 Bft)
22/09/2018 10:06 13,2 C 13,3 C 16,1 C 16,7 C 16,7 C 85 % 0 lf 0 lf 6 cb 3 cb 10 cb 1020,3 hPa 0,0 mm 10,4 km/h (2 Bft) O 273 0 min 0,000 mm 0,0 UV-I 104 W/m 10,7 C 10,9 C 17,7 km/h (3 Bft)
22/09/2018 10:04 13,2 C 13,3 C 16,1 C 16,7 C 16,7 C 85 % 0 lf 0 lf 6 cb 3 cb 10 cb 1020,1 hPa 0,0 mm 9,4 km/h (2 Bft) O-SO 254 0 min 0,000 mm 0,0 UV-I 144 W/m 10,7 C 11,4 C 17,7 km/h (3 Bft)
22/09/2018 10:02 13,1 C 13,3 C 16,1 C 16,7 C 16,7 C 85 % 0 lf 0 lf 6 cb 3 cb 10 cb 1020,1 hPa 0,0 mm 6,0 km/h (2 Bft) O-SO 237 0 min 0,000 mm 0,0 UV-I 155 W/m 10,6 C 13,1 C 12,9 km/h (3 Bft)
22/09/2018 10:00 13,1 C 13,3 C 16,1 C 16,7 C 16,7 C 85 % 0 lf 0 lf 6 cb 3 cb 10 cb 1020,0 hPa 0,0 mm 9,0 km/h (2 Bft) SO 235 0 min 0,076 mm 0,0 UV-I 121 W/m 10,6 C 11,5 C 12,9 km/h (3 Bft)
22/09/2018 09:58 13,1 C 13,3 C 16,1 C 16,7 C 16,7 C 85 % 0 lf 0 lf 6 cb 3 cb 10 cb 1020,0 hPa 0,0 mm 7,6 km/h (2 Bft) O 269 0 min 0,000 mm 0,0 UV-I 114 W/m 10,6 C 12,3 C 12,9 km/h (3 Bft)
22/09/2018 09:56 13,1 C 13,3 C 16,1 C 16,7 C 16,7 C 85 % 0 lf 0 lf 6 cb 3 cb 10 cb 1019,9 hPa 0,0 mm 3,5 km/h (1 Bft) O-SO 246 0 min 0,000 mm 0,0 UV-I 130 W/m 10,6 C 13,1 C 11,3 km/h (2 Bft)
22/09/2018 09:54 13,0 C 13,3 C 16,1 C 16,7 C 16,7 C 85 % 0 lf 0 lf 6 cb 3 cb 10 cb 1020,0 hPa 0,0 mm 6,1 km/h (2 Bft) O-SO 248 0 min 0,000 mm 0,0 UV-I 144 W/m 10,5 C 13,0 C 9,7 km/h (2 Bft)
22/09/2018 09:52 13,0 C 13,3 C 16,1 C 16,7 C 16,7 C 85 % 0 lf 0 lf 6 cb 3 cb 10 cb 1020,0 hPa 0,0 mm 8,6 km/h (2 Bft) O-SO 252 0 min 0,000 mm 0,0 UV-I 135 W/m 10,5 C 11,7 C 14,5 km/h (3 Bft)
22/09/2018 09:50 13,0 C 13,3 C 16,1 C 16,7 C 16,7 C 86 % 0 lf 0 lf 6 cb 3 cb 10 cb 1020,1 hPa 0,0 mm 7,9 km/h (2 Bft) SO 231 0 min 0,000 mm 0,0 UV-I 135 W/m 10,7 C 12,1 C 17,7 km/h (3 Bft)
22/09/2018 09:48 12,9 C 13,3 C 16,1 C 16,7 C 16,7 C 86 % 0 lf 0 lf 6 cb 3 cb 10 cb 1020,1 hPa 0,0 mm 8,3 km/h (2 Bft) SO 234 0 min 0,000 mm 0,0 UV-I 156 W/m 10,6 C 11,7 C 12,9 km/h (3 Bft)
22/09/2018 09:46 12,9 C 12,8 C 16,1 C 16,7 C 16,7 C 86 % 0 lf 0 lf 6 cb 3 cb 10 cb 1020,0 hPa 0,0 mm 7,5 km/h (2 Bft) O-SO 240 2 min 0,000 mm 0,5 UV-I 232 W/m 10,6 C 12,2 C 11,3 km/h (2 Bft)
22/09/2018 09:44 12,9 C 12,8 C 16,1 C 16,7 C 16,7 C 86 % 0 lf 0 lf 6 cb 3 cb 10 cb 1020,1 hPa 0,0 mm 8,5 km/h (2 Bft) SO 227 0 min 0,000 mm 0,0 UV-I 167 W/m 10,6 C 11,6 C 12,9 km/h (3 Bft)
22/09/2018 09:42 12,9 C 12,8 C 16,1 C 16,7 C 16,7 C 86 % 0 lf 0 lf 6 cb 3 cb 10 cb 1020,0 hPa 0,0 mm 7,6 km/h (2 Bft) S-SO 211 0 min 0,000 mm 0,0 UV-I 149 W/m 10,6 C 12,1 C 14,5 km/h (3 Bft)
22/09/2018 09:40 12,8 C 12,8 C 16,1 C 16,7 C 16,7 C 86 % 0 lf 0 lf 6 cb 3 cb 10 cb 1020,0 hPa 0,0 mm 4,5 km/h (1 Bft) O-SO 237 0 min 0,000 mm 0,0 UV-I 149 W/m 10,5 C 12,8 C 8,0 km/h (2 Bft)
22/09/2018 09:38 12,8 C 12,8 C 16,1 C 16,7 C 16,7 C 86 % 0 lf 0 lf 6 cb 3 cb 10 cb 1020,1 hPa 0,0 mm 4,9 km/h (1 Bft) O 263 0 min 0,000 mm 0,0 UV-I 151 W/m 10,5 C 12,8 C 8,0 km/h (2 Bft)
22/09/2018 09:36 12,7 C 12,8 C 16,1 C 16,7 C 16,7 C 86 % 0 lf 0 lf 6 cb 3 cb 10 cb 1020,2 hPa 0,0 mm 7,3 km/h (2 Bft) O-SO 253 0 min 0,000 mm 0,0 UV-I 160 W/m 10,4 C 12,1 C 12,9 km/h (3 Bft)
22/09/2018 09:34 12,7 C 12,8 C 16,1 C 16,7 C 16,7 C 87 % 0 lf 0 lf 6 cb 3 cb 10 cb 1020,1 hPa 0,0 mm 6,4 km/h (2 Bft) SO 217 2 min 0,000 mm 0,0 UV-I 169 W/m 10,6 C 12,7 C 11,3 km/h (2 Bft)
22/09/2018 09:32 12,7 C 12,8 C 16,1 C 16,7 C 16,7 C 87 % 0 lf 0 lf 6 cb 3 cb 10 cb 1020,1 hPa 0,0 mm 6,4 km/h (2 Bft) SO 231 0 min 0,000 mm 0,0 UV-I 151 W/m 10,6 C 12,7 C 11,3 km/h (2 Bft)
22/09/2018 09:30 12,7 C 12,8 C 16,1 C 16,7 C 16,7 C 87 % 0 lf 0 lf 6 cb 3 cb 10 cb 1020,1 hPa 0,0 mm 4,7 km/h (1 Bft) SO 227 0 min 0,000 mm 0,0 UV-I 121 W/m 10,6 C 12,7 C 9,7 km/h (2 Bft)
22/09/2018 09:28 12,6 C 12,8 C 16,1 C 16,7 C 16,7 C 87 % 0 lf 0 lf 6 cb 3 cb 10 cb 1020,3 hPa 0,0 mm 6,2 km/h (2 Bft) SO 223 0 min 0,000 mm 0,0 UV-I 132 W/m 10,5 C 12,6 C 11,3 km/h (2 Bft)
22/09/2018 09:26 12,6 C 12,8 C 16,1 C 16,7 C 16,7 C 87 % 0 lf 0 lf 6 cb 3 cb 10 cb 1020,3 hPa 0,0 mm 7,2 km/h (2 Bft) O-SO 237 0 min 0,000 mm 0,0 UV-I 132 W/m 10,5 C 12,1 C 11,3 km/h (2 Bft)
22/09/2018 09:24 12,5 C 12,8 C 16,1 C 16,7 C 16,7 C 88 % 0 lf 0 lf 6 cb 3 cb 10 cb 1020,3 hPa 0,0 mm 5,1 km/h (1 Bft) O-SO 242 2 min 0,000 mm 0,0 UV-I 156 W/m 10,6 C 12,5 C 8,0 km/h (2 Bft)
22/09/2018 09:22 12,4 C 12,2 C 16,1 C 16,7 C 16,7 C 88 % 0 lf 0 lf 6 cb 3 cb 10 cb 1020,3 hPa 0,0 mm 5,8 km/h (2 Bft) SO 231 2 min 0,000 mm 0,0 UV-I 195 W/m 10,5 C 12,4 C 11,3 km/h (2 Bft)
22/09/2018 09:20 12,3 C 12,2 C 16,1 C 16,7 C 16,7 C 88 % 0 lf 0 lf 6 cb 3 cb 10 cb 1020,4 hPa 0,0 mm 5,1 km/h (1 Bft) SO 235 2 min 0,000 mm 0,0 UV-I 162 W/m 10,4 C 12,3 C 9,7 km/h (2 Bft)
22/09/2018 09:18 12,2 C 12,2 C 16,1 C 16,7 C 16,7 C 88 % 1 lf 0 lf 6 cb 3 cb 10 cb 1020,3 hPa 0,0 mm 7,1 km/h (2 Bft) S 185 2 min 0,000 mm 0,0 UV-I 148 W/m 10,3 C 11,7 C 12,9 km/h (3 Bft)
22/09/2018 09:16 12,2 C 12,2 C 16,1 C 16,7 C 16,7 C 88 % 1 lf 0 lf 6 cb 3 cb 10 cb 1020,3 hPa 0,0 mm 6,9 km/h (2 Bft) SO 231 0 min 0,000 mm 0,0 UV-I 134 W/m 10,3 C 11,9 C 11,3 km/h (2 Bft)
22/09/2018 09:14 12,2 C 12,2 C 16,1 C 16,7 C 16,7 C 88 % 1 lf 0 lf 6 cb 3 cb 10 cb 1020,3 hPa 0,0 mm 4,7 km/h (1 Bft) SO 227 0 min 0,000 mm 0,0 UV-I 102 W/m 10,3 C 12,2 C 11,3 km/h (2 Bft)
22/09/2018 09:12 12,1 C 12,2 C 16,1 C 16,7 C 16,7 C 88 % 1 lf 0 lf 6 cb 3 cb 10 cb 1020,3 hPa 0,0 mm 5,5 km/h (1 Bft) O-SO 242 0 min 0,000 mm 0,0 UV-I 86 W/m 10,2 C 12,1 C 11,3 km/h (2 Bft)
22/09/2018 09:10 12,2 C 12,2 C 16,1 C 16,7 C 16,7 C 88 % 1 lf 0 lf 6 cb 3 cb 10 cb 1020,3 hPa 0,0 mm 5,9 km/h (2 Bft) SO 234 0 min 0,000 mm 0,0 UV-I 72 W/m 10,3 C 12,2 C 11,3 km/h (2 Bft)
22/09/2018 09:08 12,2 C 12,2 C 16,1 C 16,7 C 16,7 C 88 % 1 lf 0 lf 6 cb 3 cb 10 cb 1020,2 hPa 0,0 mm 6,7 km/h (2 Bft) SO 232 0 min 0,000 mm 0,0 UV-I 65 W/m 10,3 C 12,0 C 9,7 km/h (2 Bft)
22/09/2018 09:06 12,2 C 12,2 C 16,1 C 16,7 C 16,7 C 88 % 1 lf 0 lf 6 cb 3 cb 10 cb 1020,2 hPa 0,0 mm 4,2 km/h (1 Bft) SO 232 0 min 0,000 mm 0,0 UV-I 62 W/m 10,3 C 12,2 C 8,0 km/h (2 Bft)
22/09/2018 09:04 12,2 C 12,2 C 16,1 C 16,7 C 16,7 C 88 % 1 lf 0 lf 6 cb 3 cb 10 cb 1020,2 hPa 0,0 mm 4,5 km/h (1 Bft) O 262 0 min 0,000 mm 0,0 UV-I 67 W/m 10,3 C 12,2 C 9,7 km/h (2 Bft)
22/09/2018 09:02 12,2 C 12,2 C 16,1 C 16,7 C 16,7 C 88 % 1 lf 0 lf 6 cb 3 cb 10 cb 1020,2 hPa 0,0 mm 3,8 km/h (1 Bft) O-SO 244 0 min 0,000 mm 0,0 UV-I 74 W/m 10,3 C 12,2 C 9,7 km/h (2 Bft)
22/09/2018 09:00 12,2 C 12,2 C 16,1 C 16,7 C 16,7 C 88 % 1 lf 1 lf 6 cb 3 cb 10 cb 1020,2 hPa 0,0 mm 4,4 km/h (1 Bft) S 185 0 min 0,025 mm 0,0 UV-I 84 W/m 10,3 C 12,2 C 6,4 km/h (2 Bft)
22/09/2018 08:58 12,1 C 12,2 C 16,1 C 16,7 C 16,7 C 88 % 3 lf 4 lf 6 cb 3 cb 10 cb 1020,1 hPa 0,0 mm 4,9 km/h (1 Bft) SO 236 0 min 0,000 mm 0,0 UV-I 93 W/m 10,2 C 12,1 C 8,0 km/h (2 Bft)
22/09/2018 08:56 12,1 C 12,2 C 16,1 C 16,7 C 16,7 C 88 % 3 lf 2 lf 6 cb 3 cb 10 cb 1020,3 hPa 0,0 mm 4,5 km/h (1 Bft) O 259 0 min 0,000 mm 0,0 UV-I 81 W/m 10,2 C 12,1 C 8,0 km/h (2 Bft)
22/09/2018 08:54 12,1 C 11,7 C 16,1 C 16,7 C 16,7 C 88 % 1 lf 0 lf 6 cb 3 cb 10 cb 1020,3 hPa 0,0 mm 3,1 km/h (1 Bft) O-SO 244 0 min 0,000 mm 0,0 UV-I 62 W/m 10,2 C 12,1 C 8,0 km/h (2 Bft)
22/09/2018 08:52 12,1 C 11,7 C 16,1 C 16,7 C 16,7 C 88 % 1 lf 0 lf 6 cb 3 cb 10 cb 1020,4 hPa 0,0 mm 3,8 km/h (1 Bft) O 261 0 min 0,000 mm 0,0 UV-I 49 W/m 10,2 C 12,1 C 11,3 km/h (2 Bft)
22/09/2018 08:50 12,0 C 11,7 C 16,1 C 16,7 C 16,7 C 88 % 1 lf 0 lf 6 cb 3 cb 10 cb 1020,4 hPa 0,0 mm 3,3 km/h (1 Bft) O 260 0 min 0,000 mm 0,0 UV-I 56 W/m 10,1 C 12,0 C 6,4 km/h (2 Bft)
22/09/2018 08:48 12,0 C 11,7 C 16,1 C 16,7 C 16,7 C 88 % 1 lf 0 lf 6 cb 3 cb 10 cb 1020,4 hPa 0,0 mm 1,1 km/h (1 Bft) O-SO 248 0 min 0,000 mm 0,0 UV-I 65 W/m 10,1 C 12,0 C 4,8 km/h (1 Bft)
22/09/2018 08:46 11,9 C 11,7 C 16,1 C 16,7 C 16,7 C 88 % 1 lf 0 lf 6 cb 3 cb 10 cb 1020,2 hPa 0,0 mm 5,3 km/h (1 Bft) O-SO 246 0 min 0,000 mm 0,0 UV-I 67 W/m 10,0 C 11,9 C 11,3 km/h (2 Bft)
22/09/2018 08:44 11,9 C 11,7 C 16,1 C 16,7 C 16,7 C 88 % 1 lf 0 lf 6 cb 3 cb 10 cb 1020,2 hPa 0,0 mm 1,2 km/h (1 Bft) SO 236 0 min 0,000 mm 0,0 UV-I 53 W/m 10,0 C 11,9 C 8,0 km/h (2 Bft)
22/09/2018 08:42 11,9 C 11,7 C 16,1 C 16,7 C 16,7 C 88 % 1 lf 0 lf 6 cb 3 cb 10 cb 1020,3 hPa 0,0 mm 0,4 km/h (0 Bft) SO 236 0 min 0,000 mm 0,0 UV-I 51 W/m 10,0 C 11,9 C 4,8 km/h (1 Bft)
22/09/2018 08:40 11,8 C 11,7 C 16,1 C 16,7 C 16,7 C 89 % 1 lf 0 lf 6 cb 3 cb 10 cb 1020,3 hPa 0,0 mm 1,5 km/h (1 Bft) O-SO 243 0 min 0,000 mm 0,0 UV-I 53 W/m 10,0 C 11,8 C 6,4 km/h (2 Bft)
22/09/2018 08:38 11,8 C 11,7 C 16,1 C 16,7 C 16,7 C 89 % 1 lf 0 lf 6 cb 3 cb 10 cb 1020,1 hPa 0,0 mm 1,8 km/h (1 Bft) O-SO 247 0 min 0,000 mm 0,0 UV-I 62 W/m 10,0 C 11,8 C 6,4 km/h (2 Bft)
22/09/2018 08:36 11,8 C 11,7 C 16,1 C 16,7 C 16,7 C 89 % 1 lf 0 lf 6 cb 3 cb 10 cb 1020,1 hPa 0,0 mm 2,6 km/h (1 Bft) SO 234 0 min 0,000 mm 0,0 UV-I 72 W/m 10,0 C 11,8 C 8,0 km/h (2 Bft)
22/09/2018 08:34 11,7 C 11,7 C 16,1 C 16,7 C 16,7 C 89 % 1 lf 0 lf 6 cb 3 cb 10 cb 1020,0 hPa 0,0 mm 3,6 km/h (1 Bft) O-SO 249 0 min 0,000 mm 0,0 UV-I 63 W/m 9,9 C 11,7 C 8,0 km/h (2 Bft)
22/09/2018 08:32 11,7 C 11,7 C 16,1 C 16,7 C 16,7 C 89 % 1 lf 0 lf 6 cb 3 cb 10 cb 1020,0 hPa 0,0 mm 4,3 km/h (1 Bft) O-SO 239 0 min 0,000 mm 0,0 UV-I 62 W/m 9,9 C 11,7 C 8,0 km/h (2 Bft)
22/09/2018 08:30 11,7 C 11,1 C 16,1 C 16,7 C 16,7 C 89 % 1 lf 1 lf 6 cb 3 cb 10 cb 1020,1 hPa 0,0 mm 2,6 km/h (1 Bft) O-SO 246 0 min 0,000 mm 0,0 UV-I 60 W/m 9,9 C 11,7 C 6,4 km/h (2 Bft)
22/09/2018 08:28 11,6 C 11,1 C 16,1 C 16,7 C 16,7 C 89 % 1 lf 1 lf 6 cb 3 cb 10 cb 1020,1 hPa 0,0 mm 5,2 km/h (1 Bft) SO 229 0 min 0,000 mm 0,0 UV-I 60 W/m 9,8 C 11,6 C 9,7 km/h (2 Bft)
22/09/2018 08:26 11,6 C 11,1 C 16,1 C 16,7 C 16,7 C 89 % 1 lf 1 lf 6 cb 3 cb 10 cb 1020,1 hPa 0,0 mm 6,5 km/h (2 Bft) O-SO 246 0 min 0,000 mm 0,0 UV-I 62 W/m 9,8 C 11,6 C 11,3 km/h (2 Bft)
22/09/2018 08:24 11,6 C 11,1 C 16,1 C 16,7 C 16,7 C 89 % 1 lf 1 lf 6 cb 3 cb 10 cb 1020,0 hPa 0,0 mm 2,0 km/h (1 Bft) SO 236 0 min 0,000 mm 0,0 UV-I 62 W/m 9,8 C 11,6 C 6,4 km/h (2 Bft)
22/09/2018 08:22 11,5 C 11,1 C 16,1 C 16,7 C 16,7 C 89 % 1 lf 1 lf 6 cb 3 cb 10 cb 1020,0 hPa 0,0 mm 0,6 km/h (0 Bft) O-SO 237 0 min 0,000 mm 0,0 UV-I 58 W/m 9,8 C 11,5 C 4,8 km/h (1 Bft)
22/09/2018 08:20 11,5 C 11,1 C 16,1 C 16,7 C 16,7 C 89 % 1 lf 1 lf 6 cb 3 cb 10 cb 1019,9 hPa 0,0 mm 1,0 km/h (0 Bft) SO 229 0 min 0,000 mm 0,0 UV-I 54 W/m 9,8 C 11,5 C 3,2 km/h (1 Bft)
22/09/2018 08:18 11,5 C 11,1 C 16,1 C 16,7 C 16,7 C 89 % 1 lf 1 lf 6 cb 3 cb 10 cb 1019,9 hPa 0,0 mm 3,5 km/h (1 Bft) SO 235 0 min 0,000 mm 0,0 UV-I 53 W/m 9,8 C 11,5 C 12,9 km/h (3 Bft)
22/09/2018 08:16 11,5 C 11,1 C 16,1 C 16,7 C 16,7 C 89 % 1 lf 1 lf 6 cb 3 cb 10 cb 1019,9 hPa 0,0 mm 4,2 km/h (1 Bft) SO 232 0 min 0,000 mm 0,0 UV-I 51 W/m 9,8 C 11,5 C 9,7 km/h (2 Bft)
22/09/2018 08:14 11,5 C 11,1 C 16,1 C 16,7 C 16,7 C 89 % 1 lf 1 lf 6 cb 3 cb 10 cb 1019,9 hPa 0,0 mm 3,4 km/h (1 Bft) O-SO 239 0 min 0,000 mm 0,0 UV-I 47 W/m 9,8 C 11,5 C 6,4 km/h (2 Bft)
22/09/2018 08:12 11,4 C 11,1 C 16,1 C 16,7 C 16,7 C 89 % 1 lf 1 lf 6 cb 3 cb 10 cb 1019,9 hPa 0,0 mm 4,9 km/h (1 Bft) SO 235 0 min 0,000 mm 0,0 UV-I 44 W/m 9,7 C 11,4 C 9,7 km/h (2 Bft)
22/09/2018 08:10 11,4 C 11,1 C 16,1 C 16,7 C 16,7 C 89 % 1 lf 1 lf 6 cb 3 cb 10 cb 1019,9 hPa 0,0 mm 7,4 km/h (2 Bft) O-SO 242 0 min 0,000 mm 0,0 UV-I 37 W/m 9,7 C 10,7 C 11,3 km/h (2 Bft)
22/09/2018 08:08 11,4 C 11,1 C 16,1 C 16,7 C 16,7 C 89 % 1 lf 1 lf 6 cb 3 cb 10 cb 1019,9 hPa 0,0 mm 6,8 km/h (2 Bft) O-SO 238 0 min 0,000 mm 0,0 UV-I 32 W/m 9,7 C 11,1 C 14,5 km/h (3 Bft)
22/09/2018 08:06 11,4 C 11,1 C 16,1 C 16,7 C 16,7 C 89 % 1 lf 1 lf 6 cb 3 cb 10 cb 1019,9 hPa 0,0 mm 6,1 km/h (2 Bft) O-SO 240 0 min 0,000 mm 0,0 UV-I 30 W/m 9,7 C 11,4 C 12,9 km/h (3 Bft)
22/09/2018 08:04 11,4 C 11,1 C 16,1 C 16,7 C 16,7 C 89 % 1 lf 1 lf 6 cb 3 cb 10 cb 1019,9 hPa 0,0 mm 4,6 km/h (1 Bft) SO 226 0 min 0,000 mm 0,0 UV-I 28 W/m 9,7 C 11,4 C 11,3 km/h (2 Bft)
22/09/2018 08:02 11,4 C 11,1 C 16,1 C 16,7 C 16,7 C 89 % 1 lf 1 lf 6 cb 3 cb 10 cb 1020,0 hPa 0,0 mm 3,3 km/h (1 Bft) O-SO 238 0 min 0,000 mm 0,0 UV-I 25 W/m 9,7 C 11,4 C 11,3 km/h (2 Bft)
22/09/2018 08:00 11,4 C 11,1 C 16,1 C 16,7 C 16,7 C 90 % 1 lf 1 lf 6 cb 3 cb 10 cb 1020,0 hPa 0,0 mm 5,9 km/h (2 Bft) O-SO 243 0 min 0,000 mm 0,0 UV-I 21 W/m 9,8 C 11,4 C 8,0 km/h (2 Bft)
22/09/2018 07:58 11,4 C 11,1 C 16,1 C 16,7 C 16,7 C 90 % 1 lf 1 lf 6 cb 3 cb 10 cb 1020,0 hPa 0,0 mm 5,2 km/h (1 Bft) SO 225 0 min 0,000 mm 0,0 UV-I 18 W/m 9,8 C 11,4 C 8,0 km/h (2 Bft)
22/09/2018 07:56 11,4 C 11,1 C 16,1 C 16,7 C 16,7 C 90 % 1 lf 1 lf 6 cb 3 cb 10 cb 1020,0 hPa 0,0 mm 6,1 km/h (2 Bft) O-SO 257 0 min 0,000 mm 0,0 UV-I 12 W/m 9,8 C 11,4 C 12,9 km/h (3 Bft)
22/09/2018 07:54 11,4 C 11,1 C 16,1 C 16,7 C 16,7 C 90 % 1 lf 1 lf 6 cb 3 cb 10 cb 1020,0 hPa 0,0 mm 6,8 km/h (2 Bft) O 261 0 min 0,000 mm 0,0 UV-I 11 W/m 9,8 C 11,1 C 11,3 km/h (2 Bft)
22/09/2018 07:52 11,4 C 11,1 C 16,1 C 16,7 C 16,7 C 90 % 1 lf 1 lf 5 cb 3 cb 10 cb 1020,0 hPa 0,0 mm 5,3 km/h (1 Bft) O-SO 242 0 min 0,000 mm 0,0 UV-I 9 W/m 9,8 C 11,4 C 11,3 km/h (2 Bft)
22/09/2018 07:50 11,3 C 11,1 C 16,1 C 16,7 C 16,7 C 90 % 1 lf 1 lf 6 cb 3 cb 10 cb 1020,0 hPa 0,0 mm 4,6 km/h (1 Bft) O-SO 240 0 min 0,000 mm 0,0 UV-I 7 W/m 9,7 C 11,3 C 8,0 km/h (2 Bft)
22/09/2018 07:48 11,3 C 11,1 C 16,1 C 16,7 C 16,7 C 90 % 1 lf 1 lf 6 cb 3 cb 10 cb 1019,9 hPa 0,0 mm 4,6 km/h (1 Bft) SO 234 0 min 0,000 mm 0,0 UV-I 5 W/m 9,7 C 11,3 C 9,7 km/h (2 Bft)
22/09/2018 07:46 11,3 C 11,1 C 16,1 C 16,7 C 16,7 C 90 % 1 lf 1 lf 6 cb 3 cb 10 cb 1020,0 hPa 0,0 mm 4,2 km/h (1 Bft) SO 236 0 min 0,000 mm 0,0 UV-I 5 W/m 9,7 C 11,3 C 11,3 km/h (2 Bft)
22/09/2018 07:44 11,3 C 11,1 C 16,1 C 16,7 C 16,7 C 90 % 1 lf 1 lf 6 cb 3 cb 10 cb 1020,0 hPa 0,0 mm 6,3 km/h (2 Bft) SO 225 0 min 0,000 mm 0,0 UV-I 5 W/m 9,7 C 11,3 C 11,3 km/h (2 Bft)
22/09/2018 07:42 11,3 C 11,1 C 16,1 C 16,7 C 16,7 C 90 % 1 lf 1 lf 5 cb 3 cb 10 cb 1019,9 hPa 0,0 mm 6,2 km/h (2 Bft) O-SO 240 0 min 0,000 mm 0,0 UV-I 5 W/m 9,7 C 11,3 C 9,7 km/h (2 Bft)
22/09/2018 07:40 11,3 C 11,1 C 16,1 C 16,7 C 16,7 C 90 % 1 lf 1 lf 6 cb 3 cb 10 cb 1020,0 hPa 0,0 mm 3,1 km/h (1 Bft) O-SO 240 0 min 0,000 mm 0,0 UV-I 0 W/m 9,7 C 11,3 C 6,4 km/h (2 Bft)
22/09/2018 07:38 11,3 C 11,1 C 16,1 C 16,7 C 16,7 C 90 % 1 lf 1 lf 5 cb 3 cb 10 cb 1019,9 hPa 0,0 mm 5,7 km/h (1 Bft) O-SO 243 0 min 0,000 mm 0,0 UV-I 0 W/m 9,7 C 11,3 C 8,0 km/h (2 Bft)
22/09/2018 07:36 11,3 C 11,1 C 16,1 C 16,7 C 16,7 C 90 % 1 lf 1 lf 5 cb 3 cb 10 cb 1019,8 hPa 0,0 mm 1,9 km/h (1 Bft) O-SO 241 0 min 0,000 mm 0,0 UV-I 0 W/m 9,7 C 11,3 C 6,4 km/h (2 Bft)
22/09/2018 07:34 11,3 C 11,1 C 16,1 C 16,7 C 16,7 C 90 % 1 lf 1 lf 5 cb 3 cb 10 cb 1019,8 hPa 0,0 mm 1,8 km/h (1 Bft) O-SO 240 0 min 0,000 mm 0,0 UV-I 0 W/m 9,7 C 11,3 C 4,8 km/h (1 Bft)
22/09/2018 07:32 11,3 C 11,1 C 16,1 C 16,7 C 16,7 C 90 % 1 lf 1 lf 5 cb 3 cb 10 cb 1019,8 hPa 0,0 mm 0,6 km/h (0 Bft) O-SO 243 0 min 0,000 mm 0,0 UV-I 0 W/m 9,7 C 11,3 C 4,8 km/h (1 Bft)
22/09/2018 07:30 11,2 C 11,1 C 16,1 C 16,7 C 16,7 C 90 % 1 lf 1 lf 5 cb 3 cb 10 cb 1019,8 hPa 0,0 mm 3,8 km/h (1 Bft) O-SO 243 0 min 0,000 mm 0,0 UV-I 0 W/m 9,6 C 11,2 C 6,4 km/h (2 Bft)
22/09/2018 07:28 11,2 C 10,6 C 16,1 C 16,7 C 16,7 C 90 % 1 lf 1 lf 5 cb 3 cb 10 cb 1019,9 hPa 0,0 mm 1,8 km/h (1 Bft) O-SO 245 0 min 0,000 mm 0,0 UV-I 0 W/m 9,6 C 11,2 C 4,8 km/h (1 Bft)
22/09/2018 07:26 11,2 C 10,6 C 16,1 C 16,7 C 16,7 C 90 % 1 lf 1 lf 5 cb 3 cb 10 cb 1019,9 hPa 0,0 mm 0,9 km/h (0 Bft) O-SO 244 0 min 0,000 mm 0,0 UV-I 0 W/m 9,6 C 11,2 C 4,8 km/h (1 Bft)
22/09/2018 07:24 11,2 C 10,6 C 16,1 C 16,7 C 16,7 C 90 % 1 lf 1 lf 5 cb 3 cb 10 cb 1020,0 hPa 0,0 mm 0,6 km/h (0 Bft) O-SO 244 0 min 0,000 mm 0,0 UV-I 0 W/m 9,6 C 11,2 C 3,2 km/h (1 Bft)
22/09/2018 07:22 11,2 C 10,6 C 16,1 C 16,7 C 16,7 C 90 % 1 lf 1 lf 5 cb 3 cb 10 cb 1020,0 hPa 0,0 mm 0,0 km/h (0 Bft) O-SO 244 0 min 0,000 mm 0,0 UV-I 0 W/m 9,6 C 11,2 C 0,0 km/h (0 Bft)
22/09/2018 07:20 11,2 C 10,6 C 16,1 C 16,7 C 16,7 C 90 % 1 lf 1 lf 5 cb 3 cb 10 cb 1020,0 hPa 0,0 mm 0,4 km/h (0 Bft) O-SO 244 0 min 0,000 mm 0,0 UV-I 0 W/m 9,6 C 11,2 C 3,2 km/h (1 Bft)
22/09/2018 07:18 11,2 C 10,6 C 16,1 C 16,7 C 16,7 C 90 % 1 lf 1 lf 5 cb 3 cb 10 cb 1019,9 hPa 0,0 mm 1,4 km/h (1 Bft) O-SO 244 0 min 0,000 mm 0,0 UV-I 0 W/m 9,6 C 11,2 C 4,8 km/h (1 Bft)
22/09/2018 07:16 11,2 C 10,6 C 16,1 C 16,7 C 16,7 C 90 % 1 lf 1 lf 5 cb 3 cb 10 cb 1020,0 hPa 0,0 mm 2,4 km/h (1 Bft) O-SO 243 0 min 0,000 mm 0,0 UV-I 0 W/m 9,6 C 11,2 C 4,8 km/h (1 Bft)
22/09/2018 07:14 11,1 C 10,6 C 16,1 C 16,7 C 16,7 C 91 % 2 lf 1 lf 5 cb 3 cb 10 cb 1019,9 hPa 0,0 mm 3,8 km/h (1 Bft) O-SO 243 0 min 0,000 mm 0,0 UV-I 0 W/m 9,7 C 11,1 C 8,0 km/h (2 Bft)
22/09/2018 07:12 11,1 C 10,6 C 16,1 C 16,7 C 16,7 C 91 % 3 lf 3 lf 5 cb 3 cb 10 cb 1019,9 hPa 0,0 mm 4,5 km/h (1 Bft) O-SO 243 0 min 0,000 mm 0,0 UV-I 0 W/m 9,7 C 11,1 C 8,0 km/h (2 Bft)
22/09/2018 07:10 11,1 C 10,6 C 16,1 C 16,7 C 16,7 C 91 % 1 lf 2 lf 5 cb 3 cb 10 cb 1020,0 hPa 0,0 mm 3,6 km/h (1 Bft) O-SO 246 0 min 0,000 mm 0,0 UV-I 0 W/m 9,7 C 11,1 C 8,0 km/h (2 Bft)
22/09/2018 07:08 11,0 C 10,6 C 16,1 C 16,7 C 16,7 C 91 % 1 lf 1 lf 5 cb 3 cb 10 cb 1020,0 hPa 0,0 mm 2,4 km/h (1 Bft) O-SO 239 0 min 0,000 mm 0,0 UV-I 0 W/m 9,6 C 11,0 C 8,0 km/h (2 Bft)
22/09/2018 07:06 10,9 C 10,6 C 16,1 C 16,7 C 16,7 C 91 % 1 lf 1 lf 5 cb 3 cb 10 cb 1020,0 hPa 0,0 mm 3,4 km/h (1 Bft) O-SO 238 0 min 0,000 mm 0,0 UV-I 0 W/m 9,5 C 10,9 C 6,4 km/h (2 Bft)
22/09/2018 07:04 10,9 C 10,6 C 16,1 C 16,7 C 16,7 C 91 % 1 lf 1 lf 5 cb 3 cb 10 cb 1020,0 hPa 0,0 mm 3,0 km/h (1 Bft) SO 234 0 min 0,000 mm 0,0 UV-I 0 W/m 9,5 C 10,9 C 6,4 km/h (2 Bft)
22/09/2018 07:02 10,8 C 10,6 C 16,1 C 16,7 C 16,7 C 91 % 1 lf 1 lf 5 cb 3 cb 10 cb 1020,0 hPa 0,0 mm 3,8 km/h (1 Bft) SO 234 0 min 0,000 mm 0,0 UV-I 0 W/m 9,4 C 10,8 C 8,0 km/h (2 Bft)
22/09/2018 07:00 10,8 C 10,6 C 16,1 C 16,7 C 16,7 C 91 % 1 lf 1 lf 5 cb 3 cb 10 cb 1019,9 hPa 0,0 mm 2,0 km/h (1 Bft) S 185 0 min 0,000 mm 0,0 UV-I 0 W/m 9,4 C 10,8 C 4,8 km/h (1 Bft)
22/09/2018 06:58 10,8 C 10,6 C 16,1 C 16,7 C 16,7 C 90 % 2 lf 1 lf 5 cb 3 cb 10 cb 1019,9 hPa 0,0 mm 2,4 km/h (1 Bft) SO 235 0 min 0,000 mm 0,0 UV-I 0 W/m 9,2 C 10,8 C 6,4 km/h (2 Bft)
22/09/2018 06:56 10,8 C 10,6 C 16,1 C 16,7 C 16,7 C 90 % 1 lf 1 lf 5 cb 3 cb 10 cb 1019,9 hPa 0,0 mm 2,5 km/h (1 Bft) SO 235 0 min 0,000 mm 0,0 UV-I 0 W/m 9,2 C 10,8 C 4,8 km/h (1 Bft)
22/09/2018 06:54 10,8 C 10,6 C 16,1 C 16,7 C 16,7 C 90 % 1 lf 1 lf 5 cb 3 cb 10 cb 1019,8 hPa 0,0 mm 2,7 km/h (1 Bft) SO 234 0 min 0,000 mm 0,0 UV-I 0 W/m 9,2 C 10,8 C 6,4 km/h (2 Bft)
22/09/2018 06:52 10,8 C 10,6 C 16,1 C 16,7 C 16,7 C 90 % 2 lf 1 lf 5 cb 3 cb 10 cb 1019,8 hPa 0,0 mm 2,0 km/h (1 Bft) SO 234 0 min 0,000 mm 0,0 UV-I 0 W/m 9,2 C 10,8 C 8,0 km/h (2 Bft)
22/09/2018 06:50 10,8 C 10,6 C 16,1 C 16,7 C 16,7 C 90 % 2 lf 1 lf 5 cb 3 cb 10 cb 1019,8 hPa 0,0 mm 1,1 km/h (1 Bft) SO 234 0 min 0,000 mm 0,0 UV-I 0 W/m 9,2 C 10,8 C 4,8 km/h (1 Bft)
22/09/2018 06:48 10,8 C 10,6 C 16,1 C 16,7 C 16,7 C 90 % 2 lf 1 lf 5 cb 3 cb 10 cb 1019,8 hPa 0,0 mm 1,6 km/h (1 Bft) SO 234 0 min 0,000 mm 0,0 UV-I 0 W/m 9,2 C 10,8 C 4,8 km/h (1 Bft)
22/09/2018 06:46 10,9 C 10,6 C 16,1 C 16,7 C 16,7 C 90 % 2 lf 1 lf 5 cb 3 cb 10 cb 1019,8 hPa 0,0 mm 2,1 km/h (1 Bft) S 185 0 min 0,000 mm 0,0 UV-I 0 W/m 9,3 C 10,9 C 4,8 km/h (1 Bft)
22/09/2018 06:44 10,9 C 10,6 C 16,1 C 16,7 C 16,7 C 90 % 2 lf 1 lf 5 cb 3 cb 10 cb 1019,9 hPa 0,0 mm 1,1 km/h (1 Bft) SO 233 0 min 0,000 mm 0,0 UV-I 0 W/m 9,3 C 10,9 C 4,8 km/h (1 Bft)
22/09/2018 06:42 10,9 C 10,6 C 16,1 C 16,7 C 16,7 C 90 % 2 lf 1 lf 5 cb 3 cb 10 cb 1019,9 hPa 0,0 mm 2,3 km/h (1 Bft) SO 234 0 min 0,000 mm 0,0 UV-I 0 W/m 9,3 C 10,9 C 4,8 km/h (1 Bft)
22/09/2018 06:40 11,0 C 10,6 C 16,1 C 16,7 C 16,7 C 90 % 2 lf 1 lf 5 cb 3 cb 10 cb 1019,9 hPa 0,0 mm 0,9 km/h (0 Bft) SO 234 0 min 0,000 mm 0,0 UV-I 0 W/m 9,4 C 11,0 C 4,8 km/h (1 Bft)
22/09/2018 06:38 11,1 C 10,6 C 16,1 C 16,7 C 16,7 C 89 % 2 lf 1 lf 5 cb 3 cb 10 cb 1019,8 hPa 0,0 mm 0,8 km/h (0 Bft) SO 233 0 min 0,000 mm 0,0 UV-I 0 W/m 9,4 C 11,1 C 3,2 km/h (1 Bft)
22/09/2018 06:36 11,1 C 10,6 C 16,1 C 16,7 C 16,7 C 89 % 2 lf 1 lf 5 cb 3 cb 10 cb 1019,8 hPa 0,0 mm 1,6 km/h (1 Bft) SO 234 0 min 0,000 mm 0,0 UV-I 0 W/m 9,4 C 11,1 C 4,8 km/h (1 Bft)
22/09/2018 06:34 11,1 C 10,6 C 16,1 C 16,7 C 16,7 C 89 % 2 lf 1 lf 5 cb 3 cb 10 cb 1019,8 hPa 0,0 mm 0,2 km/h (0 Bft) SO 233 0 min 0,000 mm 0,0 UV-I 0 W/m 9,4 C 11,1 C 3,2 km/h (1 Bft)
22/09/2018 06:32 11,2 C 10,6 C 16,1 C 16,7 C 16,7 C 89 % 2 lf 1 lf 5 cb 3 cb 10 cb 1019,8 hPa 0,0 mm 0,6 km/h (0 Bft) SO 233 0 min 0,000 mm 0,0 UV-I 0 W/m 9,5 C 11,2 C 4,8 km/h (1 Bft)
22/09/2018 06:30 11,2 C 10,6 C 16,1 C 16,7 C 16,7 C 89 % 1 lf 1 lf 5 cb 3 cb 10 cb 1019,7 hPa 0,0 mm 2,1 km/h (1 Bft) SO 233 0 min 0,000 mm 0,0 UV-I 0 W/m 9,5 C 11,2 C 6,4 km/h (2 Bft)
22/09/2018 06:28 11,2 C 10,6 C 16,1 C 16,7 C 16,7 C 89 % 1 lf 1 lf 5 cb 3 cb 10 cb 1019,8 hPa 0,0 mm 2,4 km/h (1 Bft) O-SO 239 0 min 0,000 mm 0,0 UV-I 0 W/m 9,5 C 11,2 C 8,0 km/h (2 Bft)
22/09/2018 06:26 11,2 C 10,6 C 16,1 C 16,7 C 16,7 C 89 % 1 lf 1 lf 5 cb 3 cb 10 cb 1019,8 hPa 0,0 mm 4,6 km/h (1 Bft) O-SO 237 0 min 0,000 mm 0,0 UV-I 0 W/m 9,5 C 11,2 C 6,4 km/h (2 Bft)
22/09/2018 06:24 11,2 C 10,6 C 16,1 C 16,7 C 16,7 C 90 % 1 lf 1 lf 5 cb 3 cb 10 cb 1019,8 hPa 0,0 mm 1,9 km/h (1 Bft) O-SO 242 0 min 0,000 mm 0,0 UV-I 0 W/m 9,6 C 11,2 C 4,8 km/h (1 Bft)
22/09/2018 06:22 11,2 C 10,6 C 16,1 C 16,7 C 16,7 C 90 % 1 lf 1 lf 5 cb 3 cb 10 cb 1019,9 hPa 0,0 mm 2,1 km/h (1 Bft) O-NO 296 0 min 0,000 mm 0,0 UV-I 0 W/m 9,6 C 11,2 C 8,0 km/h (2 Bft)
22/09/2018 06:20 11,2 C 10,6 C 16,1 C 16,7 C 16,7 C 90 % 1 lf 1 lf 5 cb 3 cb 10 cb 1019,9 hPa 0,0 mm 2,4 km/h (1 Bft) O-SO 250 0 min 0,000 mm 0,0 UV-I 0 W/m 9,6 C 11,2 C 8,0 km/h (2 Bft)
22/09/2018 06:18 11,2 C 10,6 C 16,1 C 16,7 C 16,7 C 90 % 1 lf 1 lf 5 cb 3 cb 10 cb 1019,9 hPa 0,0 mm 0,7 km/h (0 Bft) O-SO 239 0 min 0,000 mm 0,0 UV-I 0 W/m 9,6 C 11,2 C 4,8 km/h (1 Bft)
22/09/2018 06:16 11,2 C 10,6 C 16,1 C 16,7 C 16,7 C 90 % 1 lf 1 lf 5 cb 3 cb 10 cb 1019,8 hPa 0,0 mm 0,0 km/h (0 Bft) O-SO 239 0 min 0,000 mm 0,0 UV-I 0 W/m 9,6 C 11,2 C 0,0 km/h (0 Bft)
22/09/2018 06:14 11,1 C 10,6 C 16,1 C 16,7 C 16,7 C 90 % 1 lf 1 lf 5 cb 3 cb 10 cb 1019,8 hPa 0,0 mm 3,0 km/h (1 Bft) O-SO 239 0 min 0,000 mm 0,0 UV-I 0 W/m 9,5 C 11,1 C 6,4 km/h (2 Bft)
22/09/2018 06:12 11,1 C 10,6 C 16,1 C 16,7 C 16,7 C 90 % 1 lf 1 lf 5 cb 3 cb 10 cb 1019,8 hPa 0,0 mm 1,4 km/h (1 Bft) S 185 0 min 0,000 mm 0,0 UV-I 0 W/m 9,5 C 11,1 C 4,8 km/h (1 Bft)
22/09/2018 06:10 11,0 C 10,6 C 16,1 C 16,7 C 16,7 C 90 % 1 lf 1 lf 5 cb 3 cb 10 cb 1019,7 hPa 0,0 mm 3,3 km/h (1 Bft) SO 231 0 min 0,000 mm 0,0 UV-I 0 W/m 9,4 C 11,0 C 8,0 km/h (2 Bft)
22/09/2018 06:08 10,9 C 10,6 C 16,1 C 16,7 C 16,7 C 90 % 1 lf 1 lf 5 cb 3 cb 10 cb 1019,8 hPa 0,0 mm 3,0 km/h (1 Bft) SO 225 0 min 0,000 mm 0,0 UV-I 0 W/m 9,3 C 10,9 C 8,0 km/h (2 Bft)
22/09/2018 06:06 10,9 C 10,6 C 16,1 C 16,7 C 16,7 C 90 % 1 lf 1 lf 5 cb 3 cb 10 cb 1019,9 hPa 0,0 mm 0,8 km/h (0 Bft) O 260 0 min 0,000 mm 0,0 UV-I 0 W/m 9,3 C 10,9 C 4,8 km/h (1 Bft)
22/09/2018 06:04 10,9 C 10,6 C 16,1 C 16,7 C 16,7 C 90 % 1 lf 1 lf 5 cb 3 cb 10 cb 1019,8 hPa 0,0 mm 3,9 km/h (1 Bft) O 261 0 min 0,000 mm 0,0 UV-I 0 W/m 9,3 C 10,9 C 11,3 km/h (2 Bft)
22/09/2018 06:02 10,9 C 10,6 C 16,1 C 16,7 C 16,7 C 90 % 1 lf 1 lf 5 cb 3 cb 10 cb 1019,7 hPa 0,0 mm 2,6 km/h (1 Bft) O-SO 238 0 min 0,000 mm 0,0 UV-I 0 W/m 9,3 C 10,9 C 6,4 km/h (2 Bft)
22/09/2018 06:00 10,8 C 10,6 C 16,1 C 16,7 C 16,7 C 90 % 1 lf 1 lf 5 cb 3 cb 10 cb 1019,7 hPa 0,0 mm 3,5 km/h (1 Bft) O-SO 238 0 min 0,000 mm 0,0 UV-I 0 W/m 9,2 C 10,8 C 8,0 km/h (2 Bft)
22/09/2018 05:58 10,8 C 10,6 C 16,1 C 16,7 C 16,7 C 91 % 1 lf 1 lf 5 cb 3 cb 10 cb 1019,7 hPa 0,0 mm 4,3 km/h (1 Bft) O-SO 242 0 min 0,000 mm 0,0 UV-I 0 W/m 9,4 C 10,8 C 8,0 km/h (2 Bft)
22/09/2018 05:56 10,8 C 10,6 C 16,1 C 16,7 C 16,7 C 91 % 1 lf 1 lf 5 cb 3 cb 10 cb 1019,7 hPa 0,0 mm 5,6 km/h (1 Bft) O-SO 239 0 min 0,000 mm 0,0 UV-I 0 W/m 9,4 C 10,8 C 9,7 km/h (2 Bft)
22/09/2018 05:54 10,8 C 10,6 C 16,1 C 16,7 C 16,7 C 91 % 1 lf 1 lf 5 cb 3 cb 10 cb 1019,7 hPa 0,0 mm 4,6 km/h (1 Bft) O-SO 237 0 min 0,000 mm 0,0 UV-I 0 W/m 9,4 C 10,8 C 8,0 km/h (2 Bft)
22/09/2018 05:52 10,7 C 10,0 C 16,1 C 16,7 C 16,7 C 91 % 1 lf 1 lf 5 cb 3 cb 10 cb 1019,6 hPa 0,0 mm 3,7 km/h (1 Bft) SO 236 0 min 0,000 mm 0,0 UV-I 0 W/m 9,3 C 10,7 C 6,4 km/h (2 Bft)
22/09/2018 05:50 10,7 C 10,0 C 16,1 C 16,7 C 16,7 C 91 % 1 lf 1 lf 5 cb 3 cb 10 cb 1019,7 hPa 0,0 mm 2,7 km/h (1 Bft) SO 233 0 min 0,000 mm 0,0 UV-I 0 W/m 9,3 C 10,7 C 6,4 km/h (2 Bft)
22/09/2018 05:48 10,7 C 10,0 C 16,1 C 16,7 C 16,7 C 91 % 1 lf 1 lf 5 cb 3 cb 10 cb 1019,6 hPa 0,0 mm 4,1 km/h (1 Bft) O-SO 238 0 min 0,000 mm 0,0 UV-I 0 W/m 9,3 C 10,7 C 8,0 km/h (2 Bft)
22/09/2018 05:46 10,6 C 10,0 C 16,1 C 16,7 C 16,7 C 91 % 1 lf 1 lf 5 cb 3 cb 10 cb 1019,7 hPa 0,0 mm 3,6 km/h (1 Bft) SO 236 0 min 0,000 mm 0,0 UV-I 0 W/m 9,2 C 10,6 C 6,4 km/h (2 Bft)
22/09/2018 05:44 10,6 C 10,0 C 16,1 C 16,7 C 16,7 C 91 % 1 lf 1 lf 5 cb 3 cb 10 cb 1019,7 hPa 0,0 mm 2,0 km/h (1 Bft) SO 231 0 min 0,000 mm 0,0 UV-I 0 W/m 9,2 C 10,6 C 4,8 km/h (1 Bft)
22/09/2018 05:42 10,6 C 10,0 C 16,1 C 16,7 C 16,7 C 91 % 1 lf 1 lf 5 cb 3 cb 10 cb 1019,6 hPa 0,0 mm 1,5 km/h (1 Bft) SO 231 0 min 0,000 mm 0,0 UV-I 0 W/m 9,2 C 10,6 C 3,2 km/h (1 Bft)
22/09/2018 05:40 10,6 C 10,0 C 16,1 C 16,7 C 16,7 C 91 % 1 lf 1 lf 5 cb 3 cb 10 cb 1019,6 hPa 0,0 mm 1,9 km/h (1 Bft) SO 230 0 min 0,000 mm 0,0 UV-I 0 W/m 9,2 C 10,6 C 4,8 km/h (1 Bft)
22/09/2018 05:38 10,6 C 10,0 C 16,1 C 16,7 C 16,7 C 91 % 1 lf 1 lf 5 cb 3 cb 10 cb 1019,7 hPa 0,0 mm 1,9 km/h (1 Bft) SO 234 0 min 0,000 mm 0,0 UV-I 0 W/m 9,2 C 10,6 C 4,8 km/h (1 Bft)
22/09/2018 05:36 10,6 C 10,0 C 16,1 C 16,7 C 16,7 C 91 % 1 lf 1 lf 5 cb 3 cb 10 cb 1019,7 hPa 0,0 mm 2,5 km/h (1 Bft) SO 229 0 min 0,000 mm 0,0 UV-I 0 W/m 9,2 C 10,6 C 3,2 km/h (1 Bft)
22/09/2018 05:34 10,6 C 10,0 C 16,1 C 16,7 C 16,7 C 90 % 1 lf 1 lf 5 cb 3 cb 10 cb 1019,8 hPa 0,0 mm 2,6 km/h (1 Bft) SO 229 0 min 0,000 mm 0,0 UV-I 0 W/m 9,0 C 10,6 C 8,0 km/h (2 Bft)
22/09/2018 05:32 10,6 C 10,0 C 16,1 C 16,7 C 16,7 C 90 % 1 lf 1 lf 5 cb 3 cb 10 cb 1019,7 hPa 0,0 mm 1,0 km/h (0 Bft) SO 227 0 min 0,000 mm 0,0 UV-I 0 W/m 9,0 C 10,6 C 4,8 km/h (1 Bft)
22/09/2018 05:30 10,6 C 10,0 C 16,1 C 16,7 C 16,7 C 90 % 1 lf 1 lf 5 cb 3 cb 10 cb 1019,7 hPa 0,0 mm 0,4 km/h (0 Bft) SO 227 0 min 0,000 mm 0,0 UV-I 0 W/m 9,0 C 10,6 C 3,2 km/h (1 Bft)
22/09/2018 05:28 10,6 C 10,0 C 16,1 C 16,7 C 16,7 C 90 % 1 lf 1 lf 5 cb 3 cb 10 cb 1019,6 hPa 0,0 mm 0,4 km/h (0 Bft) SO 227 0 min 0,000 mm 0,0 UV-I 0 W/m 9,0 C 10,6 C 3,2 km/h (1 Bft)
22/09/2018 05:26 10,6 C 10,0 C 16,1 C 16,7 C 16,7 C 90 % 1 lf 1 lf 5 cb 3 cb 10 cb 1019,6 hPa 0,0 mm 0,3 km/h (0 Bft) SO 231 0 min 0,000 mm 0,0 UV-I 0 W/m 9,0 C 10,6 C 3,2 km/h (1 Bft)
22/09/2018 05:24 10,6 C 10,0 C 16,1 C 16,7 C 16,7 C 90 % 1 lf 1 lf 5 cb 3 cb 10 cb 1019,6 hPa 0,0 mm 4,2 km/h (1 Bft) SO 227 0 min 0,000 mm 0,0 UV-I 0 W/m 9,0 C 10,6 C 8,0 km/h (2 Bft)
22/09/2018 05:22 10,6 C 10,0 C 16,1 C 16,7 C 16,7 C 90 % 1 lf 1 lf 5 cb 3 cb 10 cb 1019,6 hPa 0,0 mm 0,7 km/h (0 Bft) SO 236 0 min 0,000 mm 0,0 UV-I 0 W/m 9,0 C 10,6 C 4,8 km/h (1 Bft)
22/09/2018 05:20 10,6 C 10,0 C 16,1 C 16,7 C 16,7 C 90 % 1 lf 1 lf 5 cb 3 cb 10 cb 1019,7 hPa 0,0 mm 1,7 km/h (1 Bft) SO 236 0 min 0,000 mm 0,0 UV-I 0 W/m 9,0 C 10,6 C 4,8 km/h (1 Bft)
22/09/2018 05:18 10,6 C 10,0 C 16,1 C 16,7 C 16,7 C 90 % 1 lf 1 lf 5 cb 3 cb 10 cb 1019,7 hPa 0,0 mm 1,3 km/h (1 Bft) SO 232 0 min 0,000 mm 0,0 UV-I 0 W/m 9,0 C 10,6 C 4,8 km/h (1 Bft)
22/09/2018 05:16 10,6 C 10,0 C 16,1 C 16,7 C 16,7 C 90 % 1 lf 1 lf 5 cb 3 cb 10 cb 1019,6 hPa 0,0 mm 3,1 km/h (1 Bft) SO 231 0 min 0,000 mm 0,0 UV-I 0 W/m 9,0 C 10,6 C 8,0 km/h (2 Bft)
22/09/2018 05:14 10,6 C 10,0 C 16,1 C 16,7 C 16,7 C 90 % 1 lf 1 lf 5 cb 3 cb 10 cb 1019,5 hPa 0,0 mm 3,2 km/h (1 Bft) SO 231 0 min 0,000 mm 0,0 UV-I 0 W/m 9,0 C 10,6 C 6,4 km/h (2 Bft)
22/09/2018 05:12 10,6 C 10,0 C 16,1 C 16,7 C 16,7 C 90 % 1 lf 1 lf 5 cb 3 cb 10 cb 1019,6 hPa 0,0 mm 3,3 km/h (1 Bft) SO 220 0 min 0,000 mm 0,0 UV-I 0 W/m 9,0 C 10,6 C 8,0 km/h (2 Bft)
22/09/2018 05:10 10,6 C 10,0 C 16,1 C 16,7 C 16,7 C 90 % 1 lf 1 lf 5 cb 3 cb 10 cb 1019,6 hPa 0,0 mm 2,9 km/h (1 Bft) SO 231 0 min 0,000 mm 0,0 UV-I 0 W/m 9,0 C 10,6 C 4,8 km/h (1 Bft)
22/09/2018 05:08 10,6 C 10,0 C 16,1 C 16,7 C 16,7 C 90 % 1 lf 1 lf 5 cb 3 cb 10 cb 1019,6 hPa 0,0 mm 5,9 km/h (2 Bft) SO 231 0 min 0,000 mm 0,0 UV-I 0 W/m 9,0 C 10,6 C 9,7 km/h (2 Bft)
22/09/2018 05:06 10,6 C 10,0 C 16,1 C 16,7 C 16,7 C 90 % 1 lf 1 lf 5 cb 3 cb 10 cb 1019,5 hPa 0,0 mm 1,8 km/h (1 Bft) SO 234 0 min 0,000 mm 0,0 UV-I 0 W/m 9,0 C 10,6 C 4,8 km/h (1 Bft)
22/09/2018 05:04 10,5 C 10,0 C 16,1 C 16,7 C 16,7 C 89 % 1 lf 1 lf 5 cb 3 cb 10 cb 1019,6 hPa 0,0 mm 1,9 km/h (1 Bft) SO 234 0 min 0,000 mm 0,0 UV-I 0 W/m 8,8 C 10,5 C 6,4 km/h (2 Bft)
22/09/2018 05:02 10,5 C 10,0 C 16,1 C 16,7 C 16,7 C 89 % 1 lf 1 lf 5 cb 3 cb 10 cb 1019,6 hPa 0,0 mm 3,8 km/h (1 Bft) SO 231 0 min 0,000 mm 0,0 UV-I 0 W/m 8,8 C 10,5 C 8,0 km/h (2 Bft)
22/09/2018 05:00 10,5 C 9,4 C 16,1 C 16,7 C 16,7 C 89 % 1 lf 1 lf 5 cb 3 cb 10 cb 1019,6 hPa 0,0 mm 3,5 km/h (1 Bft) O-SO 242 0 min 0,000 mm 0,0 UV-I 0 W/m 8,8 C 10,5 C 6,4 km/h (2 Bft)
22/09/2018 04:58 10,5 C 9,4 C 16,1 C 16,7 C 16,7 C 89 % 1 lf 1 lf 5 cb 3 cb 10 cb 1019,5 hPa 0,0 mm 3,9 km/h (1 Bft) O-SO 239 0 min 0,000 mm 0,0 UV-I 0 W/m 8,8 C 10,5 C 8,0 km/h (2 Bft)
22/09/2018 04:56 10,4 C 9,4 C 16,1 C 16,7 C 16,7 C 89 % 1 lf 1 lf 5 cb 3 cb 10 cb 1019,5 hPa 0,0 mm 5,2 km/h (1 Bft) SO 235 0 min 0,000 mm 0,0 UV-I 0 W/m 8,7 C 10,4 C 11,3 km/h (2 Bft)
22/09/2018 04:54 10,4 C 9,4 C 16,1 C 16,7 C 16,7 C 89 % 1 lf 1 lf 5 cb 3 cb 10 cb 1019,5 hPa 0,0 mm 3,9 km/h (1 Bft) SO 235 0 min 0,000 mm 0,0 UV-I 0 W/m 8,7 C 10,4 C 9,7 km/h (2 Bft)
22/09/2018 04:52 10,3 C 9,4 C 16,1 C 16,7 C 16,7 C 89 % 1 lf 1 lf 5 cb 3 cb 10 cb 1019,6 hPa 0,0 mm 3,3 km/h (1 Bft) SO 225 0 min 0,000 mm 0,0 UV-I 0 W/m 8,6 C 10,3 C 8,0 km/h (2 Bft)
22/09/2018 04:50 10,3 C 9,4 C 16,1 C 16,7 C 16,7 C 89 % 1 lf 1 lf 5 cb 3 cb 10 cb 1019,6 hPa 0,0 mm 1,2 km/h (1 Bft) SO 224 0 min 0,000 mm 0,0 UV-I 0 W/m 8,6 C 10,3 C 4,8 km/h (1 Bft)
22/09/2018 04:48 10,2 C 9,4 C 16,1 C 16,7 C 16,7 C 89 % 1 lf 1 lf 5 cb 3 cb 10 cb 1019,6 hPa 0,0 mm 3,4 km/h (1 Bft) O-SO 238 0 min 0,000 mm 0,0 UV-I 0 W/m 8,5 C 10,2 C 6,4 km/h (2 Bft)
22/09/2018 04:46 10,2 C 9,4 C 16,1 C 16,7 C 16,7 C 89 % 1 lf 1 lf 5 cb 3 cb 10 cb 1019,5 hPa 0,0 mm 5,1 km/h (1 Bft) O-SO 238 0 min 0,000 mm 0,0 UV-I 0 W/m 8,5 C 10,2 C 8,0 km/h (2 Bft)
22/09/2018 04:44 10,1 C 9,4 C 16,1 C 16,7 C 16,7 C 90 % 1 lf 1 lf 5 cb 3 cb 10 cb 1019,5 hPa 0,0 mm 4,3 km/h (1 Bft) O-SO 250 0 min 0,000 mm 0,0 UV-I 0 W/m 8,5 C 10,1 C 8,0 km/h (2 Bft)
22/09/2018 04:42 10,1 C 8,9 C 16,1 C 16,7 C 16,7 C 90 % 1 lf 1 lf 5 cb 3 cb 10 cb 1019,6 hPa 0,0 mm 3,4 km/h (1 Bft) SO 236 0 min 0,000 mm 0,0 UV-I 0 W/m 8,5 C 10,1 C 8,0 km/h (2 Bft)
22/09/2018 04:40 10,1 C 8,9 C 16,1 C 16,7 C 16,7 C 89 % 1 lf 1 lf 5 cb 3 cb 10 cb 1019,6 hPa 0,0 mm 4,8 km/h (1 Bft) O-SO 238 0 min 0,000 mm 0,0 UV-I 0 W/m 8,4 C 10,1 C 8,0 km/h (2 Bft)
22/09/2018 04:38 10,0 C 8,9 C 16,1 C 16,7 C 16,7 C 90 % 2 lf 1 lf 5 cb 3 cb 10 cb 1019,6 hPa 0,0 mm 2,1 km/h (1 Bft) O-SO 242 0 min 0,000 mm 0,0 UV-I 0 W/m 8,4 C 10,0 C 8,0 km/h (2 Bft)
22/09/2018 04:36 9,9 C 8,9 C 16,1 C 16,7 C 16,7 C 89 % 2 lf 1 lf 5 cb 3 cb 10 cb 1019,5 hPa 0,0 mm 1,8 km/h (1 Bft) SO 236 0 min 0,000 mm 0,0 UV-I 0 W/m 8,2 C 9,9 C 6,4 km/h (2 Bft)
22/09/2018 04:34 9,9 C 8,9 C 16,1 C 16,7 C 16,7 C 89 % 2 lf 1 lf 5 cb 3 cb 10 cb 1019,5 hPa 0,0 mm 2,6 km/h (1 Bft) O-SO 242 0 min 0,000 mm 0,0 UV-I 0 W/m 8,2 C 9,9 C 6,4 km/h (2 Bft)
22/09/2018 04:32 9,9 C 8,9 C 16,1 C 16,7 C 16,7 C 89 % 2 lf 1 lf 5 cb 3 cb 10 cb 1019,6 hPa 0,0 mm 0,0 km/h (0 Bft) O-SO 242 0 min 0,000 mm 0,0 UV-I 0 W/m 8,2 C 9,9 C 0,0 km/h (0 Bft)
22/09/2018 04:30 9,9 C 8,9 C 16,1 C 16,7 C 16,7 C 89 % 2 lf 1 lf 5 cb 3 cb 10 cb 1019,5 hPa 0,0 mm 0,3 km/h (0 Bft) O-SO 242 0 min 0,000 mm 0,0 UV-I 0 W/m 8,2 C 9,9 C 4,8 km/h (1 Bft)
22/09/2018 04:28 9,9 C 8,9 C 16,1 C 16,7 C 16,7 C 89 % 2 lf 1 lf 5 cb 3 cb 10 cb 1019,5 hPa 0,0 mm 0,0 km/h (0 Bft) O-SO 242 0 min 0,000 mm 0,0 UV-I 0 W/m 8,2 C 9,9 C 0,0 km/h (0 Bft)
22/09/2018 04:26 9,8 C 8,9 C 16,1 C 16,7 C 16,7 C 90 % 1 lf 1 lf 5 cb 3 cb 10 cb 1019,5 hPa 0,0 mm 4,2 km/h (1 Bft) O-SO 242 0 min 0,000 mm 0,0 UV-I 0 W/m 8,2 C 9,8 C 9,7 km/h (2 Bft)
22/09/2018 04:24 9,7 C 8,9 C 16,1 C 16,7 C 16,7 C 90 % 2 lf 1 lf 5 cb 3 cb 10 cb 1019,5 hPa 0,0 mm 4,2 km/h (1 Bft) SO 227 0 min 0,000 mm 0,0 UV-I 0 W/m 8,1 C 9,7 C 9,7 km/h (2 Bft)
22/09/2018 04:22 9,6 C 8,9 C 16,1 C 16,7 C 16,7 C 89 % 2 lf 1 lf 5 cb 3 cb 10 cb 1019,6 hPa 0,0 mm 4,7 km/h (1 Bft) SO 234 0 min 0,000 mm 0,0 UV-I 0 W/m 7,9 C 9,6 C 9,7 km/h (2 Bft)
22/09/2018 04:20 9,6 C 8,3 C 16,7 C 16,7 C 16,7 C 89 % 2 lf 1 lf 5 cb 3 cb 10 cb 1019,6 hPa 0,0 mm 3,1 km/h (1 Bft) O-SO 242 0 min 0,000 mm 0,0 UV-I 0 W/m 7,9 C 9,6 C 8,0 km/h (2 Bft)
22/09/2018 04:18 9,5 C 8,3 C 16,7 C 16,7 C 16,7 C 89 % 2 lf 1 lf 5 cb 3 cb 10 cb 1019,6 hPa 0,0 mm 2,5 km/h (1 Bft) O 264 0 min 0,000 mm 0,0 UV-I 0 W/m 7,8 C 9,5 C 4,8 km/h (1 Bft)
22/09/2018 04:16 9,4 C 8,3 C 16,7 C 16,7 C 16,7 C 89 % 2 lf 1 lf 5 cb 3 cb 10 cb 1019,6 hPa 0,0 mm 0,0 km/h (0 Bft) O 279 0 min 0,000 mm 0,0 UV-I 0 W/m 7,7 C 9,4 C 0,0 km/h (0 Bft)
22/09/2018 04:14 9,4 C 8,3 C 16,7 C 16,7 C 16,7 C 89 % 2 lf 1 lf 5 cb 3 cb 10 cb 1019,6 hPa 0,0 mm 0,0 km/h (0 Bft) O 279 0 min 0,000 mm 0,0 UV-I 0 W/m 7,7 C 9,4 C 0,0 km/h (0 Bft)
22/09/2018 04:12 9,4 C 8,3 C 16,7 C 16,7 C 16,7 C 89 % 2 lf 1 lf 5 cb 3 cb 10 cb 1019,6 hPa 0,0 mm 0,0 km/h (0 Bft) O 279 0 min 0,000 mm 0,0 UV-I 0 W/m 7,7 C 9,4 C 0,0 km/h (0 Bft)
22/09/2018 04:10 9,4 C 8,3 C 16,7 C 16,7 C 16,7 C 88 % 2 lf 1 lf 5 cb 3 cb 10 cb 1019,4 hPa 0,0 mm 0,2 km/h (0 Bft) O 279 0 min 0,000 mm 0,0 UV-I 0 W/m 7,5 C 9,4 C 1,6 km/h (1 Bft)
22/09/2018 04:08 9,3 C 8,3 C 16,7 C 16,7 C 16,7 C 88 % 2 lf 1 lf 5 cb 3 cb 10 cb 1019,4 hPa 0,0 mm 1,8 km/h (1 Bft) O 279 0 min 0,000 mm 0,0 UV-I 0 W/m 7,4 C 9,3 C 3,2 km/h (1 Bft)
22/09/2018 04:06 9,3 C 8,3 C 16,7 C 16,7 C 16,7 C 88 % 2 lf 1 lf 5 cb 3 cb 10 cb 1019,4 hPa 0,0 mm 2,7 km/h (1 Bft) O 281 0 min 0,000 mm 0,0 UV-I 0 W/m 7,4 C 9,3 C 4,8 km/h (1 Bft)
22/09/2018 04:04 9,2 C 7,8 C 16,7 C 16,7 C 16,7 C 88 % 3 lf 1 lf 5 cb 3 cb 10 cb 1019,5 hPa 0,0 mm 0,2 km/h (0 Bft) O 281 0 min 0,000 mm 0,0 UV-I 0 W/m 7,3 C 9,2 C 3,2 km/h (1 Bft)
22/09/2018 04:02 9,3 C 7,8 C 16,7 C 16,7 C 16,7 C 88 % 3 lf 1 lf 5 cb 3 cb 10 cb 1019,4 hPa 0,0 mm 0,0 km/h (0 Bft) O 281 0 min 0,000 mm 0,0 UV-I 0 W/m 7,4 C 9,3 C 0,0 km/h (0 Bft)
22/09/2018 04:00 9,3 C 7,8 C 16,7 C 16,7 C 16,7 C 87 % 3 lf 1 lf 5 cb 3 cb 10 cb 1019,4 hPa 0,0 mm 0,0 km/h (0 Bft) O 281 0 min 0,000 mm 0,0 UV-I 0 W/m 7,2 C 9,3 C 0,0 km/h (0 Bft)
22/09/2018 03:58 9,3 C 7,8 C 16,7 C 16,7 C 16,7 C 88 % 3 lf 1 lf 5 cb 3 cb 10 cb 1019,4 hPa 0,0 mm 0,0 km/h (0 Bft) O 281 0 min 0,000 mm 0,0 UV-I 0 W/m 7,4 C 9,3 C 0,0 km/h (0 Bft)
22/09/2018 03:56 9,3 C 8,3 C 16,7 C 16,7 C 16,7 C 87 % 3 lf 1 lf 5 cb 3 cb 10 cb 1019,3 hPa 0,0 mm 0,0 km/h (0 Bft) O 281 0 min 0,000 mm 0,0 UV-I 0 W/m 7,2 C 9,3 C 0,0 km/h (0 Bft)
22/09/2018 03:54 9,5 C 8,3 C 16,7 C 16,7 C 16,7 C 87 % 2 lf 1 lf 5 cb 3 cb 10 cb 1019,4 hPa 0,0 mm 0,0 km/h (0 Bft) O 281 0 min 0,000 mm 0,0 UV-I 0 W/m 7,4 C 9,5 C 0,0 km/h (0 Bft)
22/09/2018 03:52 9,5 C 8,3 C 16,7 C 16,7 C 16,7 C 87 % 2 lf 1 lf 5 cb 3 cb 10 cb 1019,5 hPa 0,0 mm 0,0 km/h (0 Bft) O 281 0 min 0,000 mm 0,0 UV-I 0 W/m 7,4 C 9,5 C 0,0 km/h (0 Bft)
22/09/2018 03:50 9,4 C 8,3 C 16,7 C 16,7 C 16,7 C 88 % 2 lf 1 lf 5 cb 3 cb 10 cb 1019,6 hPa 0,0 mm 0,0 km/h (0 Bft) O 281 0 min 0,000 mm 0,0 UV-I 0 W/m 7,5 C 9,4 C 0,0 km/h (0 Bft)
22/09/2018 03:48 9,4 C 8,3 C 16,7 C 16,7 C 16,7 C 87 % 2 lf 1 lf 5 cb 3 cb 10 cb 1019,6 hPa 0,0 mm 0,0 km/h (0 Bft) O 281 0 min 0,000 mm 0,0 UV-I 0 W/m 7,3 C 9,4 C 0,0 km/h (0 Bft)
22/09/2018 03:46 9,5 C 8,3 C 16,7 C 16,7 C 16,7 C 87 % 3 lf 1 lf 5 cb 3 cb 10 cb 1019,6 hPa 0,0 mm 0,1 km/h (0 Bft) O 281 0 min 0,000 mm 0,0 UV-I 0 W/m 7,4 C 9,5 C 1,6 km/h (1 Bft)
22/09/2018 03:44 9,6 C 7,8 C 16,7 C 16,7 C 16,7 C 86 % 3 lf 1 lf 5 cb 3 cb 10 cb 1019,6 hPa 0,0 mm 0,0 km/h (0 Bft) O 281 0 min 0,000 mm 0,0 UV-I 0 W/m 7,4 C 9,6 C 0,0 km/h (0 Bft)
22/09/2018 03:42 9,7 C 7,8 C 16,7 C 16,7 C 16,7 C 87 % 3 lf 1 lf 5 cb 3 cb 10 cb 1019,7 hPa 0,0 mm 0,0 km/h (0 Bft) O 281 0 min 0,000 mm 0,0 UV-I 0 W/m 7,6 C 9,7 C 1,6 km/h (1 Bft)
22/09/2018 03:40 9,8 C 7,8 C 16,7 C 16,7 C 16,7 C 87 % 3 lf 1 lf 5 cb 3 cb 10 cb 1019,7 hPa 0,0 mm 0,0 km/h (0 Bft) O 281 0 min 0,000 mm 0,0 UV-I 0 W/m 7,7 C 9,8 C 0,0 km/h (0 Bft)
22/09/2018 03:38 9,8 C 7,8 C 16,7 C 16,7 C 16,7 C 87 % 3 lf 1 lf 5 cb 3 cb 10 cb 1019,8 hPa 0,0 mm 0,6 km/h (0 Bft) O 281 0 min 0,000 mm 0,0 UV-I 0 W/m 7,7 C 9,8 C 3,2 km/h (1 Bft)
22/09/2018 03:36 9,8 C 7,8 C 16,7 C 16,7 C 16,7 C 86 % 3 lf 1 lf 5 cb 3 cb 10 cb 1019,9 hPa 0,0 mm 0,4 km/h (0 Bft) O 281 0 min 0,000 mm 0,0 UV-I 0 W/m 7,6 C 9,8 C 3,2 km/h (1 Bft)
22/09/2018 03:34 9,8 C 8,3 C 16,7 C 16,7 C 16,7 C 87 % 3 lf 1 lf 5 cb 3 cb 10 cb 1019,9 hPa 0,0 mm 0,0 km/h (0 Bft) O 281 0 min 0,000 mm 0,0 UV-I 0 W/m 7,7 C 9,8 C 0,0 km/h (0 Bft)
22/09/2018 03:32 9,8 C 8,3 C 16,7 C 16,7 C 16,7 C 87 % 2 lf 1 lf 5 cb 3 cb 10 cb 1019,8 hPa 0,0 mm 0,0 km/h (0 Bft) O 281 0 min 0,000 mm 0,0 UV-I 0 W/m 7,7 C 9,8 C 0,0 km/h (0 Bft)
22/09/2018 03:30 9,8 C 8,3 C 16,7 C 16,7 C 16,7 C 86 % 2 lf 1 lf 5 cb 3 cb 10 cb 1019,8 hPa 0,0 mm 0,0 km/h (0 Bft) O 281 0 min 0,000 mm 0,0 UV-I 0 W/m 7,6 C 9,8 C 0,0 km/h (0 Bft)
22/09/2018 03:28 9,8 C 8,3 C 16,7 C 16,7 C 16,7 C 86 % 2 lf 1 lf 5 cb 3 cb 10 cb 1019,8 hPa 0,0 mm 0,0 km/h (0 Bft) O 281 0 min 0,000 mm 0,0 UV-I 0 W/m 7,6 C 9,8 C 0,0 km/h (0 Bft)
22/09/2018 03:26 9,7 C 8,3 C 16,7 C 16,7 C 16,7 C 86 % 2 lf 1 lf 5 cb 3 cb 10 cb 1019,7 hPa 0,0 mm 0,6 km/h (0 Bft) O 281 0 min 0,000 mm 0,0 UV-I 0 W/m 7,5 C 9,7 C 4,8 km/h (1 Bft)
22/09/2018 03:24 9,7 C 8,3 C 16,7 C 16,7 C 16,7 C 86 % 2 lf 1 lf 5 cb 3 cb 10 cb 1019,6 hPa 0,0 mm 0,0 km/h (0 Bft) O 281 0 min 0,000 mm 0,0 UV-I 0 W/m 7,5 C 9,7 C 0,0 km/h (0 Bft)
22/09/2018 03:22 9,8 C 8,3 C 16,7 C 16,7 C 16,7 C 86 % 2 lf 1 lf 5 cb 3 cb 10 cb 1019,6 hPa 0,0 mm 0,0 km/h (0 Bft) O 281 0 min 0,000 mm 0,0 UV-I 0 W/m 7,6 C 9,8 C 0,0 km/h (0 Bft)
22/09/2018 03:20 9,8 C 8,3 C 16,7 C 16,7 C 16,7 C 85 % 2 lf 1 lf 5 cb 3 cb 10 cb 1019,5 hPa 0,0 mm 0,0 km/h (0 Bft) O 281 0 min 0,000 mm 0,0 UV-I 0 W/m 7,4 C 9,8 C 0,0 km/h (0 Bft)
22/09/2018 03:18 9,9 C 8,3 C 16,7 C 16,7 C 16,7 C 85 % 2 lf 1 lf 5 cb 3 cb 10 cb 1019,4 hPa 0,0 mm 0,0 km/h (0 Bft) O 281 0 min 0,000 mm 0,0 UV-I 0 W/m 7,5 C 9,9 C 0,0 km/h (0 Bft)
22/09/2018 03:16 10,1 C 8,3 C 16,7 C 16,7 C 16,7 C 84 % 1 lf 1 lf 5 cb 3 cb 10 cb 1019,3 hPa 0,0 mm 0,0 km/h (0 Bft) O 281 0 min 0,000 mm 0,0 UV-I 0 W/m 7,5 C 10,1 C 0,0 km/h (0 Bft)
22/09/2018 03:14 10,2 C 8,3 C 16,7 C 16,7 C 16,7 C 85 % 1 lf 1 lf 5 cb 3 cb 10 cb 1019,3 hPa 0,0 mm 0,0 km/h (0 Bft) O 281 0 min 0,000 mm 0,0 UV-I 0 W/m 7,8 C 10,2 C 0,0 km/h (0 Bft)
22/09/2018 03:12 10,1 C 8,3 C 16,7 C 16,7 C 16,7 C 85 % 1 lf 1 lf 5 cb 3 cb 10 cb 1019,3 hPa 0,0 mm 0,3 km/h (0 Bft) O 281 0 min 0,000 mm 0,0 UV-I 0 W/m 7,7 C 10,1 C 3,2 km/h (1 Bft)
22/09/2018 03:10 10,1 C 8,3 C 16,7 C 16,7 C 16,7 C 85 % 1 lf 1 lf 5 cb 3 cb 10 cb 1019,4 hPa 0,0 mm 0,6 km/h (0 Bft) O 281 0 min 0,000 mm 0,0 UV-I 0 W/m 7,7 C 10,1 C 3,2 km/h (1 Bft)
22/09/2018 03:08 10,1 C 8,9 C 16,7 C 16,7 C 16,7 C 84 % 1 lf 1 lf 5 cb 3 cb 10 cb 1019,3 hPa 0,0 mm 0,1 km/h (0 Bft) O 281 0 min 0,000 mm 0,0 UV-I 0 W/m 7,5 C 10,1 C 1,6 km/h (1 Bft)
22/09/2018 03:06 10,2 C 8,9 C 16,7 C 16,7 C 16,7 C 84 % 1 lf 1 lf 5 cb 3 cb 10 cb 1019,3 hPa 0,0 mm 0,1 km/h (0 Bft) O 281 0 min 0,000 mm 0,0 UV-I 0 W/m 7,6 C 10,2 C 1,6 km/h (1 Bft)
22/09/2018 03:04 10,3 C 8,9 C 16,7 C 16,7 C 16,7 C 84 % 1 lf 1 lf 5 cb 3 cb 10 cb 1019,3 hPa 0,0 mm 0,0 km/h (0 Bft) O 281 0 min 0,000 mm 0,0 UV-I 0 W/m 7,7 C 10,3 C 0,0 km/h (0 Bft)
22/09/2018 03:02 10,3 C 8,9 C 16,7 C 16,7 C 16,7 C 84 % 1 lf 1 lf 5 cb 3 cb 10 cb 1019,3 hPa 0,0 mm 0,2 km/h (0 Bft) O 281 0 min 0,000 mm 0,0 UV-I 0 W/m 7,7 C 10,3 C 3,2 km/h (1 Bft)
22/09/2018 03:00 10,4 C 8,9 C 16,7 C 16,7 C 16,7 C 84 % 1 lf 1 lf 5 cb 3 cb 10 cb 1019,2 hPa 0,0 mm 0,0 km/h (0 Bft) O 281 0 min 0,000 mm 0,0 UV-I 0 W/m 7,8 C 10,4 C 0,0 km/h (0 Bft)
22/09/2018 02:58 10,3 C 8,9 C 16,7 C 16,7 C 16,7 C 84 % 1 lf 1 lf 5 cb 3 cb 10 cb 1019,3 hPa 0,0 mm 0,0 km/h (0 Bft) O 281 0 min 0,000 mm 0,0 UV-I 0 W/m 7,7 C 10,3 C 0,0 km/h (0 Bft)
22/09/2018 02:56 10,3 C 8,9 C 16,7 C 16,7 C 16,7 C 84 % 1 lf 1 lf 5 cb 3 cb 10 cb 1019,3 hPa 0,0 mm 0,0 km/h (0 Bft) O 281 0 min 0,000 mm 0,0 UV-I 0 W/m 7,7 C 10,3 C 1,6 km/h (1 Bft)
22/09/2018 02:54 10,3 C 8,9 C 16,7 C 16,7 C 16,7 C 84 % 1 lf 1 lf 5 cb 3 cb 10 cb 1019,3 hPa 0,0 mm 0,1 km/h (0 Bft) O 281 0 min 0,000 mm 0,0 UV-I 0 W/m 7,7 C 10,3 C 3,2 km/h (1 Bft)
22/09/2018 02:52 10,3 C 8,9 C 16,7 C 16,7 C 16,7 C 84 % 1 lf 1 lf 5 cb 3 cb 10 cb 1019,3 hPa 0,0 mm 0,0 km/h (0 Bft) O 281 0 min 0,000 mm 0,0 UV-I 0 W/m 7,7 C 10,3 C 0,0 km/h (0 Bft)
22/09/2018 02:50 10,3 C 8,9 C 16,7 C 16,7 C 16,7 C 84 % 1 lf 1 lf 5 cb 3 cb 10 cb 1019,4 hPa 0,0 mm 0,0 km/h (0 Bft) O 281 0 min 0,000 mm 0,0 UV-I 0 W/m 7,7 C 10,3 C 0,0 km/h (0 Bft)
22/09/2018 02:48 10,3 C 8,9 C 16,7 C 16,7 C 16,7 C 84 % 1 lf 1 lf 5 cb 3 cb 10 cb 1019,3 hPa 0,0 mm 1,2 km/h (1 Bft) O 281 0 min 0,000 mm 0,0 UV-I 0 W/m 7,7 C 10,3 C 4,8 km/h (1 Bft)
22/09/2018 02:46 10,3 C 8,9 C 16,7 C 16,7 C 16,7 C 84 % 1 lf 1 lf 5 cb 3 cb 10 cb 1019,2 hPa 0,0 mm 1,2 km/h (1 Bft) O-NO 285 0 min 0,000 mm 0,0 UV-I 0 W/m 7,7 C 10,3 C 4,8 km/h (1 Bft)
22/09/2018 02:44 10,3 C 8,9 C 16,7 C 16,7 C 16,7 C 83 % 1 lf 1 lf 5 cb 3 cb 10 cb 1019,2 hPa 0,0 mm 0,7 km/h (0 Bft) O-NO 286 0 min 0,000 mm 0,0 UV-I 0 W/m 7,5 C 10,3 C 3,2 km/h (1 Bft)
22/09/2018 02:42 10,4 C 8,9 C 16,7 C 16,7 C 16,7 C 83 % 1 lf 1 lf 5 cb 3 cb 10 cb 1019,2 hPa 0,0 mm 0,0 km/h (0 Bft) O-NO 286 0 min 0,000 mm 0,0 UV-I 0 W/m 7,6 C 10,4 C 0,0 km/h (0 Bft)
22/09/2018 02:40 10,4 C 8,9 C 16,7 C 16,7 C 16,7 C 83 % 1 lf 1 lf 5 cb 3 cb 10 cb 1019,2 hPa 0,0 mm 0,0 km/h (0 Bft) O-NO 286 0 min 0,000 mm 0,0 UV-I 0 W/m 7,6 C 10,4 C 0,0 km/h (0 Bft)
22/09/2018 02:38 10,6 C 8,9 C 16,7 C 16,7 C 16,7 C 83 % 1 lf 1 lf 5 cb 3 cb 10 cb 1019,2 hPa 0,0 mm 0,0 km/h (0 Bft) O-NO 286 0 min 0,000 mm 0,0 UV-I 0 W/m 7,8 C 10,6 C 0,0 km/h (0 Bft)
22/09/2018 02:36 10,6 C 8,9 C 16,7 C 16,7 C 16,7 C 83 % 1 lf 1 lf 5 cb 3 cb 10 cb 1019,1 hPa 0,0 mm 0,0 km/h (0 Bft) O-NO 286 0 min 0,000 mm 0,0 UV-I 0 W/m 7,8 C 10,6 C 1,6 km/h (1 Bft)
22/09/2018 02:34 10,6 C 8,9 C 16,7 C 16,7 C 16,7 C 83 % 1 lf 0 lf 5 cb 3 cb 10 cb 1019,1 hPa 0,0 mm 0,3 km/h (0 Bft) O-NO 286 0 min 0,000 mm 0,0 UV-I 0 W/m 7,8 C 10,6 C 3,2 km/h (1 Bft)
22/09/2018 02:32 10,6 C 9,4 C 16,7 C 16,7 C 16,7 C 83 % 1 lf 1 lf 5 cb 3 cb 10 cb 1019,1 hPa 0,0 mm 0,1 km/h (0 Bft) O-NO 286 0 min 0,000 mm 0,0 UV-I 0 W/m 7,8 C 10,6 C 1,6 km/h (1 Bft)
22/09/2018 02:30 10,6 C 9,4 C 16,7 C 16,7 C 16,7 C 83 % 1 lf 1 lf 5 cb 3 cb 10 cb 1019,0 hPa 0,0 mm 0,0 km/h (0 Bft) O-NO 286 0 min 0,000 mm 0,0 UV-I 0 W/m 7,8 C 10,6 C 1,6 km/h (1 Bft)
22/09/2018 02:28 10,6 C 9,4 C 16,7 C 16,7 C 16,7 C 82 % 1 lf 0 lf 5 cb 3 cb 10 cb 1019,0 hPa 0,0 mm 0,5 km/h (0 Bft) O-NO 286 0 min 0,000 mm 0,0 UV-I 0 W/m 7,7 C 10,6 C 3,2 km/h (1 Bft)
22/09/2018 02:26 10,6 C 9,4 C 16,7 C 16,7 C 16,7 C 82 % 1 lf 0 lf 5 cb 3 cb 10 cb 1019,0 hPa 0,0 mm 0,0 km/h (0 Bft) O-NO 286 0 min 0,000 mm 0,0 UV-I 0 W/m 7,7 C 10,6 C 0,0 km/h (0 Bft)
22/09/2018 02:24 10,7 C 9,4 C 16,7 C 16,7 C 16,7 C 82 % 1 lf 0 lf 5 cb 3 cb 10 cb 1019,1 hPa 0,0 mm 0,0 km/h (0 Bft) O-NO 286 0 min 0,000 mm 0,0 UV-I 0 W/m 7,8 C 10,7 C 0,0 km/h (0 Bft)
22/09/2018 02:22 10,7 C 9,4 C 16,7 C 16,7 C 16,7 C 82 % 1 lf 0 lf 5 cb 3 cb 10 cb 1019,3 hPa 0,0 mm 0,0 km/h (0 Bft) O-NO 286 0 min 0,000 mm 0,0 UV-I 0 W/m 7,8 C 10,7 C 0,0 km/h (0 Bft)
22/09/2018 02:20 10,7 C 9,4 C 16,7 C 16,7 C 16,7 C 82 % 1 lf 0 lf 5 cb 3 cb 10 cb 1019,3 hPa 0,0 mm 0,0 km/h (0 Bft) O-NO 286 0 min 0,000 mm 0,0 UV-I 0 W/m 7,8 C 10,7 C 0,0 km/h (0 Bft)
22/09/2018 02:18 10,7 C 9,4 C 16,7 C 16,7 C 16,7 C 82 % 1 lf 0 lf 5 cb 3 cb 10 cb 1019,2 hPa 0,0 mm 0,6 km/h (0 Bft) O-NO 286 0 min 0,000 mm 0,0 UV-I 0 W/m 7,8 C 10,7 C 4,8 km/h (1 Bft)
22/09/2018 02:16 10,8 C 9,4 C 16,7 C 16,7 C 16,7 C 81 % 1 lf 0 lf 5 cb 3 cb 10 cb 1019,2 hPa 0,0 mm 0,0 km/h (0 Bft) O-NO 286 0 min 0,000 mm 0,0 UV-I 0 W/m 7,7 C 10,8 C 0,0 km/h (0 Bft)
22/09/2018 02:14 10,8 C 9,4 C 16,7 C 16,7 C 16,7 C 81 % 1 lf 0 lf 5 cb 3 cb 10 cb 1019,2 hPa 0,0 mm 0,0 km/h (0 Bft) O-NO 286 0 min 0,000 mm 0,0 UV-I 0 W/m 7,7 C 10,8 C 0,0 km/h (0 Bft)
22/09/2018 02:12 10,9 C 9,4 C 16,7 C 16,7 C 16,7 C 81 % 1 lf 0 lf 5 cb 3 cb 10 cb 1019,1 hPa 0,0 mm 0,0 km/h (0 Bft) O-NO 286 0 min 0,000 mm 0,0 UV-I 0 W/m 7,8 C 10,9 C 0,0 km/h (0 Bft)
22/09/2018 02:10 10,9 C 9,4 C 16,7 C 16,7 C 16,7 C 82 % 1 lf 0 lf 5 cb 3 cb 10 cb 1019,1 hPa 0,0 mm 0,0 km/h (0 Bft) O-NO 286 0 min 0,000 mm 0,0 UV-I 0 W/m 7,9 C 10,9 C 0,0 km/h (0 Bft)
22/09/2018 02:08 10,9 C 9,4 C 16,7 C 16,7 C 16,7 C 81 % 1 lf 0 lf 5 cb 3 cb 10 cb 1019,0 hPa 0,0 mm 0,0 km/h (0 Bft) O-NO 286 0 min 0,000 mm 0,0 UV-I 0 W/m 7,8 C 10,9 C 0,0 km/h (0 Bft)
22/09/2018 02:06 10,9 C 10,0 C 16,7 C 16,7 C 16,7 C 82 % 1 lf 0 lf 5 cb 3 cb 10 cb 1019,0 hPa 0,0 mm 0,0 km/h (0 Bft) O-NO 286 0 min 0,000 mm 0,0 UV-I 0 W/m 7,9 C 10,9 C 0,0 km/h (0 Bft)
22/09/2018 02:04 10,9 C 10,0 C 16,7 C 16,7 C 16,7 C 82 % 1 lf 0 lf 5 cb 3 cb 10 cb 1019,1 hPa 0,0 mm 0,3 km/h (0 Bft) O-NO 286 0 min 0,000 mm 0,0 UV-I 0 W/m 7,9 C 10,9 C 3,2 km/h (1 Bft)
22/09/2018 02:02 10,9 C 10,0 C 16,7 C 16,7 C 16,7 C 81 % 1 lf 0 lf 5 cb 3 cb 10 cb 1019,0 hPa 0,0 mm 0,0 km/h (0 Bft) O-NO 286 0 min 0,000 mm 0,0 UV-I 0 W/m 7,8 C 10,9 C 0,0 km/h (0 Bft)
22/09/2018 02:00 10,9 C 10,0 C 16,7 C 16,7 C 16,7 C 81 % 1 lf 0 lf 5 cb 3 cb 10 cb 1019,0 hPa 0,0 mm 0,0 km/h (0 Bft) O-NO 287 0 min 0,026 mm 0,0 UV-I 0 W/m 7,8 C 10,9 C 0,0 km/h (0 Bft)
22/09/2018 01:58 10,9 C 10,0 C 16,7 C 16,7 C 16,7 C 80 % 1 lf 0 lf 5 cb 3 cb 10 cb 1019,1 hPa 0,0 mm 0,0 km/h (0 Bft) O-NO 287 0 min 0,000 mm 0,0 UV-I 0 W/m 7,6 C 10,9 C 0,0 km/h (0 Bft)
22/09/2018 01:56 11,1 C 10,0 C 16,7 C 16,7 C 16,7 C 80 % 0 lf 0 lf 5 cb 3 cb 10 cb 1019,1 hPa 0,0 mm 0,1 km/h (0 Bft) O-NO 287 0 min 0,000 mm 0,0 UV-I 0 W/m 7,8 C 11,1 C 1,6 km/h (1 Bft)
22/09/2018 01:54 11,1 C 10,0 C 16,7 C 16,7 C 16,7 C 80 % 0 lf 0 lf 5 cb 3 cb 10 cb 1019,2 hPa 0,0 mm 1,4 km/h (1 Bft) O-NO 287 0 min 0,000 mm 0,0 UV-I 0 W/m 7,8 C 11,1 C 4,8 km/h (1 Bft)
22/09/2018 01:52 11,1 C 10,0 C 16,7 C 16,7 C 16,7 C 80 % 0 lf 0 lf 5 cb 3 cb 10 cb 1019,2 hPa 0,0 mm 1,7 km/h (1 Bft) O-NO 294 0 min 0,000 mm 0,0 UV-I 0 W/m 7,8 C 11,1 C 9,7 km/h (2 Bft)
22/09/2018 01:50 11,1 C 10,0 C 16,7 C 16,7 C 16,7 C 80 % 0 lf 0 lf 5 cb 3 cb 10 cb 1019,2 hPa 0,0 mm 1,7 km/h (1 Bft) O 275 0 min 0,000 mm 0,0 UV-I 0 W/m 7,8 C 11,1 C 4,8 km/h (1 Bft)
22/09/2018 01:48 11,2 C 10,6 C 16,7 C 16,7 C 16,7 C 80 % 0 lf 0 lf 5 cb 3 cb 10 cb 1019,1 hPa 0,0 mm 0,0 km/h (0 Bft) O 275 0 min 0,000 mm 0,0 UV-I 0 W/m 7,9 C 11,2 C 0,0 km/h (0 Bft)
22/09/2018 01:46 11,2 C 10,6 C 16,7 C 16,7 C 16,7 C 80 % 0 lf 0 lf 5 cb 3 cb 10 cb 1019,1 hPa 0,0 mm 0,1 km/h (0 Bft) O 277 0 min 0,000 mm 0,0 UV-I 0 W/m 7,9 C 11,2 C 1,6 km/h (1 Bft)
22/09/2018 01:44 11,2 C 10,6 C 16,7 C 16,7 C 16,7 C 79 % 0 lf 0 lf 5 cb 3 cb 10 cb 1019,1 hPa 0,0 mm 1,1 km/h (1 Bft) O 277 0 min 0,000 mm 0,0 UV-I 0 W/m 7,7 C 11,2 C 4,8 km/h (1 Bft)
22/09/2018 01:42 11,3 C 10,6 C 16,7 C 16,7 C 16,7 C 79 % 0 lf 0 lf 5 cb 3 cb 10 cb 1019,1 hPa 0,0 mm 0,9 km/h (0 Bft) O 274 0 min 0,000 mm 0,0 UV-I 0 W/m 7,8 C 11,3 C 8,0 km/h (2 Bft)
22/09/2018 01:40 11,3 C 10,6 C 16,7 C 16,7 C 16,7 C 79 % 0 lf 0 lf 5 cb 3 cb 10 cb 1019,1 hPa 0,0 mm 1,9 km/h (1 Bft) O 269 0 min 0,000 mm 0,0 UV-I 0 W/m 7,8 C 11,3 C 8,0 km/h (2 Bft)
22/09/2018 01:38 11,4 C 10,6 C 16,7 C 16,7 C 16,7 C 79 % 0 lf 0 lf 5 cb 3 cb 10 cb 1019,1 hPa 0,0 mm 1,5 km/h (1 Bft) O 275 0 min 0,000 mm 0,0 UV-I 0 W/m 7,9 C 11,4 C 8,0 km/h (2 Bft)
22/09/2018 01:36 11,4 C 10,6 C 16,7 C 16,7 C 16,7 C 79 % 0 lf 0 lf 5 cb 3 cb 10 cb 1019,1 hPa 0,0 mm 0,9 km/h (0 Bft) O 275 0 min 0,000 mm 0,0 UV-I 0 W/m 7,9 C 11,4 C 8,0 km/h (2 Bft)
22/09/2018 01:34 11,5 C 10,6 C 16,7 C 16,7 C 16,7 C 79 % 0 lf 0 lf 5 cb 3 cb 10 cb 1019,1 hPa 0,0 mm 0,5 km/h (0 Bft) O 273 0 min 0,000 mm 0,0 UV-I 0 W/m 8,0 C 11,5 C 3,2 km/h (1 Bft)
22/09/2018 01:32 11,6 C 10,6 C 16,7 C 16,7 C 16,7 C 79 % 0 lf 0 lf 5 cb 3 cb 10 cb 1019,1 hPa 0,0 mm 1,7 km/h (1 Bft) O 269 0 min 0,000 mm 0,0 UV-I 0 W/m 8,1 C 11,6 C 9,7 km/h (2 Bft)
22/09/2018 01:30 11,6 C 10,6 C 16,7 C 16,7 C 16,7 C 79 % 0 lf 0 lf 5 cb 3 cb 10 cb 1019,1 hPa 0,0 mm 0,9 km/h (0 Bft) O 269 0 min 0,000 mm 0,0 UV-I 0 W/m 8,1 C 11,6 C 4,8 km/h (1 Bft)
22/09/2018 01:28 11,7 C 10,6 C 16,7 C 16,7 C 16,7 C 79 % 0 lf 0 lf 5 cb 3 cb 10 cb 1018,9 hPa 0,0 mm 0,4 km/h (0 Bft) O 269 0 min 0,000 mm 0,0 UV-I 0 W/m 8,2 C 11,7 C 3,2 km/h (1 Bft)
22/09/2018 01:26 11,7 C 10,6 C 16,7 C 16,7 C 16,7 C 79 % 0 lf 0 lf 5 cb 3 cb 10 cb 1018,9 hPa 0,0 mm 1,7 km/h (1 Bft) O 272 0 min 0,000 mm 0,0 UV-I 0 W/m 8,2 C 11,7 C 9,7 km/h (2 Bft)
22/09/2018 01:24 11,7 C 10,6 C 16,7 C 16,7 C 16,7 C 79 % 0 lf 0 lf 5 cb 3 cb 10 cb 1018,9 hPa 0,0 mm 1,2 km/h (1 Bft) O 271 0 min 0,000 mm 0,0 UV-I 0 W/m 8,2 C 11,7 C 4,8 km/h (1 Bft)
22/09/2018 01:22 11,7 C 10,6 C 16,7 C 16,7 C 16,7 C 79 % 0 lf 0 lf 5 cb 3 cb 10 cb 1018,9 hPa 0,0 mm 1,0 km/h (0 Bft) O-SO 252 0 min 0,000 mm 0,0 UV-I 0 W/m 8,2 C 11,7 C 6,4 km/h (2 Bft)
22/09/2018 01:20 11,7 C 10,6 C 16,7 C 16,7 C 16,7 C 78 % 0 lf 0 lf 5 cb 3 cb 10 cb 1018,9 hPa 0,0 mm 0,5 km/h (0 Bft) O 259 0 min 0,000 mm 0,0 UV-I 0 W/m 8,0 C 11,7 C 3,2 km/h (1 Bft)
22/09/2018 01:18 11,7 C 10,6 C 16,7 C 16,7 C 16,7 C 78 % 0 lf 0 lf 5 cb 3 cb 10 cb 1018,9 hPa 0,0 mm 4,3 km/h (1 Bft) O 259 0 min 0,000 mm 0,0 UV-I 0 W/m 8,0 C 11,7 C 11,3 km/h (2 Bft)
22/09/2018 01:16 11,7 C 10,6 C 16,7 C 16,7 C 16,7 C 78 % 0 lf 0 lf 5 cb 3 cb 10 cb 1018,9 hPa 0,0 mm 2,5 km/h (1 Bft) O 273 0 min 0,000 mm 0,0 UV-I 0 W/m 8,0 C 11,7 C 9,7 km/h (2 Bft)
22/09/2018 01:14 11,7 C 10,6 C 16,7 C 16,7 C 16,7 C 78 % 0 lf 0 lf 5 cb 3 cb 10 cb 1018,8 hPa 0,0 mm 1,2 km/h (1 Bft) O 271 0 min 0,000 mm 0,0 UV-I 0 W/m 8,0 C 11,7 C 4,8 km/h (1 Bft)
22/09/2018 01:12 11,7 C 10,6 C 16,7 C 16,7 C 16,7 C 78 % 0 lf 0 lf 5 cb 3 cb 10 cb 1018,8 hPa 0,0 mm 0,8 km/h (0 Bft) O 266 0 min 0,000 mm 0,0 UV-I 0 W/m 8,0 C 11,7 C 4,8 km/h (1 Bft)
22/09/2018 01:10 11,7 C 10,6 C 16,7 C 16,7 C 16,7 C 78 % 0 lf 0 lf 5 cb 3 cb 10 cb 1018,8 hPa 0,0 mm 1,3 km/h (1 Bft) O 269 0 min 0,000 mm 0,0 UV-I 0 W/m 8,0 C 11,7 C 4,8 km/h (1 Bft)
22/09/2018 01:08 11,8 C 10,6 C 16,7 C 16,7 C 16,7 C 77 % 0 lf 0 lf 5 cb 3 cb 10 cb 1018,7 hPa 0,0 mm 2,7 km/h (1 Bft) O 269 0 min 0,000 mm 0,0 UV-I 0 W/m 7,9 C 11,8 C 9,7 km/h (2 Bft)
22/09/2018 01:06 11,8 C 11,1 C 16,7 C 16,7 C 16,7 C 78 % 0 lf 0 lf 5 cb 3 cb 10 cb 1018,7 hPa 0,0 mm 0,1 km/h (0 Bft) O-SO 256 0 min 0,000 mm 0,0 UV-I 0 W/m 8,1 C 11,8 C 1,6 km/h (1 Bft)
22/09/2018 01:04 11,8 C 11,1 C 16,7 C 16,7 C 16,7 C 78 % 0 lf 0 lf 5 cb 3 cb 10 cb 1018,7 hPa 0,0 mm 2,8 km/h (1 Bft) O-SO 258 0 min 0,000 mm 0,0 UV-I 0 W/m 8,1 C 11,8 C 9,7 km/h (2 Bft)
22/09/2018 01:02 11,8 C 11,1 C 16,7 C 16,7 C 16,7 C 78 % 0 lf 0 lf 5 cb 3 cb 10 cb 1018,6 hPa 0,0 mm 2,7 km/h (1 Bft) O 274 0 min 0,000 mm 0,0 UV-I 0 W/m 8,1 C 11,8 C 9,7 km/h (2 Bft)
22/09/2018 01:00 11,8 C 11,1 C 16,7 C 16,7 C 16,7 C 78 % 0 lf 0 lf 5 cb 3 cb 10 cb 1018,6 hPa 0,0 mm 6,5 km/h (2 Bft) O-SO 254 0 min 0,025 mm 0,0 UV-I 0 W/m 8,1 C 11,8 C 11,3 km/h (2 Bft)
22/09/2018 00:58 11,8 C 11,1 C 16,7 C 16,7 C 16,7 C 78 % 0 lf 0 lf 5 cb 3 cb 10 cb 1018,6 hPa 0,0 mm 2,1 km/h (1 Bft) O 281 0 min 0,000 mm 0,0 UV-I 0 W/m 8,1 C 11,8 C 12,9 km/h (3 Bft)
22/09/2018 00:56 11,9 C 11,1 C 16,7 C 16,7 C 16,7 C 78 % 0 lf 0 lf 5 cb 3 cb 10 cb 1018,6 hPa 0,0 mm 2,5 km/h (1 Bft) O 265 0 min 0,000 mm 0,0 UV-I 0 W/m 8,2 C 11,9 C 9,7 km/h (2 Bft)
22/09/2018 00:54 11,9 C 11,1 C 16,7 C 16,7 C 16,7 C 78 % 0 lf 0 lf 5 cb 3 cb 10 cb 1018,5 hPa 0,0 mm 2,4 km/h (1 Bft) O 273 0 min 0,000 mm 0,0 UV-I 0 W/m 8,2 C 11,9 C 8,0 km/h (2 Bft)
22/09/2018 00:52 11,9 C 11,1 C 16,7 C 16,7 C 16,7 C 78 % 0 lf 0 lf 5 cb 3 cb 10 cb 1018,5 hPa 0,0 mm 2,5 km/h (1 Bft) O 262 0 min 0,000 mm 0,0 UV-I 0 W/m 8,2 C 11,9 C 6,4 km/h (2 Bft)
22/09/2018 00:50 11,9 C 11,1 C 16,7 C 16,7 C 16,7 C 78 % 0 lf 0 lf 5 cb 3 cb 10 cb 1018,6 hPa 0,0 mm 6,3 km/h (2 Bft) O-SO 255 0 min 0,000 mm 0,0 UV-I 0 W/m 8,2 C 11,9 C 14,5 km/h (3 Bft)
22/09/2018 00:48 12,0 C 11,1 C 16,7 C 16,7 C 16,7 C 78 % 0 lf 0 lf 5 cb 3 cb 10 cb 1018,5 hPa 0,0 mm 2,7 km/h (1 Bft) O 260 0 min 0,000 mm 0,0 UV-I 0 W/m 8,3 C 12,0 C 8,0 km/h (2 Bft)
22/09/2018 00:46 12,0 C 11,1 C 16,7 C 16,7 C 16,7 C 78 % 0 lf 0 lf 5 cb 3 cb 10 cb 1018,5 hPa 0,0 mm 5,1 km/h (1 Bft) O 277 0 min 0,000 mm 0,0 UV-I 0 W/m 8,3 C 12,0 C 11,3 km/h (2 Bft)
22/09/2018 00:44 12,0 C 11,1 C 16,7 C 16,7 C 16,7 C 78 % 0 lf 0 lf 5 cb 3 cb 10 cb 1018,4 hPa 0,0 mm 2,9 km/h (1 Bft) O-NO 283 0 min 0,000 mm 0,0 UV-I 0 W/m 8,3 C 12,0 C 8,0 km/h (2 Bft)
22/09/2018 00:42 12,1 C 11,1 C 16,7 C 16,7 C 16,7 C 79 % 0 lf 0 lf 5 cb 3 cb 10 cb 1018,5 hPa 0,0 mm 7,2 km/h (2 Bft) O 276 0 min 0,000 mm 0,0 UV-I 0 W/m 8,6 C 11,6 C 11,3 km/h (2 Bft)
22/09/2018 00:40 12,1 C 11,1 C 16,7 C 16,7 C 16,7 C 78 % 0 lf 0 lf 5 cb 3 cb 10 cb 1018,4 hPa 0,0 mm 5,3 km/h (1 Bft) O 279 0 min 0,000 mm 0,0 UV-I 0 W/m 8,4 C 12,1 C 12,9 km/h (3 Bft)
22/09/2018 00:38 12,2 C 11,1 C 16,7 C 16,7 C 16,7 C 78 % 0 lf 0 lf 5 cb 3 cb 10 cb 1018,4 hPa 0,0 mm 3,0 km/h (1 Bft) O 269 0 min 0,000 mm 0,0 UV-I 0 W/m 8,5 C 12,2 C 8,0 km/h (2 Bft)
22/09/2018 00:36 12,2 C 11,1 C 16,7 C 16,7 C 16,7 C 78 % 0 lf 0 lf 5 cb 3 cb 10 cb 1018,4 hPa 0,0 mm 2,1 km/h (1 Bft) O-NO 293 0 min 0,000 mm 0,0 UV-I 0 W/m 8,5 C 12,2 C 8,0 km/h (2 Bft)
22/09/2018 00:34 12,3 C 11,1 C 16,7 C 16,7 C 16,7 C 78 % 0 lf 0 lf 5 cb 3 cb 10 cb 1018,4 hPa 0,0 mm 3,1 km/h (1 Bft) O 269 0 min 0,000 mm 0,0 UV-I 0 W/m 8,6 C 12,3 C 9,7 km/h (2 Bft)
22/09/2018 00:32 12,3 C 11,1 C 16,7 C 16,7 C 16,7 C 78 % 0 lf 0 lf 5 cb 3 cb 10 cb 1018,4 hPa 0,0 mm 4,4 km/h (1 Bft) O 276 0 min 0,000 mm 0,0 UV-I 0 W/m 8,6 C 12,3 C 11,3 km/h (2 Bft)
22/09/2018 00:30 12,3 C 11,7 C 16,7 C 16,7 C 16,7 C 79 % 0 lf 0 lf 5 cb 3 cb 10 cb 1018,3 hPa 0,0 mm 3,1 km/h (1 Bft) O 271 0 min 0,000 mm 0,0 UV-I 0 W/m 8,8 C 12,3 C 11,3 km/h (2 Bft)
22/09/2018 00:28 12,4 C 11,7 C 16,7 C 16,7 C 16,7 C 79 % 0 lf 0 lf 5 cb 3 cb 10 cb 1018,3 hPa 0,0 mm 2,8 km/h (1 Bft) O-NO 298 0 min 0,000 mm 0,0 UV-I 0 W/m 8,9 C 12,4 C 8,0 km/h (2 Bft)
22/09/2018 00:26 12,4 C 11,7 C 16,7 C 16,7 C 16,7 C 79 % 0 lf 0 lf 5 cb 3 cb 10 cb 1018,3 hPa 0,0 mm 2,6 km/h (1 Bft) O 269 0 min 0,000 mm 0,0 UV-I 0 W/m 8,9 C 12,4 C 9,7 km/h (2 Bft)
22/09/2018 00:24 12,4 C 11,7 C 16,7 C 16,7 C 16,7 C 79 % 0 lf 0 lf 5 cb 3 cb 10 cb 1018,3 hPa 0,0 mm 0,3 km/h (0 Bft) O 276 0 min 0,000 mm 0,0 UV-I 0 W/m 8,9 C 12,4 C 3,2 km/h (1 Bft)
22/09/2018 00:22 12,4 C 11,7 C 16,7 C 16,7 C 16,7 C 79 % 0 lf 0 lf 5 cb 3 cb 10 cb 1018,2 hPa 0,0 mm 4,1 km/h (1 Bft) O 266 0 min 0,000 mm 0,0 UV-I 0 W/m 8,9 C 12,4 C 9,7 km/h (2 Bft)
22/09/2018 00:20 12,5 C 11,7 C 16,7 C 16,7 C 16,7 C 79 % 0 lf 0 lf 5 cb 3 cb 10 cb 1018,2 hPa 0,0 mm 3,2 km/h (1 Bft) O 266 0 min 0,000 mm 0,0 UV-I 0 W/m 9,0 C 12,5 C 11,3 km/h (2 Bft)
22/09/2018 00:18 12,6 C 11,7 C 16,7 C 16,7 C 16,7 C 79 % 0 lf 0 lf 5 cb 3 cb 10 cb 1018,2 hPa 0,0 mm 2,5 km/h (1 Bft) O-NO 283 0 min 0,000 mm 0,0 UV-I 0 W/m 9,1 C 12,6 C 9,7 km/h (2 Bft)
22/09/2018 00:16 12,6 C 11,7 C 16,7 C 16,7 C 16,7 C 79 % 0 lf 0 lf 5 cb 3 cb 10 cb 1018,1 hPa 0,0 mm 3,9 km/h (1 Bft) O-NO 297 0 min 0,000 mm 0,0 UV-I 0 W/m 9,1 C 12,6 C 11,3 km/h (2 Bft)
22/09/2018 00:14 12,6 C 11,7 C 16,7 C 16,7 C 16,7 C 79 % 0 lf 0 lf 5 cb 3 cb 10 cb 1018,0 hPa 0,0 mm 5,3 km/h (1 Bft) O 269 0 min 0,000 mm 0,0 UV-I 0 W/m 9,1 C 12,6 C 14,5 km/h (3 Bft)
22/09/2018 00:12 12,6 C 11,7 C 16,7 C 16,7 C 16,7 C 80 % 0 lf 0 lf 5 cb 3 cb 10 cb 1018,1 hPa 0,0 mm 3,2 km/h (1 Bft) O 265 0 min 0,000 mm 0,0 UV-I 0 W/m 9,2 C 12,6 C 8,0 km/h (2 Bft)
22/09/2018 00:10 12,7 C 11,7 C 16,7 C 16,7 C 16,7 C 80 % 0 lf 0 lf 5 cb 3 cb 10 cb 1018,1 hPa 0,0 mm 5,4 km/h (1 Bft) O 278 0 min 0,000 mm 0,0 UV-I 0 W/m 9,3 C 12,7 C 12,9 km/h (3 Bft)
22/09/2018 00:08 12,7 C 11,7 C 16,7 C 16,7 C 16,7 C 80 % 0 lf 0 lf 5 cb 3 cb 10 cb 1018,1 hPa 0,0 mm 4,7 km/h (1 Bft) O 277 0 min 0,000 mm 0,0 UV-I 0 W/m 9,3 C 12,7 C 12,9 km/h (3 Bft)
22/09/2018 00:06 12,8 C 11,7 C 16,7 C 16,7 C 16,7 C 80 % 0 lf 0 lf 5 cb 3 cb 10 cb 1018,1 hPa 0,0 mm 2,8 km/h (1 Bft) O-SO 257 0 min 0,000 mm 0,0 UV-I 0 W/m 9,4 C 12,8 C 8,0 km/h (2 Bft)
22/09/2018 00:04 12,8 C 11,7 C 16,7 C 16,7 C 16,7 C 80 % 0 lf 0 lf 5 cb 3 cb 10 cb 1018,0 hPa 0,0 mm 4,2 km/h (1 Bft) O 260 0 min 0,000 mm 0,0 UV-I 0 W/m 9,4 C 12,8 C 11,3 km/h (2 Bft)
22/09/2018 00:02 12,8 C 11,7 C 16,7 C 16,7 C 16,7 C 80 % 0 lf 0 lf 5 cb 3 cb 10 cb 1018,0 hPa 0,0 mm 4,7 km/h (1 Bft) O 274 0 min 0,000 mm 0,0 UV-I 0 W/m 9,4 C 12,8 C 9,7 km/h (2 Bft)
22/09/2018 00:00 12,8 C 12,2 C 16,7 C 16,7 C 16,7 C 81 % 0 lf 0 lf 5 cb 3 cb 10 cb 1017,9 hPa 0,0 mm 5,7 km/h (1 Bft) O 277 0 min 0,000 mm 0,0 UV-I 0 W/m 9,6 C 12,8 C 11,3 km/h (2 Bft)
21/09/2018 23:58 12,8 C 11,7 C 16,7 C 16,7 C 16,7 C 81 % 0 lf 0 lf 5 cb 3 cb 10 cb 1017,9 hPa 0,0 mm 4,1 km/h (1 Bft) O 276 0 min 0,000 mm 0,0 UV-I 0 W/m 9,6 C 12,8 C 17,7 km/h (3 Bft)
21/09/2018 23:56 12,9 C 12,2 C 16,7 C 16,7 C 16,7 C 81 % 1 lf 0 lf 5 cb 3 cb 10 cb 1017,9 hPa 0,0 mm 3,5 km/h (1 Bft) O 263 0 min 0,000 mm 0,0 UV-I 0 W/m 9,7 C 12,9 C 8,0 km/h (2 Bft)
21/09/2018 23:54 12,9 C 12,2 C 16,7 C 16,7 C 16,7 C 81 % 1 lf 0 lf 5 cb 3 cb 10 cb 1017,9 hPa 0,0 mm 5,0 km/h (1 Bft) O 273 0 min 0,000 mm 0,0 UV-I 0 W/m 9,7 C 12,9 C 12,9 km/h (3 Bft)
21/09/2018 23:52 12,9 C 12,2 C 16,7 C 16,7 C 16,7 C 81 % 0 lf 0 lf 5 cb 3 cb 10 cb 1017,9 hPa 0,0 mm 5,5 km/h (1 Bft) O 275 0 min 0,000 mm 0,0 UV-I 0 W/m 9,7 C 12,9 C 14,5 km/h (3 Bft)
21/09/2018 23:50 12,9 C 12,2 C 16,7 C 16,7 C 16,7 C 81 % 0 lf 0 lf 5 cb 3 cb 10 cb 1017,9 hPa 0,0 mm 4,4 km/h (1 Bft) O 263 0 min 0,000 mm 0,0 UV-I 0 W/m 9,7 C 12,9 C 11,3 km/h (2 Bft)
21/09/2018 23:48 12,9 C 12,2 C 16,7 C 16,7 C 16,7 C 81 % 0 lf 0 lf 5 cb 3 cb 10 cb 1017,8 hPa 0,0 mm 8,6 km/h (2 Bft) O 263 0 min 0,000 mm 0,0 UV-I 0 W/m 9,7 C 11,5 C 14,5 km/h (3 Bft)
21/09/2018 23:46 12,9 C 12,2 C 16,7 C 16,7 C 16,7 C 81 % 1 lf 0 lf 5 cb 3 cb 10 cb 1017,8 hPa 0,0 mm 5,4 km/h (1 Bft) O 281 0 min 0,000 mm 0,0 UV-I 0 W/m 9,7 C 12,9 C 12,9 km/h (3 Bft)
21/09/2018 23:44 12,9 C 12,2 C 16,7 C 16,7 C 16,7 C 81 % 1 lf 0 lf 5 cb 3 cb 10 cb 1017,7 hPa 0,0 mm 5,2 km/h (1 Bft) O 269 0 min 0,000 mm 0,0 UV-I 0 W/m 9,7 C 12,9 C 12,9 km/h (3 Bft)
21/09/2018 23:42 12,9 C 12,2 C 16,7 C 16,7 C 16,7 C 82 % 1 lf 0 lf 5 cb 3 cb 10 cb 1017,7 hPa 0,0 mm 5,4 km/h (1 Bft) O-SO 256 0 min 0,000 mm 0,0 UV-I 0 W/m 9,9 C 12,9 C 12,9 km/h (3 Bft)
21/09/2018 23:40 12,9 C 11,7 C 16,7 C 16,7 C 16,7 C 82 % 1 lf 0 lf 5 cb 3 cb 10 cb 1017,7 hPa 0,0 mm 7,2 km/h (2 Bft) O 265 0 min 0,000 mm 0,0 UV-I 0 W/m 9,9 C 12,4 C 12,9 km/h (3 Bft)
21/09/2018 23:38 12,9 C 11,7 C 16,7 C 16,7 C 16,7 C 82 % 1 lf 0 lf 5 cb 3 cb 10 cb 1017,7 hPa 0,0 mm 2,7 km/h (1 Bft) O 264 0 min 0,000 mm 0,0 UV-I 0 W/m 9,9 C 12,9 C 11,3 km/h (2 Bft)
21/09/2018 23:36 12,9 C 12,2 C 16,7 C 16,7 C 16,7 C 82 % 1 lf 0 lf 5 cb 3 cb 10 cb 1017,6 hPa 0,0 mm 1,8 km/h (1 Bft) O 275 0 min 0,000 mm 0,0 UV-I 0 W/m 9,9 C 12,9 C 9,7 km/h (2 Bft)
21/09/2018 23:34 12,9 C 12,2 C 16,7 C 16,7 C 16,7 C 82 % 1 lf 0 lf 5 cb 3 cb 10 cb 1017,7 hPa 0,0 mm 6,9 km/h (2 Bft) O 271 0 min 0,000 mm 0,0 UV-I 0 W/m 9,9 C 12,6 C 12,9 km/h (3 Bft)
21/09/2018 23:32 12,9 C 12,2 C 16,7 C 16,7 C 16,7 C 82 % 1 lf 0 lf 5 cb 3 cb 10 cb 1017,6 hPa 0,0 mm 5,9 km/h (2 Bft) O 275 0 min 0,000 mm 0,0 UV-I 0 W/m 9,9 C 12,9 C 12,9 km/h (3 Bft)
21/09/2018 23:30 13,0 C 12,2 C 16,7 C 16,7 C 16,7 C 82 % 1 lf 0 lf 5 cb 3 cb 10 cb 1017,5 hPa 0,0 mm 2,4 km/h (1 Bft) O 270 0 min 0,000 mm 0,0 UV-I 0 W/m 10,0 C 13,0 C 9,7 km/h (2 Bft)
21/09/2018 23:28 13,0 C 12,2 C 16,7 C 16,7 C 16,7 C 82 % 1 lf 0 lf 5 cb 3 cb 10 cb 1017,5 hPa 0,0 mm 0,6 km/h (0 Bft) O-SO 254 0 min 0,000 mm 0,0 UV-I 0 W/m 10,0 C 13,0 C 3,2 km/h (1 Bft)
21/09/2018 23:26 13,0 C 12,2 C 16,7 C 16,7 C 16,7 C 82 % 1 lf 0 lf 5 cb 3 cb 10 cb 1017,5 hPa 0,0 mm 1,7 km/h (1 Bft) O-SO 254 0 min 0,000 mm 0,0 UV-I 0 W/m 10,0 C 13,0 C 4,8 km/h (1 Bft)
21/09/2018 23:24 13,1 C 12,2 C 16,7 C 16,7 C 16,7 C 81 % 1 lf 0 lf 5 cb 3 cb 10 cb 1017,4 hPa 0,0 mm 4,4 km/h (1 Bft) O 273 0 min 0,000 mm 0,0 UV-I 0 W/m 9,9 C 13,1 C 9,7 km/h (2 Bft)
21/09/2018 23:22 13,1 C 12,2 C 16,7 C 16,7 C 16,7 C 81 % 1 lf 0 lf 5 cb 3 cb 10 cb 1017,4 hPa 0,0 mm 1,8 km/h (1 Bft) O 259 0 min 0,000 mm 0,0 UV-I 0 W/m 9,9 C 13,1 C 8,0 km/h (2 Bft)
21/09/2018 23:20 13,1 C 12,2 C 16,7 C 16,7 C 16,7 C 81 % 1 lf 0 lf 5 cb 3 cb 10 cb 1017,4 hPa 0,0 mm 1,7 km/h (1 Bft) O-SO 244 0 min 0,000 mm 0,0 UV-I 0 W/m 9,9 C 13,1 C 8,0 km/h (2 Bft)
21/09/2018 23:18 13,1 C 12,2 C 16,7 C 16,7 C 16,7 C 81 % 1 lf 0 lf 5 cb 3 cb 10 cb 1017,4 hPa 0,0 mm 3,3 km/h (1 Bft) O 269 0 min 0,000 mm 0,0 UV-I 0 W/m 9,9 C 13,1 C 9,7 km/h (2 Bft)
21/09/2018 23:16 13,1 C 12,2 C 16,7 C 16,7 C 16,7 C 81 % 1 lf 0 lf 5 cb 3 cb 10 cb 1017,4 hPa 0,0 mm 3,0 km/h (1 Bft) O 263 0 min 0,000 mm 0,0 UV-I 0 W/m 9,9 C 13,1 C 6,4 km/h (2 Bft)
21/09/2018 23:14 13,2 C 12,2 C 16,7 C 16,7 C 16,7 C 81 % 1 lf 0 lf 5 cb 3 cb 10 cb 1017,4 hPa 0,0 mm 4,0 km/h (1 Bft) O 270 0 min 0,000 mm 0,0 UV-I 0 W/m 10,0 C 13,2 C 11,3 km/h (2 Bft)
21/09/2018 23:12 13,2 C 12,2 C 16,7 C 16,7 C 16,7 C 80 % 1 lf 0 lf 5 cb 3 cb 10 cb 1017,4 hPa 0,0 mm 2,7 km/h (1 Bft) O 278 0 min 0,000 mm 0,0 UV-I 0 W/m 9,8 C 13,2 C 9,7 km/h (2 Bft)
21/09/2018 23:10 13,2 C 12,8 C 16,7 C 16,7 C 16,7 C 80 % 1 lf 0 lf 5 cb 3 cb 10 cb 1017,4 hPa 0,0 mm 3,2 km/h (1 Bft) O 279 0 min 0,000 mm 0,0 UV-I 0 W/m 9,8 C 13,2 C 11,3 km/h (2 Bft)
21/09/2018 23:08 13,3 C 12,8 C 16,7 C 16,7 C 16,7 C 80 % 0 lf 0 lf 5 cb 3 cb 10 cb 1017,4 hPa 0,0 mm 3,3 km/h (1 Bft) O-SO 249 0 min 0,000 mm 0,0 UV-I 0 W/m 9,9 C 13,3 C 11,3 km/h (2 Bft)
21/09/2018 23:06 13,3 C 12,8 C 16,7 C 16,7 C 16,7 C 80 % 0 lf 0 lf 5 cb 3 cb 10 cb 1017,4 hPa 0,0 mm 7,3 km/h (2 Bft) O 264 0 min 0,000 mm 0,0 UV-I 0 W/m 9,9 C 12,7 C 14,5 km/h (3 Bft)
21/09/2018 23:04 13,3 C 12,8 C 16,7 C 16,7 C 16,7 C 80 % 0 lf 0 lf 5 cb 3 cb 10 cb 1017,3 hPa 0,0 mm 5,1 km/h (1 Bft) O 266 0 min 0,000 mm 0,0 UV-I 0 W/m 9,9 C 13,3 C 11,3 km/h (2 Bft)
21/09/2018 23:02 13,3 C 12,8 C 16,7 C 16,7 C 16,7 C 80 % 0 lf 0 lf 5 cb 3 cb 10 cb 1017,3 hPa 0,0 mm 8,0 km/h (2 Bft) O 259 0 min 0,000 mm 0,0 UV-I 0 W/m 9,9 C 12,3 C 14,5 km/h (3 Bft)
21/09/2018 23:00 13,3 C 12,8 C 16,7 C 16,7 C 16,7 C 79 % 0 lf 0 lf 5 cb 3 cb 10 cb 1017,3 hPa 0,0 mm 5,0 km/h (1 Bft) O-SO 258 0 min 0,025 mm 0,0 UV-I 0 W/m 9,7 C 13,3 C 12,9 km/h (3 Bft)
21/09/2018 22:58 13,3 C 12,8 C 16,7 C 16,7 C 16,7 C 79 % 0 lf 0 lf 5 cb 3 cb 10 cb 1017,2 hPa 0,0 mm 4,5 km/h (1 Bft) O 280 0 min 0,000 mm 0,0 UV-I 0 W/m 9,7 C 13,3 C 9,7 km/h (2 Bft)
21/09/2018 22:56 13,4 C 12,8 C 16,7 C 16,7 C 16,7 C 79 % 0 lf 0 lf 5 cb 3 cb 10 cb 1017,2 hPa 0,0 mm 5,9 km/h (2 Bft) O 261 0 min 0,000 mm 0,0 UV-I 0 W/m 9,8 C 13,4 C 12,9 km/h (3 Bft)
21/09/2018 22:54 13,4 C 12,8 C 16,7 C 16,7 C 16,7 C 79 % 0 lf 0 lf 5 cb 3 cb 10 cb 1017,2 hPa 0,0 mm 5,1 km/h (1 Bft) O 280 0 min 0,000 mm 0,0 UV-I 0 W/m 9,8 C 13,4 C 14,5 km/h (3 Bft)
21/09/2018 22:52 13,4 C 12,8 C 16,7 C 16,7 C 16,7 C 79 % 0 lf 0 lf 5 cb 3 cb 10 cb 1017,1 hPa 0,0 mm 6,8 km/h (2 Bft) O 274 0 min 0,000 mm 0,0 UV-I 0 W/m 9,8 C 13,2 C 12,9 km/h (3 Bft)
21/09/2018 22:50 13,4 C 12,8 C 16,7 C 16,7 C 16,7 C 79 % 0 lf 0 lf 5 cb 3 cb 10 cb 1017,1 hPa 0,0 mm 5,3 km/h (1 Bft) O 259 0 min 0,000 mm 0,0 UV-I 0 W/m 9,8 C 13,4 C 11,3 km/h (2 Bft)
21/09/2018 22:48 13,4 C 12,8 C 16,7 C 16,7 C 16,7 C 78 % 0 lf 0 lf 5 cb 3 cb 10 cb 1017,0 hPa 0,0 mm 8,8 km/h (2 Bft) O 265 0 min 0,000 mm 0,0 UV-I 0 W/m 9,6 C 12,0 C 16,1 km/h (3 Bft)
21/09/2018 22:46 13,4 C 12,8 C 16,7 C 16,7 C 16,7 C 78 % 0 lf 0 lf 5 cb 3 cb 10 cb 1017,0 hPa 0,0 mm 7,5 km/h (2 Bft) O 260 0 min 0,000 mm 0,0 UV-I 0 W/m 9,6 C 12,7 C 12,9 km/h (3 Bft)
21/09/2018 22:44 13,4 C 12,8 C 16,7 C 16,7 C 16,7 C 78 % 0 lf 0 lf 5 cb 3 cb 10 cb 1017,0 hPa 0,0 mm 7,7 km/h (2 Bft) O-NO 288 0 min 0,000 mm 0,0 UV-I 0 W/m 9,6 C 12,6 C 12,9 km/h (3 Bft)
21/09/2018 22:42 13,5 C 12,8 C 16,7 C 16,7 C 16,7 C 78 % 0 lf 0 lf 5 cb 3 cb 10 cb 1016,9 hPa 0,0 mm 8,6 km/h (2 Bft) O 270 0 min 0,000 mm 0,0 UV-I 0 W/m 9,7 C 12,2 C 14,5 km/h (3 Bft)
21/09/2018 22:40 13,5 C 12,8 C 16,7 C 16,7 C 16,7 C 78 % 0 lf 0 lf 5 cb 3 cb 10 cb 1016,9 hPa 0,0 mm 7,4 km/h (2 Bft) O-NO 286 0 min 0,000 mm 0,0 UV-I 0 W/m 9,7 C 12,9 C 14,5 km/h (3 Bft)
21/09/2018 22:38 13,5 C 12,8 C 16,7 C 16,7 C 16,7 C 77 % 0 lf 0 lf 5 cb 3 cb 10 cb 1017,0 hPa 0,0 mm 7,0 km/h (2 Bft) O 281 0 min 0,000 mm 0,0 UV-I 0 W/m 9,5 C 13,1 C 11,3 km/h (2 Bft)
21/09/2018 22:36 13,6 C 12,8 C 16,7 C 16,7 C 16,7 C 77 % 0 lf 0 lf 5 cb 3 cb 10 cb 1016,9 hPa 0,0 mm 7,1 km/h (2 Bft) O 263 0 min 0,000 mm 0,0 UV-I 0 W/m 9,6 C 13,2 C 12,9 km/h (3 Bft)
21/09/2018 22:34 13,6 C 12,8 C 16,7 C 16,7 C 16,7 C 77 % 0 lf 0 lf 5 cb 3 cb 10 cb 1016,9 hPa 0,0 mm 6,3 km/h (2 Bft) O-NO 296 0 min 0,000 mm 0,0 UV-I 0 W/m 9,6 C 13,6 C 12,9 km/h (3 Bft)
21/09/2018 22:32 13,6 C 12,8 C 16,7 C 16,7 C 16,7 C 77 % 0 lf 0 lf 5 cb 3 cb 10 cb 1016,9 hPa 0,0 mm 7,7 km/h (2 Bft) O 271 0 min 0,000 mm 0,0 UV-I 0 W/m 9,6 C 12,8 C 14,5 km/h (3 Bft)
21/09/2018 22:30 13,6 C 12,8 C 16,7 C 16,7 C 16,7 C 77 % 0 lf 0 lf 5 cb 3 cb 10 cb 1016,8 hPa 0,0 mm 6,0 km/h (2 Bft) O-NO 288 0 min 0,000 mm 0,0 UV-I 0 W/m 9,6 C 13,6 C 11,3 km/h (2 Bft)
21/09/2018 22:28 13,6 C 12,8 C 16,7 C 16,7 C 16,7 C 77 % 0 lf 0 lf 5 cb 3 cb 10 cb 1016,8 hPa 0,0 mm 8,8 km/h (2 Bft) O-NO 285 0 min 0,000 mm 0,0 UV-I 0 W/m 9,6 C 12,2 C 19,3 km/h (3 Bft)
21/09/2018 22:26 13,7 C 12,8 C 16,7 C 16,7 C 16,7 C 77 % 0 lf 0 lf 5 cb 3 cb 10 cb 1016,8 hPa 0,0 mm 5,3 km/h (1 Bft) O 267 0 min 0,000 mm 0,0 UV-I 0 W/m 9,7 C 13,7 C 11,3 km/h (2 Bft)
21/09/2018 22:24 13,7 C 12,8 C 16,7 C 16,7 C 16,7 C 76 % 0 lf 0 lf 5 cb 3 cb 10 cb 1016,7 hPa 0,0 mm 5,0 km/h (1 Bft) O 274 0 min 0,000 mm 0,0 UV-I 0 W/m 9,5 C 13,7 C 12,9 km/h (3 Bft)
21/09/2018 22:22 13,7 C 12,8 C 16,7 C 16,7 C 16,7 C 76 % 0 lf 0 lf 5 cb 3 cb 10 cb 1016,8 hPa 0,0 mm 4,8 km/h (1 Bft) O-SO 257 0 min 0,000 mm 0,0 UV-I 0 W/m 9,5 C 13,7 C 12,9 km/h (3 Bft)
21/09/2018 22:20 13,7 C 12,8 C 16,7 C 16,7 C 16,7 C 76 % 0 lf 0 lf 5 cb 3 cb 10 cb 1016,7 hPa 0,0 mm 5,5 km/h (1 Bft) O 271 0 min 0,000 mm 0,0 UV-I 0 W/m 9,5 C 13,7 C 16,1 km/h (3 Bft)
21/09/2018 22:18 13,8 C 12,8 C 16,7 C 16,7 C 16,7 C 76 % 0 lf 0 lf 5 cb 3 cb 10 cb 1016,7 hPa 0,0 mm 8,7 km/h (2 Bft) O-NO 289 0 min 0,000 mm 0,0 UV-I 0 W/m 9,6 C 12,5 C 14,5 km/h (3 Bft)
21/09/2018 22:16 13,8 C 12,8 C 16,7 C 16,7 C 16,7 C 76 % 0 lf 0 lf 5 cb 3 cb 10 cb 1016,6 hPa 0,0 mm 7,1 km/h (2 Bft) O 273 0 min 0,000 mm 0,0 UV-I 0 W/m 9,6 C 13,4 C 12,9 km/h (3 Bft)
21/09/2018 22:14 13,8 C 13,3 C 16,7 C 16,7 C 16,7 C 75 % 0 lf 0 lf 5 cb 3 cb 10 cb 1016,6 hPa 0,0 mm 7,9 km/h (2 Bft) NO 319 0 min 0,000 mm 0,0 UV-I 0 W/m 9,4 C 12,9 C 14,5 km/h (3 Bft)
21/09/2018 22:12 13,8 C 13,3 C 16,7 C 16,7 C 16,7 C 75 % 0 lf 0 lf 5 cb 3 cb 10 cb 1016,5 hPa 0,0 mm 6,9 km/h (2 Bft) O 265 0 min 0,000 mm 0,0 UV-I 0 W/m 9,4 C 13,5 C 14,5 km/h (3 Bft)
21/09/2018 22:10 13,8 C 13,3 C 16,7 C 16,7 C 16,7 C 75 % 0 lf 0 lf 5 cb 3 cb 10 cb 1016,5 hPa 0,0 mm 8,8 km/h (2 Bft) O 266 0 min 0,000 mm 0,0 UV-I 0 W/m 9,4 C 12,4 C 12,9 km/h (3 Bft)
21/09/2018 22:08 13,8 C 13,3 C 16,7 C 16,7 C 16,7 C 75 % 0 lf 0 lf 5 cb 3 cb 10 cb 1016,5 hPa 0,0 mm 9,8 km/h (2 Bft) O 278 0 min 0,000 mm 0,0 UV-I 0 W/m 9,4 C 11,9 C 24,1 km/h (4 Bft)
21/09/2018 22:06 13,8 C 13,3 C 16,7 C 16,7 C 16,7 C 75 % 0 lf 0 lf 5 cb 3 cb 10 cb 1016,4 hPa 0,0 mm 8,8 km/h (2 Bft) O 271 0 min 0,000 mm 0,0 UV-I 0 W/m 9,4 C 12,4 C 20,9 km/h (4 Bft)
21/09/2018 22:04 13,8 C 13,3 C 16,7 C 16,7 C 16,7 C 75 % 0 lf 0 lf 5 cb 3 cb 10 cb 1016,4 hPa 0,0 mm 10,4 km/h (2 Bft) O 260 0 min 0,000 mm 0,0 UV-I 0 W/m 9,4 C 11,6 C 16,1 km/h (3 Bft)
21/09/2018 22:02 13,8 C 13,3 C 16,7 C 16,7 C 16,7 C 75 % 0 lf 0 lf 5 cb 3 cb 10 cb 1016,3 hPa 0,0 mm 8,3 km/h (2 Bft) O 279 0 min 0,000 mm 0,0 UV-I 0 W/m 9,4 C 12,7 C 14,5 km/h (3 Bft)
21/09/2018 22:00 13,8 C 13,3 C 16,7 C 16,7 C 16,7 C 74 % 0 lf 0 lf 5 cb 3 cb 10 cb 1016,3 hPa 0,0 mm 7,8 km/h (2 Bft) O 271 0 min 0,051 mm 0,0 UV-I 0 W/m 9,2 C 13,0 C 14,5 km/h (3 Bft)
21/09/2018 21:58 13,9 C 13,3 C 16,7 C 16,7 C 16,7 C 74 % 0 lf 0 lf 5 cb 3 cb 10 cb 1016,2 hPa 0,0 mm 8,3 km/h (2 Bft) O 266 0 min 0,000 mm 0,0 UV-I 0 W/m 9,3 C 12,8 C 14,5 km/h (3 Bft)
21/09/2018 21:56 13,9 C 13,3 C 16,7 C 16,7 C 16,7 C 74 % 0 lf 0 lf 5 cb 3 cb 10 cb 1016,3 hPa 0,0 mm 11,1 km/h (2 Bft) O-NO 296 0 min 0,000 mm 0,0 UV-I 0 W/m 9,3 C 11,4 C 17,7 km/h (3 Bft)
21/09/2018 21:54 13,9 C 13,3 C 16,7 C 16,7 C 16,7 C 74 % 0 lf 0 lf 5 cb 3 cb 10 cb 1016,2 hPa 0,0 mm 10,7 km/h (2 Bft) O 273 0 min 0,000 mm 0,0 UV-I 0 W/m 9,3 C 11,6 C 20,9 km/h (4 Bft)
21/09/2018 21:52 13,9 C 13,3 C 16,7 C 16,7 C 16,7 C 74 % 0 lf 0 lf 5 cb 3 cb 10 cb 1016,1 hPa 0,0 mm 7,9 km/h (2 Bft) O 281 0 min 0,000 mm 0,0 UV-I 0 W/m 9,3 C 13,0 C 14,5 km/h (3 Bft)
21/09/2018 21:50 14,0 C 13,3 C 16,7 C 16,7 C 16,7 C 74 % 0 lf 0 lf 5 cb 3 cb 10 cb 1016,1 hPa 0,0 mm 6,8 km/h (2 Bft) O 261 0 min 0,000 mm 0,0 UV-I 0 W/m 9,4 C 13,8 C 12,9 km/h (3 Bft)
21/09/2018 21:48 14,1 C 13,3 C 16,7 C 16,7 C 16,7 C 74 % 0 lf 0 lf 5 cb 3 cb 10 cb 1016,1 hPa 0,0 mm 7,5 km/h (2 Bft) O 280 0 min 0,000 mm 0,0 UV-I 0 W/m 9,5 C 13,4 C 14,5 km/h (3 Bft)
21/09/2018 21:46 14,1 C 13,3 C 16,7 C 16,7 C 16,7 C 73 % 0 lf 0 lf 5 cb 3 cb 10 cb 1016,2 hPa 0,0 mm 9,7 km/h (2 Bft) O 273 0 min 0,000 mm 0,0 UV-I 0 W/m 9,3 C 12,3 C 16,1 km/h (3 Bft)
21/09/2018 21:44 14,2 C 13,3 C 16,7 C 16,7 C 16,7 C 73 % 0 lf 0 lf 5 cb 3 cb 10 cb 1016,2 hPa 0,0 mm 11,5 km/h (2 Bft) O-SO 244 0 min 0,000 mm 0,0 UV-I 0 W/m 9,4 C 11,6 C 19,3 km/h (3 Bft)
21/09/2018 21:42 14,2 C 13,3 C 16,7 C 16,7 C 16,7 C 73 % 0 lf 0 lf 5 cb 3 cb 10 cb 1016,2 hPa 0,0 mm 9,9 km/h (2 Bft) O 280 0 min 0,000 mm 0,0 UV-I 0 W/m 9,4 C 12,3 C 20,9 km/h (4 Bft)
21/09/2018 21:40 14,3 C 13,3 C 16,7 C 16,7 C 16,7 C 72 % 0 lf 0 lf 5 cb 3 cb 10 cb 1016,2 hPa 0,0 mm 9,3 km/h (2 Bft) O 261 0 min 0,000 mm 0,0 UV-I 0 W/m 9,3 C 12,7 C 20,9 km/h (4 Bft)
21/09/2018 21:38 14,3 C 13,3 C 16,7 C 16,7 C 16,7 C 72 % 0 lf 0 lf 5 cb 3 cb 10 cb 1016,1 hPa 0,0 mm 10,0 km/h (2 Bft) O-NO 299 0 min 0,000 mm 0,0 UV-I 0 W/m 9,3 C 12,3 C 19,3 km/h (3 Bft)
21/09/2018 21:36 14,3 C 13,9 C 16,7 C 16,7 C 16,7 C 71 % 1 lf 1 lf 5 cb 3 cb 10 cb 1016,1 hPa 0,0 mm 8,4 km/h (2 Bft) O 271 0 min 0,000 mm 0,0 UV-I 0 W/m 9,1 C 13,1 C 22,5 km/h (4 Bft)
21/09/2018 21:34 14,4 C 13,9 C 16,7 C 16,7 C 16,7 C 71 % 3 lf 1 lf 5 cb 3 cb 10 cb 1016,1 hPa 0,0 mm 6,4 km/h (2 Bft) O 262 0 min 0,000 mm 0,0 UV-I 0 W/m 9,2 C 14,4 C 11,3 km/h (2 Bft)
21/09/2018 21:32 14,4 C 13,9 C 16,7 C 16,7 C 16,7 C 71 % 0 lf 0 lf 5 cb 3 cb 10 cb 1015,9 hPa 0,0 mm 13,5 km/h (3 Bft) O-SO 253 0 min 0,000 mm 0,0 UV-I 0 W/m 9,2 C 11,0 C 22,5 km/h (4 Bft)
21/09/2018 21:30 14,4 C 13,9 C 16,7 C 16,7 C 16,7 C 71 % 0 lf 0 lf 5 cb 3 cb 10 cb 1015,9 hPa 0,0 mm 10,9 km/h (2 Bft) O 261 0 min 0,000 mm 0,0 UV-I 0 W/m 9,2 C 12,0 C 17,7 km/h (3 Bft)
21/09/2018 21:28 14,5 C 13,9 C 16,7 C 16,7 C 16,7 C 70 % 0 lf 0 lf 5 cb 3 cb 10 cb 1015,8 hPa 0,0 mm 11,6 km/h (2 Bft) O-NO 286 0 min 0,000 mm 0,0 UV-I 0 W/m 9,1 C 11,9 C 22,5 km/h (4 Bft)
21/09/2018 21:26 14,5 C 13,9 C 16,7 C 16,7 C 16,7 C 70 % 0 lf 0 lf 5 cb 3 cb 10 cb 1015,8 hPa 0,0 mm 11,7 km/h (2 Bft) NO 305 0 min 0,000 mm 0,0 UV-I 0 W/m 9,1 C 11,8 C 20,9 km/h (4 Bft)
21/09/2018 21:24 14,5 C 13,9 C 16,7 C 16,7 C 16,7 C 70 % 0 lf 0 lf 5 cb 3 cb 10 cb 1015,8 hPa 0,0 mm 13,8 km/h (3 Bft) O 272 0 min 0,000 mm 0,0 UV-I 0 W/m 9,1 C 11,0 C 24,1 km/h (4 Bft)
21/09/2018 21:22 14,5 C 13,9 C 16,7 C 16,7 C 16,7 C 69 % 0 lf 0 lf 5 cb 3 cb 10 cb 1015,8 hPa 0,0 mm 16,4 km/h (3 Bft) O 261 0 min 0,000 mm 0,0 UV-I 0 W/m 8,9 C 10,1 C 30,6 km/h (5 Bft)
21/09/2018 21:20 14,4 C 13,9 C 16,7 C 16,7 C 16,7 C 69 % 0 lf 0 lf 5 cb 3 cb 10 cb 1015,8 hPa 0,0 mm 18,7 km/h (3 Bft) O 281 0 min 0,000 mm 0,0 UV-I 0 W/m 8,8 C 9,3 C 33,8 km/h (5 Bft)
21/09/2018 21:18 14,4 C 13,9 C 16,7 C 16,7 C 16,7 C 70 % 0 lf 0 lf 5 cb 3 cb 10 cb 1015,8 hPa 0,0 mm 17,2 km/h (3 Bft) O 271 0 min 0,000 mm 0,0 UV-I 0 W/m 9,0 C 9,8 C 25,7 km/h (4 Bft)
21/09/2018 21:16 14,4 C 13,9 C 16,7 C 16,7 C 16,7 C 70 % 0 lf 0 lf 5 cb 3 cb 10 cb 1015,8 hPa 0,0 mm 11,7 km/h (2 Bft) O-NO 293 0 min 0,000 mm 0,0 UV-I 0 W/m 9,0 C 11,7 C 22,5 km/h (4 Bft)
21/09/2018 21:14 14,4 C 13,9 C 16,7 C 16,7 C 16,7 C 70 % 0 lf 0 lf 5 cb 3 cb 10 cb 1015,8 hPa 0,0 mm 15,0 km/h (3 Bft) O 281 0 min 0,000 mm 0,0 UV-I 0 W/m 9,0 C 10,5 C 20,9 km/h (4 Bft)
21/09/2018 21:12 14,4 C 13,9 C 16,7 C 16,7 C 16,7 C 70 % 0 lf 0 lf 5 cb 3 cb 10 cb 1015,7 hPa 0,0 mm 12,5 km/h (3 Bft) O 271 0 min 0,000 mm 0,0 UV-I 0 W/m 9,0 C 11,4 C 22,5 km/h (4 Bft)
21/09/2018 21:10 14,4 C 13,9 C 16,7 C 16,7 C 16,7 C 70 % 0 lf 0 lf 5 cb 3 cb 10 cb 1015,6 hPa 0,0 mm 12,7 km/h (3 Bft) O-SO 257 0 min 0,000 mm 0,0 UV-I 0 W/m 9,0 C 11,3 C 20,9 km/h (4 Bft)
21/09/2018 21:08 14,4 C 13,9 C 16,7 C 16,7 C 16,7 C 69 % 0 lf 0 lf 5 cb 3 cb 10 cb 1015,5 hPa 0,0 mm 14,8 km/h (3 Bft) O 261 0 min 0,000 mm 0,0 UV-I 0 W/m 8,8 C 10,5 C 25,7 km/h (4 Bft)
21/09/2018 21:06 14,4 C 13,9 C 16,7 C 16,7 C 16,7 C 69 % 0 lf 0 lf 5 cb 3 cb 10 cb 1015,5 hPa 0,0 mm 10,7 km/h (2 Bft) O-SO 242 0 min 0,000 mm 0,0 UV-I 0 W/m 8,8 C 12,1 C 24,1 km/h (4 Bft)
21/09/2018 21:04 14,4 C 13,9 C 16,7 C 16,7 C 16,7 C 69 % 0 lf 0 lf 5 cb 3 cb 10 cb 1015,5 hPa 0,0 mm 11,6 km/h (2 Bft) O 271 0 min 0,000 mm 0,0 UV-I 0 W/m 8,8 C 11,7 C 22,5 km/h (4 Bft)
21/09/2018 21:02 14,4 C 13,9 C 16,7 C 16,7 C 16,7 C 69 % 0 lf 0 lf 5 cb 3 cb 10 cb 1015,4 hPa 0,0 mm 10,4 km/h (2 Bft) O 280 0 min 0,000 mm 0,0 UV-I 0 W/m 8,8 C 12,3 C 17,7 km/h (3 Bft)
21/09/2018 21:00 14,4 C 13,9 C 16,7 C 16,7 C 16,7 C 69 % 0 lf 0 lf 5 cb 3 cb 10 cb 1015,3 hPa 0,0 mm 13,6 km/h (3 Bft) O 271 0 min 0,051 mm 0,0 UV-I 0 W/m 8,8 C 11,0 C 20,9 km/h (4 Bft)
21/09/2018 20:58 14,4 C 13,9 C 16,7 C 16,7 C 16,7 C 69 % 0 lf 0 lf 5 cb 3 cb 10 cb 1015,2 hPa 0,0 mm 14,4 km/h (3 Bft) O 274 0 min 0,000 mm 0,0 UV-I 0 W/m 8,8 C 10,7 C 24,1 km/h (4 Bft)
21/09/2018 20:56 14,4 C 13,9 C 16,7 C 16,7 C 16,7 C 69 % 0 lf 0 lf 5 cb 3 cb 10 cb 1015,2 hPa 0,0 mm 13,4 km/h (3 Bft) O 280 0 min 0,000 mm 0,0 UV-I 0 W/m 8,8 C 11,0 C 25,7 km/h (4 Bft)
21/09/2018 20:54 14,4 C 13,9 C 16,7 C 16,7 C 16,7 C 69 % 0 lf 0 lf 5 cb 3 cb 10 cb 1015,2 hPa 0,0 mm 11,4 km/h (2 Bft) O 263 0 min 0,000 mm 0,0 UV-I 0 W/m 8,8 C 11,8 C 20,9 km/h (4 Bft)
21/09/2018 20:52 14,3 C 13,9 C 16,7 C 16,7 C 16,7 C 69 % 0 lf 0 lf 5 cb 3 cb 10 cb 1015,1 hPa 0,0 mm 10,8 km/h (2 Bft) O-NO 284 0 min 0,000 mm 0,0 UV-I 0 W/m 8,7 C 12,0 C 20,9 km/h (4 Bft)
21/09/2018 20:50 14,3 C 13,9 C 16,7 C 16,7 C 16,7 C 69 % 4 lf 2 lf 5 cb 3 cb 10 cb 1015,1 hPa 0,0 mm 11,1 km/h (2 Bft) O 269 0 min 0,000 mm 0,0 UV-I 0 W/m 8,7 C 11,8 C 17,7 km/h (3 Bft)
21/09/2018 20:48 14,3 C 13,9 C 16,7 C 16,7 C 16,7 C 69 % 0 lf 0 lf 5 cb 3 cb 10 cb 1015,1 hPa 0,0 mm 9,3 km/h (2 Bft) SO 232 0 min 0,000 mm 0,0 UV-I 0 W/m 8,7 C 12,7 C 20,9 km/h (4 Bft)
21/09/2018 20:46 14,3 C 13,9 C 16,7 C 16,7 C 16,7 C 68 % 0 lf 0 lf 5 cb 3 cb 10 cb 1015,0 hPa 0,0 mm 10,7 km/h (2 Bft) O 267 0 min 0,000 mm 0,0 UV-I 0 W/m 8,5 C 12,0 C 17,7 km/h (3 Bft)
21/09/2018 20:44 14,4 C 13,9 C 16,7 C 16,7 C 16,7 C 68 % 0 lf 0 lf 5 cb 3 cb 10 cb 1015,0 hPa 0,0 mm 9,7 km/h (2 Bft) O 281 0 min 0,000 mm 0,0 UV-I 0 W/m 8,6 C 12,6 C 16,1 km/h (3 Bft)
21/09/2018 20:42 14,4 C 13,9 C 16,7 C 16,7 C 16,7 C 68 % 0 lf 0 lf 5 cb 3 cb 10 cb 1015,0 hPa 0,0 mm 7,9 km/h (2 Bft) O 275 0 min 0,000 mm 0,0 UV-I 0 W/m 8,6 C 13,5 C 19,3 km/h (3 Bft)
21/09/2018 20:40 14,5 C 13,9 C 16,7 C 16,7 C 16,7 C 68 % 0 lf 0 lf 5 cb 3 cb 10 cb 1015,0 hPa 0,0 mm 10,2 km/h (2 Bft) SO 227 0 min 0,000 mm 0,0 UV-I 0 W/m 8,7 C 12,5 C 20,9 km/h (4 Bft)
21/09/2018 20:38 14,6 C 13,9 C 16,7 C 16,7 C 16,7 C 67 % 0 lf 0 lf 5 cb 3 cb 10 cb 1015,0 hPa 0,0 mm 12,4 km/h (3 Bft) O 268 0 min 0,000 mm 0,0 UV-I 0 W/m 8,5 C 11,7 C 24,1 km/h (4 Bft)
21/09/2018 20:36 14,6 C 13,9 C 16,7 C 16,7 C 16,7 C 67 % 0 lf 0 lf 5 cb 3 cb 10 cb 1014,9 hPa 0,0 mm 13,6 km/h (3 Bft) O-NO 285 0 min 0,000 mm 0,0 UV-I 0 W/m 8,5 C 11,2 C 27,4 km/h (4 Bft)
21/09/2018 20:34 14,7 C 13,9 C 16,7 C 16,7 C 16,7 C 67 % 0 lf 0 lf 5 cb 3 cb 10 cb 1014,9 hPa 0,0 mm 13,4 km/h (3 Bft) O 264 0 min 0,000 mm 0,0 UV-I 0 W/m 8,6 C 11,4 C 27,4 km/h (4 Bft)
21/09/2018 20:32 14,7 C 13,9 C 17,2 C 16,7 C 16,7 C 66 % 0 lf 0 lf 5 cb 3 cb 10 cb 1014,9 hPa 0,0 mm 11,8 km/h (2 Bft) O 271 0 min 0,000 mm 0,0 UV-I 0 W/m 8,4 C 12,0 C 22,5 km/h (4 Bft)
21/09/2018 20:30 14,7 C 13,9 C 17,2 C 16,7 C 16,7 C 66 % 0 lf 0 lf 5 cb 3 cb 10 cb 1014,9 hPa 0,0 mm 14,2 km/h (3 Bft) O-SO 255 0 min 0,000 mm 0,0 UV-I 0 W/m 8,4 C 11,1 C 20,9 km/h (4 Bft)
21/09/2018 20:28 14,8 C 13,9 C 17,2 C 16,7 C 16,7 C 66 % 0 lf 0 lf 5 cb 3 cb 10 cb 1015,0 hPa 0,0 mm 12,0 km/h (2 Bft) O 276 0 min 0,000 mm 0,0 UV-I 0 W/m 8,5 C 12,0 C 20,9 km/h (4 Bft)
21/09/2018 20:26 14,8 C 13,9 C 17,2 C 16,7 C 16,7 C 66 % 0 lf 0 lf 5 cb 3 cb 10 cb 1014,9 hPa 0,0 mm 9,3 km/h (2 Bft) NO 304 0 min 0,000 mm 0,0 UV-I 0 W/m 8,5 C 13,2 C 19,3 km/h (3 Bft)
21/09/2018 20:24 14,8 C 14,4 C 17,2 C 16,7 C 16,7 C 65 % 0 lf 0 lf 5 cb 3 cb 10 cb 1014,9 hPa 0,0 mm 13,8 km/h (3 Bft) O 277 0 min 0,000 mm 0,0 UV-I 0 W/m 8,3 C 11,4 C 24,1 km/h (4 Bft)
21/09/2018 20:22 14,9 C 14,4 C 17,2 C 16,7 C 16,7 C 65 % 0 lf 0 lf 5 cb 3 cb 10 cb 1014,9 hPa 0,0 mm 14,7 km/h (3 Bft) O 276 0 min 0,000 mm 0,0 UV-I 0 W/m 8,4 C 11,2 C 22,5 km/h (4 Bft)
21/09/2018 20:20 14,9 C 14,4 C 17,2 C 16,7 C 16,7 C 65 % 0 lf 0 lf 5 cb 3 cb 10 cb 1014,8 hPa 0,0 mm 14,2 km/h (3 Bft) O-NO 290 0 min 0,000 mm 0,0 UV-I 0 W/m 8,4 C 11,3 C 27,4 km/h (4 Bft)
21/09/2018 20:18 14,9 C 14,4 C 17,2 C 16,7 C 16,7 C 65 % 0 lf 0 lf 5 cb 3 cb 10 cb 1014,8 hPa 0,0 mm 12,0 km/h (2 Bft) O-SO 253 0 min 0,000 mm 0,0 UV-I 0 W/m 8,4 C 12,2 C 25,7 km/h (4 Bft)
21/09/2018 20:16 14,9 C 14,4 C 17,2 C 16,7 C 16,7 C 65 % 0 lf 0 lf 5 cb 3 cb 10 cb 1014,8 hPa 0,0 mm 12,3 km/h (3 Bft) O 271 0 min 0,000 mm 0,0 UV-I 0 W/m 8,4 C 12,0 C 22,5 km/h (4 Bft)
21/09/2018 20:14 14,9 C 14,4 C 17,2 C 16,7 C 16,7 C 64 % 0 lf 0 lf 5 cb 3 cb 10 cb 1014,7 hPa 0,0 mm 13,5 km/h (3 Bft) O 270 0 min 0,000 mm 0,0 UV-I 0 W/m 8,2 C 11,6 C 24,1 km/h (4 Bft)
21/09/2018 20:12 15,0 C 14,4 C 17,2 C 16,7 C 16,7 C 64 % 0 lf 0 lf 5 cb 3 cb 10 cb 1014,7 hPa 0,0 mm 12,9 km/h (3 Bft) O-NO 302 0 min 0,000 mm 0,0 UV-I 0 W/m 8,2 C 11,9 C 20,9 km/h (4 Bft)
21/09/2018 20:10 14,9 C 14,4 C 17,2 C 16,7 C 16,7 C 64 % 0 lf 0 lf 5 cb 3 cb 10 cb 1014,6 hPa 0,0 mm 18,3 km/h (3 Bft) SO 234 0 min 0,000 mm 0,0 UV-I 0 W/m 8,2 C 10,1 C 29,0 km/h (5 Bft)
21/09/2018 20:08 14,9 C 14,4 C 17,2 C 16,7 C 16,7 C 65 % 0 lf 0 lf 5 cb 3 cb 10 cb 1014,5 hPa 0,0 mm 13,9 km/h (3 Bft) O-NO 293 0 min 0,000 mm 0,0 UV-I 0 W/m 8,4 C 11,4 C 35,4 km/h (5 Bft)
21/09/2018 20:06 15,0 C 14,4 C 17,2 C 16,7 C 16,7 C 65 % 0 lf 0 lf 5 cb 3 cb 10 cb 1014,6 hPa 0,0 mm 13,6 km/h (3 Bft) O 276 0 min 0,000 mm 0,0 UV-I 0 W/m 8,5 C 11,7 C 25,7 km/h (4 Bft)
21/09/2018 20:04 15,0 C 14,4 C 17,2 C 16,7 C 16,7 C 65 % 0 lf 0 lf 5 cb 3 cb 10 cb 1014,5 hPa 0,0 mm 14,2 km/h (3 Bft) O 262 0 min 0,000 mm 0,0 UV-I 0 W/m 8,5 C 11,5 C 24,1 km/h (4 Bft)
21/09/2018 20:02 15,1 C 14,4 C 17,2 C 16,7 C 16,7 C 64 % 0 lf 0 lf 5 cb 3 cb 10 cb 1014,4 hPa 0,0 mm 13,2 km/h (3 Bft) O 277 0 min 0,000 mm 0,0 UV-I 0 W/m 8,3 C 11,9 C 24,1 km/h (4 Bft)
21/09/2018 20:00 15,1 C 14,4 C 17,2 C 16,7 C 16,7 C 64 % 0 lf 0 lf 5 cb 3 cb 10 cb 1014,4 hPa 0,0 mm 15,0 km/h (3 Bft) O 277 0 min 0,076 mm 0,0 UV-I 0 W/m 8,3 C 11,3 C 24,1 km/h (4 Bft)
21/09/2018 19:58 15,1 C 14,4 C 17,2 C 16,7 C 16,7 C 64 % 0 lf 0 lf 5 cb 3 cb 10 cb 1014,4 hPa 0,0 mm 13,8 km/h (3 Bft) O-NO 282 0 min 0,000 mm 0,0 UV-I 0 W/m 8,3 C 11,7 C 30,6 km/h (5 Bft)
21/09/2018 19:56 15,1 C 14,4 C 17,2 C 16,7 C 16,7 C 64 % 0 lf 0 lf 5 cb 3 cb 10 cb 1014,3 hPa 0,0 mm 10,8 km/h (2 Bft) O 267 0 min 0,000 mm 0,0 UV-I 0 W/m 8,3 C 12,9 C 27,4 km/h (4 Bft)
21/09/2018 19:54 15,1 C 14,4 C 17,2 C 16,7 C 16,7 C 64 % 0 lf 0 lf 5 cb 3 cb 10 cb 1014,2 hPa 0,0 mm 10,9 km/h (2 Bft) O 267 0 min 0,000 mm 0,0 UV-I 0 W/m 8,3 C 12,8 C 25,7 km/h (4 Bft)
21/09/2018 19:52 15,1 C 14,4 C 17,2 C 16,7 C 16,7 C 64 % 0 lf 0 lf 5 cb 3 cb 10 cb 1014,2 hPa 0,0 mm 9,7 km/h (2 Bft) O 273 0 min 0,000 mm 0,0 UV-I 0 W/m 8,3 C 13,4 C 14,5 km/h (3 Bft)
21/09/2018 19:50 15,2 C 14,4 C 17,2 C 16,7 C 16,7 C 63 % 0 lf 0 lf 5 cb 3 cb 10 cb 1014,2 hPa 0,0 mm 15,1 km/h (3 Bft) O 280 0 min 0,000 mm 0,0 UV-I 0 W/m 8,2 C 11,4 C 27,4 km/h (4 Bft)
21/09/2018 19:48 15,2 C 14,4 C 17,2 C 16,7 C 16,7 C 63 % 0 lf 0 lf 5 cb 3 cb 10 cb 1014,2 hPa 0,0 mm 14,6 km/h (3 Bft) NO 313 0 min 0,000 mm 0,0 UV-I 0 W/m 8,2 C 11,6 C 24,1 km/h (4 Bft)
21/09/2018 19:46 15,2 C 14,4 C 17,2 C 16,7 C 16,7 C 62 % 0 lf 0 lf 5 cb 3 cb 10 cb 1014,1 hPa 0,0 mm 15,8 km/h (3 Bft) O 275 0 min 0,000 mm 0,0 UV-I 0 W/m 8,0 C 11,2 C 27,4 km/h (4 Bft)
21/09/2018 19:44 15,1 C 14,4 C 17,2 C 16,7 C 16,7 C 62 % 0 lf 0 lf 5 cb 3 cb 10 cb 1014,0 hPa 0,0 mm 15,3 km/h (3 Bft) O 272 0 min 0,000 mm 0,0 UV-I 5 W/m 7,9 C 11,2 C 30,6 km/h (5 Bft)
21/09/2018 19:42 15,2 C 14,4 C 17,2 C 16,7 C 16,7 C 62 % 0 lf 0 lf 5 cb 3 cb 10 cb 1014,1 hPa 0,0 mm 15,2 km/h (3 Bft) O 266 0 min 0,000 mm 0,0 UV-I 5 W/m 8,0 C 11,4 C 30,6 km/h (5 Bft)
21/09/2018 19:40 15,2 C 14,4 C 17,2 C 16,7 C 16,7 C 61 % 0 lf 0 lf 5 cb 3 cb 10 cb 1014,0 hPa 0,0 mm 7,8 km/h (2 Bft) O 271 0 min 0,000 mm 0,0 UV-I 7 W/m 7,7 C 14,4 C 16,1 km/h (3 Bft)
21/09/2018 19:38 15,3 C 14,4 C 17,2 C 16,7 C 16,7 C 61 % 0 lf 0 lf 5 cb 3 cb 10 cb 1014,0 hPa 0,0 mm 12,7 km/h (3 Bft) O 275 0 min 0,000 mm 0,0 UV-I 7 W/m 7,8 C 12,4 C 24,1 km/h (4 Bft)
21/09/2018 19:36 15,3 C 14,4 C 17,2 C 16,7 C 16,7 C 61 % 0 lf 0 lf 5 cb 3 cb 10 cb 1013,9 hPa 0,0 mm 7,3 km/h (2 Bft) O-NO 283 0 min 0,000 mm 0,0 UV-I 9 W/m 7,8 C 14,8 C 14,5 km/h (3 Bft)
21/09/2018 19:34 15,4 C 15,0 C 17,2 C 16,7 C 16,7 C 60 % 0 lf 0 lf 5 cb 3 cb 10 cb 1013,9 hPa 0,0 mm 14,2 km/h (3 Bft) N-NO 348 0 min 0,000 mm 0,0 UV-I 9 W/m 7,7 C 11,9 C 29,0 km/h (5 Bft)
21/09/2018 19:32 15,4 C 15,0 C 17,2 C 16,7 C 16,7 C 60 % 0 lf 0 lf 5 cb 3 cb 10 cb 1013,7 hPa 0,0 mm 14,3 km/h (3 Bft) O 272 0 min 0,000 mm 0,0 UV-I 11 W/m 7,7 C 11,9 C 27,4 km/h (4 Bft)
21/09/2018 19:30 15,4 C 15,0 C 17,2 C 16,7 C 16,7 C 60 % 0 lf 0 lf 5 cb 3 cb 10 cb 1013,7 hPa 0,0 mm 14,6 km/h (3 Bft) O-NO 284 0 min 0,000 mm 0,0 UV-I 12 W/m 7,7 C 11,8 C 24,1 km/h (4 Bft)
21/09/2018 19:28 15,5 C 15,0 C 17,2 C 16,7 C 16,7 C 60 % 0 lf 0 lf 5 cb 3 cb 10 cb 1013,7 hPa 0,0 mm 13,7 km/h (3 Bft) O 269 0 min 0,000 mm 0,0 UV-I 18 W/m 7,8 C 12,2 C 24,1 km/h (4 Bft)
21/09/2018 19:26 15,5 C 15,0 C 17,2 C 16,7 C 16,7 C 60 % 0 lf 0 lf 5 cb 3 cb 10 cb 1013,7 hPa 0,0 mm 18,9 km/h (3 Bft) O 279 0 min 0,000 mm 0,0 UV-I 18 W/m 7,8 C 10,7 C 29,0 km/h (5 Bft)
21/09/2018 19:24 15,6 C 15,0 C 17,2 C 16,7 C 16,7 C 60 % 0 lf 0 lf 5 cb 3 cb 10 cb 1013,6 hPa 0,0 mm 14,6 km/h (3 Bft) O-NO 289 0 min 0,000 mm 0,0 UV-I 21 W/m 7,9 C 12,0 C 27,4 km/h (4 Bft)
21/09/2018 19:22 15,6 C 15,0 C 17,2 C 16,7 C 16,7 C 60 % 0 lf 0 lf 5 cb 3 cb 10 cb 1013,6 hPa 0,0 mm 16,4 km/h (3 Bft) O 278 0 min 0,000 mm 0,0 UV-I 21 W/m 7,9 C 11,5 C 33,8 km/h (5 Bft)
21/09/2018 19:20 15,6 C 15,0 C 17,2 C 16,7 C 16,7 C 60 % 0 lf 0 lf 5 cb 3 cb 10 cb 1013,7 hPa 0,0 mm 18,3 km/h (3 Bft) O 270 0 min 0,000 mm 0,0 UV-I 21 W/m 7,9 C 11,0 C 27,4 km/h (4 Bft)
21/09/2018 19:18 15,6 C 15,0 C 17,2 C 16,7 C 16,7 C 60 % 0 lf 0 lf 5 cb 3 cb 10 cb 1013,7 hPa 0,0 mm 17,9 km/h (3 Bft) O 265 0 min 0,000 mm 0,0 UV-I 25 W/m 7,9 C 11,1 C 29,0 km/h (5 Bft)
21/09/2018 19:16 15,6 C 15,0 C 17,2 C 16,7 C 16,7 C 60 % 0 lf 0 lf 5 cb 3 cb 10 cb 1013,7 hPa 0,0 mm 24,3 km/h (4 Bft) O 268 0 min 0,000 mm 0,0 UV-I 30 W/m 7,9 C 9,6 C 41,8 km/h (6 Bft)
21/09/2018 19:14 15,6 C 15,0 C 17,2 C 16,7 C 16,7 C 60 % 0 lf 0 lf 5 cb 3 cb 10 cb 1013,6 hPa 0,0 mm 16,6 km/h (3 Bft) O-NO 285 0 min 0,000 mm 0,0 UV-I 30 W/m 7,9 C 11,4 C 30,6 km/h (5 Bft)
21/09/2018 19:12 15,6 C 15,0 C 17,2 C 16,7 C 16,7 C 60 % 0 lf 0 lf 5 cb 3 cb 10 cb 1013,6 hPa 0,0 mm 19,2 km/h (3 Bft) O-NO 286 0 min 0,000 mm 0,0 UV-I 28 W/m 7,9 C 10,7 C 29,0 km/h (5 Bft)
21/09/2018 19:10 15,6 C 15,0 C 17,2 C 16,7 C 16,7 C 59 % 0 lf 0 lf 5 cb 3 cb 10 cb 1013,7 hPa 0,0 mm 20,4 km/h (4 Bft) O 269 0 min 0,000 mm 0,0 UV-I 30 W/m 7,6 C 10,4 C 30,6 km/h (5 Bft)
21/09/2018 19:08 15,7 C 15,0 C 17,2 C 16,7 C 16,7 C 59 % 0 lf 0 lf 5 cb 3 cb 10 cb 1013,6 hPa 0,0 mm 13,3 km/h (3 Bft) O 267 0 min 0,000 mm 0,0 UV-I 30 W/m 7,7 C 12,6 C 24,1 km/h (4 Bft)
21/09/2018 19:06 15,7 C 15,0 C 17,2 C 16,7 C 16,7 C 59 % 0 lf 0 lf 5 cb 3 cb 10 cb 1013,7 hPa 0,0 mm 15,8 km/h (3 Bft) O 281 0 min 0,000 mm 0,0 UV-I 30 W/m 7,7 C 11,8 C 29,0 km/h (5 Bft)
21/09/2018 19:04 15,7 C 15,6 C 17,2 C 16,7 C 16,7 C 59 % 0 lf 0 lf 5 cb 3 cb 10 cb 1013,6 hPa 0,0 mm 11,6 km/h (2 Bft) O-NO 295 0 min 0,000 mm 0,0 UV-I 40 W/m 7,7 C 13,2 C 24,1 km/h (4 Bft)
21/09/2018 19:02 15,8 C 15,6 C 17,2 C 16,7 C 16,7 C 58 % 0 lf 0 lf 5 cb 3 cb 10 cb 1013,6 hPa 0,0 mm 16,1 km/h (3 Bft) O 270 0 min 0,000 mm 0,0 UV-I 47 W/m 7,6 C 11,8 C 24,1 km/h (4 Bft)
21/09/2018 19:00 15,8 C 15,6 C 17,2 C 16,7 C 16,7 C 58 % 0 lf 0 lf 5 cb 3 cb 10 cb 1013,6 hPa 0,0 mm 15,2 km/h (3 Bft) O 275 0 min 0,152 mm 0,0 UV-I 54 W/m 7,6 C 12,1 C 25,7 km/h (4 Bft)
21/09/2018 18:58 15,8 C 15,6 C 17,2 C 16,7 C 16,7 C 58 % 0 lf 0 lf 5 cb 3 cb 10 cb 1013,6 hPa 0,0 mm 11,5 km/h (2 Bft) O 273 0 min 0,000 mm 0,0 UV-I 53 W/m 7,6 C 13,4 C 20,9 km/h (4 Bft)
21/09/2018 18:56 15,8 C 15,6 C 17,2 C 16,7 C 16,7 C 58 % 0 lf 0 lf 5 cb 3 cb 10 cb 1013,6 hPa 0,0 mm 12,7 km/h (3 Bft) NO 309 0 min 0,000 mm 0,0 UV-I 58 W/m 7,6 C 12,9 C 19,3 km/h (3 Bft)
21/09/2018 18:54 15,8 C 15,6 C 17,2 C 16,7 C 16,7 C 58 % 0 lf 0 lf 5 cb 3 cb 10 cb 1013,6 hPa 0,0 mm 11,7 km/h (2 Bft) O 267 2 min 0,000 mm 0,0 UV-I 76 W/m 7,6 C 13,3 C 22,5 km/h (4 Bft)
21/09/2018 18:52 15,8 C 15,6 C 17,2 C 16,7 C 16,7 C 57 % 0 lf 0 lf 5 cb 3 cb 10 cb 1013,6 hPa 0,0 mm 13,8 km/h (3 Bft) O-NO 287 0 min 0,000 mm 0,0 UV-I 76 W/m 7,3 C 12,6 C 29,0 km/h (5 Bft)
21/09/2018 18:50 15,8 C 15,6 C 17,2 C 16,7 C 16,7 C 57 % 0 lf 0 lf 5 cb 3 cb 10 cb 1013,5 hPa 0,0 mm 16,2 km/h (3 Bft) O 261 0 min 0,000 mm 0,0 UV-I 69 W/m 7,3 C 11,8 C 32,2 km/h (5 Bft)
21/09/2018 18:48 15,8 C 15,6 C 17,2 C 16,7 C 16,7 C 57 % 0 lf 0 lf 5 cb 3 cb 10 cb 1013,5 hPa 0,0 mm 14,8 km/h (3 Bft) O 261 0 min 0,000 mm 0,0 UV-I 47 W/m 7,3 C 12,2 C 29,0 km/h (5 Bft)
21/09/2018 18:46 15,9 C 15,6 C 17,2 C 16,7 C 16,7 C 56 % 0 lf 0 lf 5 cb 3 cb 10 cb 1013,4 hPa 0,0 mm 18,5 km/h (3 Bft) NO 322 0 min 0,000 mm 0,0 UV-I 54 W/m 7,1 C 11,3 C 29,0 km/h (5 Bft)
21/09/2018 18:44 16,1 C 15,6 C 17,2 C 16,7 C 16,7 C 56 % 0 lf 0 lf 5 cb 3 cb 10 cb 1013,4 hPa 0,0 mm 16,4 km/h (3 Bft) O-SO 258 0 min 0,000 mm 0,0 UV-I 35 W/m 7,3 C 12,1 C 30,6 km/h (5 Bft)
21/09/2018 18:42 16,1 C 15,6 C 17,2 C 16,7 C 16,7 C 55 % 0 lf 0 lf 5 cb 3 cb 10 cb 1013,4 hPa 0,0 mm 20,1 km/h (4 Bft) O 273 0 min 0,000 mm 0,0 UV-I 47 W/m 7,1 C 11,1 C 35,4 km/h (5 Bft)
21/09/2018 18:40 16,1 C 15,6 C 17,2 C 16,7 C 16,7 C 55 % 0 lf 0 lf 5 cb 3 cb 10 cb 1013,3 hPa 0,0 mm 18,4 km/h (3 Bft) O-NO 282 2 min 0,000 mm 0,0 UV-I 135 W/m 7,1 C 11,6 C 41,8 km/h (6 Bft)
21/09/2018 18:38 16,2 C 15,6 C 17,2 C 16,7 C 16,7 C 55 % 0 lf 0 lf 5 cb 3 cb 10 cb 1013,4 hPa 0,0 mm 22,7 km/h (4 Bft) O 268 2 min 0,000 mm 0,0 UV-I 146 W/m 7,2 C 10,7 C 48,3 km/h (6 Bft)
21/09/2018 18:36 16,2 C 15,6 C 17,2 C 16,7 C 16,7 C 55 % 0 lf 0 lf 5 cb 3 cb 10 cb 1013,4 hPa 0,0 mm 20,2 km/h (4 Bft) O-NO 283 2 min 0,000 mm 0,0 UV-I 151 W/m 7,2 C 11,2 C 38,6 km/h (5 Bft)
21/09/2018 18:34 16,2 C 15,6 C 17,2 C 16,7 C 16,7 C 54 % 0 lf 0 lf 5 cb 3 cb 10 cb 1013,4 hPa 0,0 mm 22,4 km/h (4 Bft) O 273 0 min 0,000 mm 0,0 UV-I 69 W/m 6,9 C 10,8 C 40,2 km/h (6 Bft)
21/09/2018 18:32 16,3 C 16,1 C 17,2 C 16,7 C 16,7 C 54 % 0 lf 0 lf 5 cb 3 cb 10 cb 1013,3 hPa 0,0 mm 21,1 km/h (4 Bft) O 275 0 min 0,000 mm 0,0 UV-I 51 W/m 7,0 C 11,2 C 38,6 km/h (5 Bft)
21/09/2018 18:30 16,3 C 16,1 C 17,2 C 16,7 C 16,7 C 54 % 0 lf 0 lf 5 cb 3 cb 10 cb 1013,3 hPa 0,0 mm 20,7 km/h (4 Bft) O 268 0 min 0,000 mm 0,0 UV-I 49 W/m 7,0 C 11,3 C 37,0 km/h (5 Bft)
21/09/2018 18:28 16,4 C 16,1 C 17,2 C 16,7 C 16,7 C 54 % 0 lf 0 lf 5 cb 3 cb 10 cb 1013,2 hPa 0,0 mm 16,2 km/h (3 Bft) O 279 0 min 0,000 mm 0,0 UV-I 93 W/m 7,1 C 12,5 C 27,4 km/h (4 Bft)
21/09/2018 18:26 16,3 C 16,1 C 17,2 C 16,7 C 16,7 C 55 % 0 lf 0 lf 5 cb 3 cb 10 cb 1013,3 hPa 0,0 mm 16,6 km/h (3 Bft) N-NO 346 2 min 0,000 mm 0,0 UV-I 186 W/m 7,2 C 12,3 C 30,6 km/h (5 Bft)
21/09/2018 18:24 16,3 C 16,1 C 17,2 C 16,7 C 16,7 C 55 % 0 lf 0 lf 5 cb 3 cb 10 cb 1013,3 hPa 0,0 mm 19,3 km/h (3 Bft) O-NO 298 2 min 0,000 mm 0,0 UV-I 183 W/m 7,2 C 11,6 C 35,4 km/h (5 Bft)
21/09/2018 18:22 16,2 C 16,1 C 17,2 C 16,7 C 16,7 C 55 % 0 lf 0 lf 5 cb 3 cb 10 cb 1013,3 hPa 0,0 mm 15,4 km/h (3 Bft) NO 317 2 min 0,000 mm 0,0 UV-I 216 W/m 7,2 C 12,5 C 25,7 km/h (4 Bft)
21/09/2018 18:20 16,2 C 16,1 C 17,2 C 16,7 C 16,7 C 55 % 0 lf 0 lf 5 cb 3 cb 10 cb 1013,2 hPa 0,0 mm 16,0 km/h (3 Bft) O-NO 297 0 min 0,000 mm 0,0 UV-I 69 W/m 7,2 C 12,3 C 27,4 km/h (4 Bft)
21/09/2018 18:18 16,3 C 16,1 C 17,2 C 16,7 C 16,7 C 55 % 0 lf 0 lf 5 cb 3 cb 10 cb 1013,3 hPa 0,0 mm 15,6 km/h (3 Bft) O 263 0 min 0,000 mm 0,0 UV-I 69 W/m 7,2 C 12,6 C 29,0 km/h (5 Bft)
21/09/2018 18:16 16,4 C 16,1 C 17,2 C 16,7 C 16,7 C 54 % 0 lf 0 lf 5 cb 3 cb 10 cb 1013,2 hPa 0,0 mm 14,9 km/h (3 Bft) O 278 0 min 0,000 mm 0,0 UV-I 47 W/m 7,1 C 12,9 C 25,7 km/h (4 Bft)
21/09/2018 18:14 16,4 C 16,7 C 17,2 C 16,7 C 16,7 C 54 % 0 lf 0 lf 5 cb 3 cb 10 cb 1013,1 hPa 0,0 mm 22,2 km/h (4 Bft) O-SO 244 0 min 0,000 mm 0,0 UV-I 51 W/m 7,1 C 11,1 C 35,4 km/h (5 Bft)
21/09/2018 18:12 16,4 C 16,7 C 17,2 C 16,7 C 16,7 C 53 % 0 lf 0 lf 5 cb 3 cb 10 cb 1013,1 hPa 0,0 mm 19,7 km/h (3 Bft) O 263 2 min 0,000 mm 0,0 UV-I 204 W/m 6,8 C 11,6 C 35,4 km/h (5 Bft)
21/09/2018 18:10 16,5 C 16,7 C 17,2 C 16,7 C 16,7 C 53 % 0 lf 0 lf 5 cb 3 cb 10 cb 1013,1 hPa 0,0 mm 24,4 km/h (4 Bft) SO 236 2 min 0,000 mm 0,0 UV-I 223 W/m 6,9 C 10,8 C 43,5 km/h (6 Bft)
21/09/2018 18:08 16,6 C 17,2 C 17,2 C 16,7 C 16,7 C 54 % 0 lf 0 lf 5 cb 3 cb 10 cb 1013,0 hPa 0,0 mm 20,3 km/h (4 Bft) O 281 0 min 0,000 mm 0,0 UV-I 139 W/m 7,3 C 11,7 C 43,5 km/h (6 Bft)
21/09/2018 18:06 16,6 C 17,2 C 17,2 C 16,7 C 16,7 C 53 % 0 lf 0 lf 5 cb 3 cb 10 cb 1013,2 hPa 0,0 mm 18,1 km/h (3 Bft) N-NO 340 0 min 0,000 mm 0,0 UV-I 91 W/m 7,0 C 12,3 C 29,0 km/h (5 Bft)
21/09/2018 18:04 16,6 C 17,2 C 17,2 C 16,7 C 16,7 C 53 % 0 lf 0 lf 5 cb 3 cb 10 cb 1013,1 hPa 0,0 mm 17,2 km/h (3 Bft) O-NO 297 0 min 0,000 mm 0,0 UV-I 83 W/m 7,0 C 12,5 C 33,8 km/h (5 Bft)
21/09/2018 18:02 16,6 C 16,7 C 17,2 C 16,7 C 16,7 C 53 % 0 lf 0 lf 5 cb 3 cb 10 cb 1013,1 hPa 0,0 mm 17,0 km/h (3 Bft) O 267 0 min 0,000 mm 0,0 UV-I 72 W/m 7,0 C 12,6 C 27,4 km/h (4 Bft)
21/09/2018 18:00 16,6 C 16,7 C 17,2 C 16,7 C 16,7 C 53 % 0 lf 0 lf 5 cb 3 cb 10 cb 1013,1 hPa 0,0 mm 19,4 km/h (3 Bft) O 267 0 min 0,229 mm 0,0 UV-I 81 W/m 7,0 C 12,0 C 38,6 km/h (5 Bft)
21/09/2018 17:58 16,7 C 16,7 C 17,2 C 16,7 C 16,7 C 52 % 0 lf 0 lf 5 cb 3 cb 10 cb 1013,0 hPa 0,0 mm 19,5 km/h (3 Bft) O 270 0 min 0,000 mm 0,0 UV-I 63 W/m 6,8 C 12,1 C 40,2 km/h (6 Bft)
21/09/2018 17:56 16,8 C 17,2 C 17,2 C 16,7 C 16,7 C 52 % 0 lf 0 lf 5 cb 3 cb 10 cb 1012,9 hPa 0,0 mm 22,9 km/h (4 Bft) O 279 2 min 0,000 mm 0,0 UV-I 165 W/m 6,9 C 11,4 C 33,8 km/h (5 Bft)
21/09/2018 17:54 16,8 C 17,2 C 17,2 C 16,7 C 16,7 C 53 % 0 lf 0 lf 5 cb 3 cb 10 cb 1012,9 hPa 0,0 mm 17,1 km/h (3 Bft) O 277 2 min 0,000 mm 0,0 UV-I 272 W/m 7,2 C 12,8 C 25,7 km/h (4 Bft)
21/09/2018 17:52 16,8 C 17,2 C 17,2 C 16,7 C 16,7 C 52 % 0 lf 0 lf 5 cb 3 cb 10 cb 1012,9 hPa 0,0 mm 15,5 km/h (3 Bft) O-NO 283 2 min 0,000 mm 0,0 UV-I 283 W/m 6,9 C 13,2 C 25,7 km/h (4 Bft)
21/09/2018 17:50 16,8 C 17,2 C 17,2 C 16,7 C 16,7 C 53 % 0 lf 0 lf 5 cb 3 cb 10 cb 1012,9 hPa 0,0 mm 20,3 km/h (4 Bft) NO 308 2 min 0,000 mm 0,0 UV-I 281 W/m 7,2 C 12,0 C 40,2 km/h (6 Bft)
21/09/2018 17:48 16,7 C 16,7 C 17,2 C 16,7 C 16,7 C 53 % 0 lf 0 lf 5 cb 3 cb 10 cb 1012,9 hPa 0,0 mm 19,2 km/h (3 Bft) O 259 2 min 0,000 mm 0,0 UV-I 178 W/m 7,1 C 12,1 C 43,5 km/h (6 Bft)
21/09/2018 17:46 16,8 C 16,7 C 17,2 C 16,7 C 16,7 C 52 % 0 lf 0 lf 5 cb 3 cb 10 cb 1012,9 hPa 0,0 mm 20,5 km/h (4 Bft) O-NO 288 2 min 0,000 mm 0,0 UV-I 243 W/m 6,9 C 12,0 C 33,8 km/h (5 Bft)
21/09/2018 17:44 16,9 C 16,7 C 17,2 C 16,7 C 16,7 C 52 % 0 lf 0 lf 5 cb 3 cb 10 cb 1012,9 hPa 0,0 mm 18,3 km/h (3 Bft) O 267 0 min 0,000 mm 0,0 UV-I 135 W/m 7,0 C 12,6 C 37,0 km/h (5 Bft)
21/09/2018 17:42 16,8 C 16,7 C 17,2 C 16,7 C 16,7 C 51 % 0 lf 0 lf 5 cb 3 cb 10 cb 1012,9 hPa 0,0 mm 20,8 km/h (4 Bft) NO 304 0 min 0,000 mm 0,5 UV-I 165 W/m 6,6 C 11,9 C 41,8 km/h (6 Bft)
21/09/2018 17:40 16,8 C 16,7 C 17,2 C 16,7 C 16,7 C 51 % 0 lf 0 lf 5 cb 3 cb 10 cb 1013,0 hPa 0,0 mm 28,6 km/h (4 Bft) O 279 0 min 0,000 mm 0,0 UV-I 169 W/m 6,6 C 10,4 C 45,1 km/h (6 Bft)
21/09/2018 17:38 16,7 C 16,7 C 17,2 C 16,7 C 16,7 C 52 % 0 lf 0 lf 5 cb 3 cb 10 cb 1012,9 hPa 0,0 mm 21,9 km/h (4 Bft) O 269 2 min 0,000 mm 0,5 UV-I 366 W/m 6,8 C 11,5 C 40,2 km/h (6 Bft)
21/09/2018 17:36 16,6 C 16,7 C 17,2 C 16,7 C 16,7 C 52 % 0 lf 0 lf 5 cb 3 cb 10 cb 1012,8 hPa 0,0 mm 20,0 km/h (4 Bft) O-SO 256 0 min 0,000 mm 0,0 UV-I 181 W/m 6,7 C 11,8 C 35,4 km/h (5 Bft)
21/09/2018 17:34 16,6 C 16,7 C 17,2 C 16,7 C 16,7 C 53 % 0 lf 0 lf 5 cb 3 cb 10 cb 1012,8 hPa 0,0 mm 17,7 km/h (3 Bft) NO 315 0 min 0,000 mm 0,0 UV-I 181 W/m 7,0 C 12,4 C 35,4 km/h (5 Bft)
21/09/2018 17:32 16,6 C 16,7 C 17,2 C 16,7 C 16,7 C 53 % 0 lf 0 lf 5 cb 3 cb 10 cb 1012,9 hPa 0,0 mm 15,7 km/h (3 Bft) O 273 0 min 0,000 mm 0,0 UV-I 155 W/m 7,0 C 12,9 C 27,4 km/h (4 Bft)
21/09/2018 17:30 16,6 C 16,7 C 17,2 C 16,7 C 16,7 C 54 % 0 lf 0 lf 5 cb 3 cb 10 cb 1012,9 hPa 0,0 mm 15,6 km/h (3 Bft) NO 304 0 min 0,000 mm 0,0 UV-I 158 W/m 7,3 C 13,0 C 27,4 km/h (4 Bft)
21/09/2018 17:28 16,7 C 16,7 C 17,2 C 16,7 C 16,7 C 53 % 0 lf 0 lf 5 cb 3 cb 10 cb 1012,8 hPa 0,0 mm 18,6 km/h (3 Bft) O-SO 241 0 min 0,000 mm 0,0 UV-I 118 W/m 7,1 C 12,3 C 33,8 km/h (5 Bft)
21/09/2018 17:26 16,7 C 16,7 C 17,2 C 16,7 C 16,7 C 54 % 0 lf 0 lf 5 cb 3 cb 10 cb 1012,7 hPa 0,0 mm 10,3 km/h (2 Bft) O-NO 302 0 min 0,000 mm 0,0 UV-I 137 W/m 7,3 C 14,9 C 20,9 km/h (4 Bft)
21/09/2018 17:24 16,7 C 16,7 C 17,2 C 16,7 C 16,7 C 54 % 0 lf 0 lf 5 cb 3 cb 10 cb 1012,8 hPa 0,0 mm 12,7 km/h (3 Bft) NO 304 0 min 0,000 mm 0,0 UV-I 121 W/m 7,3 C 14,0 C 25,7 km/h (4 Bft)
21/09/2018 17:22 16,6 C 16,7 C 17,2 C 16,7 C 16,7 C 53 % 0 lf 0 lf 5 cb 3 cb 10 cb 1012,7 hPa 0,0 mm 17,1 km/h (3 Bft) O-SO 256 0 min 0,000 mm 0,6 UV-I 121 W/m 7,0 C 12,5 C 30,6 km/h (5 Bft)
21/09/2018 17:20 16,5 C 16,7 C 17,2 C 16,7 C 16,7 C 53 % 0 lf 0 lf 5 cb 3 cb 10 cb 1012,8 hPa 0,0 mm 13,3 km/h (3 Bft) NO 308 0 min 0,000 mm 0,5 UV-I 121 W/m 6,9 C 13,5 C 29,0 km/h (5 Bft)
21/09/2018 17:18 16,6 C 16,7 C 17,2 C 16,7 C 16,7 C 52 % 0 lf 0 lf 5 cb 3 cb 10 cb 1012,7 hPa 0,0 mm 17,3 km/h (3 Bft) SO 230 0 min 0,000 mm 0,5 UV-I 104 W/m 6,7 C 12,5 C 35,4 km/h (5 Bft)
21/09/2018 17:16 16,7 C 16,7 C 17,2 C 16,7 C 16,7 C 51 % 0 lf 0 lf 5 cb 3 cb 10 cb 1012,7 hPa 0,0 mm 19,1 km/h (3 Bft) O 278 0 min 0,000 mm 0,5 UV-I 121 W/m 6,5 C 12,2 C 37,0 km/h (5 Bft)
21/09/2018 17:14 16,8 C 16,7 C 17,2 C 16,7 C 16,7 C 51 % 0 lf 0 lf 5 cb 3 cb 10 cb 1012,7 hPa 0,0 mm 23,8 km/h (4 Bft) O-NO 283 0 min 0,000 mm 0,5 UV-I 97 W/m 6,6 C 11,3 C 41,8 km/h (6 Bft)
21/09/2018 17:12 16,9 C 16,7 C 17,2 C 16,7 C 16,7 C 52 % 0 lf 0 lf 5 cb 3 cb 10 cb 1012,8 hPa 0,0 mm 14,8 km/h (3 Bft) O-NO 294 0 min 0,000 mm 0,5 UV-I 76 W/m 7,0 C 13,6 C 29,0 km/h (5 Bft)
21/09/2018 17:10 16,9 C 17,2 C 17,2 C 16,7 C 16,7 C 51 % 0 lf 0 lf 5 cb 3 cb 10 cb 1012,7 hPa 0,0 mm 16,4 km/h (3 Bft) O-SO 258 0 min 0,000 mm 0,6 UV-I 114 W/m 6,7 C 13,1 C 29,0 km/h (5 Bft)
21/09/2018 17:08 16,9 C 16,7 C 17,2 C 16,7 C 16,7 C 51 % 0 lf 0 lf 5 cb 3 cb 10 cb 1012,6 hPa 0,0 mm 16,1 km/h (3 Bft) O-NO 292 2 min 0,000 mm 0,8 UV-I 469 W/m 6,7 C 13,2 C 38,6 km/h (5 Bft)
21/09/2018 17:06 16,9 C 17,2 C 17,2 C 16,7 C 16,7 C 50 % 0 lf 0 lf 5 cb 3 cb 10 cb 1012,6 hPa 0,0 mm 18,5 km/h (3 Bft) O 274 0 min 0,000 mm 0,6 UV-I 109 W/m 6,4 C 12,6 C 30,6 km/h (5 Bft)
21/09/2018 17:04 17,2 C 17,2 C 17,2 C 16,7 C 16,7 C 50 % 0 lf 0 lf 5 cb 3 cb 10 cb 1012,6 hPa 0,0 mm 18,7 km/h (3 Bft) O-NO 290 0 min 0,000 mm 0,6 UV-I 109 W/m 6,7 C 12,9 C 40,2 km/h (6 Bft)
21/09/2018 17:02 17,3 C 17,8 C 17,2 C 16,7 C 16,7 C 49 % 0 lf 0 lf 5 cb 3 cb 10 cb 1012,6 hPa 0,0 mm 21,4 km/h (4 Bft) N 358 2 min 0,000 mm 0,6 UV-I 512 W/m 6,5 C 12,4 C 37,0 km/h (5 Bft)
21/09/2018 17:00 17,6 C 17,8 C 17,2 C 16,7 C 16,7 C 48 % 0 lf 0 lf 5 cb 3 cb 10 cb 1012,5 hPa 0,0 mm 19,3 km/h (3 Bft) O 281 2 min 0,381 mm 0,6 UV-I 512 W/m 6,5 C 13,3 C 30,6 km/h (5 Bft)
21/09/2018 16:58 17,4 C 17,8 C 17,2 C 16,7 C 16,7 C 49 % 0 lf 0 lf 5 cb 3 cb 10 cb 1012,4 hPa 0,0 mm 17,7 km/h (3 Bft) O 278 2 min 0,000 mm 0,9 UV-I 512 W/m 6,6 C 13,4 C 33,8 km/h (5 Bft)
21/09/2018 16:56 17,4 C 17,8 C 17,2 C 16,7 C 16,7 C 48 % 0 lf 0 lf 5 cb 3 cb 10 cb 1012,5 hPa 0,0 mm 21,2 km/h (4 Bft) NO 306 2 min 0,000 mm 0,6 UV-I 487 W/m 6,3 C 12,6 C 37,0 km/h (5 Bft)
21/09/2018 16:54 17,3 C 17,8 C 17,2 C 16,7 C 16,7 C 49 % 0 lf 0 lf 5 cb 3 cb 10 cb 1012,5 hPa 0,0 mm 25,7 km/h (4 Bft) O-NO 291 2 min 0,000 mm 0,9 UV-I 483 W/m 6,5 C 11,6 C 45,1 km/h (6 Bft)
21/09/2018 16:52 17,3 C 17,2 C 17,2 C 16,7 C 16,7 C 49 % 0 lf 0 lf 5 cb 3 cb 10 cb 1012,3 hPa 0,0 mm 20,9 km/h (4 Bft) O 276 0 min 0,000 mm 1,0 UV-I 220 W/m 6,5 C 12,5 C 38,6 km/h (5 Bft)
21/09/2018 16:50 17,5 C 17,8 C 17,2 C 16,7 C 16,7 C 49 % 0 lf 0 lf 5 cb 3 cb 10 cb 1012,4 hPa 0,0 mm 27,9 km/h (4 Bft) O-NO 301 0 min 0,000 mm 0,7 UV-I 188 W/m 6,7 C 11,5 C 45,1 km/h (6 Bft)
21/09/2018 16:48 17,7 C 17,8 C 17,2 C 16,7 C 16,7 C 50 % 0 lf 0 lf 5 cb 3 cb 10 cb 1012,3 hPa 0,0 mm 16,4 km/h (3 Bft) O 261 2 min 0,000 mm 0,7 UV-I 478 W/m 7,1 C 14,1 C 27,4 km/h (4 Bft)
21/09/2018 16:46 17,7 C 18,3 C 17,2 C 16,7 C 16,7 C 49 % 0 lf 0 lf 5 cb 3 cb 10 cb 1012,3 hPa 0,0 mm 20,9 km/h (4 Bft) O 270 2 min 0,000 mm 1,0 UV-I 478 W/m 6,9 C 13,0 C 37,0 km/h (5 Bft)
21/09/2018 16:44 17,8 C 18,3 C 17,2 C 16,7 C 16,7 C 49 % 0 lf 0 lf 5 cb 3 cb 10 cb 1012,2 hPa 0,0 mm 21,4 km/h (4 Bft) O-NO 290 2 min 0,000 mm 1,0 UV-I 519 W/m 6,9 C 13,1 C 33,8 km/h (5 Bft)
21/09/2018 16:42 17,8 C 18,3 C 17,2 C 16,7 C 16,7 C 49 % 0 lf 0 lf 5 cb 3 cb 10 cb 1012,3 hPa 0,0 mm 21,6 km/h (4 Bft) O-SO 248 2 min 0,000 mm 1,0 UV-I 543 W/m 6,9 C 13,0 C 35,4 km/h (5 Bft)
21/09/2018 16:40 17,8 C 18,3 C 17,2 C 16,7 C 16,7 C 49 % 0 lf 0 lf 5 cb 3 cb 10 cb 1012,2 hPa 0,0 mm 15,8 km/h (3 Bft) O 274 2 min 0,000 mm 1,0 UV-I 554 W/m 6,9 C 14,4 C 25,7 km/h (4 Bft)
21/09/2018 16:38 17,7 C 17,8 C 17,2 C 16,7 C 16,7 C 48 % 0 lf 0 lf 5 cb 3 cb 10 cb 1012,1 hPa 0,0 mm 20,3 km/h (4 Bft) O 270 2 min 0,000 mm 1,1 UV-I 503 W/m 6,6 C 13,2 C 35,4 km/h (5 Bft)
21/09/2018 16:36 17,8 C 17,8 C 17,2 C 16,7 C 16,7 C 48 % 0 lf 0 lf 5 cb 3 cb 10 cb 1012,2 hPa 0,0 mm 19,3 km/h (3 Bft) O 269 2 min 0,000 mm 1,1 UV-I 492 W/m 6,6 C 13,5 C 41,8 km/h (6 Bft)
21/09/2018 16:34 17,7 C 17,8 C 17,2 C 16,7 C 16,7 C 47 % 0 lf 0 lf 5 cb 3 cb 10 cb 1012,1 hPa 0,0 mm 20,8 km/h (4 Bft) O-SO 255 2 min 0,000 mm 1,1 UV-I 548 W/m 6,2 C 13,1 C 37,0 km/h (5 Bft)
21/09/2018 16:32 17,8 C 17,8 C 17,2 C 16,7 C 16,7 C 48 % 0 lf 0 lf 5 cb 3 cb 10 cb 1012,2 hPa 0,0 mm 23,5 km/h (4 Bft) O 263 2 min 0,000 mm 1,2 UV-I 548 W/m 6,6 C 12,7 C 41,8 km/h (6 Bft)
21/09/2018 16:30 17,8 C 17,8 C 17,2 C 16,7 C 16,7 C 49 % 0 lf 0 lf 5 cb 3 cb 10 cb 1012,2 hPa 0,0 mm 13,7 km/h (3 Bft) O 280 2 min 0,000 mm 1,1 UV-I 512 W/m 6,9 C 15,0 C 20,9 km/h (4 Bft)
21/09/2018 16:28 17,6 C 17,8 C 17,2 C 16,7 C 16,7 C 48 % 0 lf 0 lf 5 cb 3 cb 10 cb 1012,1 hPa 0,0 mm 19,2 km/h (3 Bft) O-NO 283 2 min 0,000 mm 1,2 UV-I 489 W/m 6,5 C 13,3 C 35,4 km/h (5 Bft)
21/09/2018 16:26 17,4 C 17,8 C 17,2 C 16,7 C 16,7 C 50 % 0 lf 0 lf 5 cb 3 cb 10 cb 1012,2 hPa 0,0 mm 16,0 km/h (3 Bft) O-NO 293 2 min 0,000 mm 1,2 UV-I 524 W/m 6,9 C 13,8 C 33,8 km/h (5 Bft)
21/09/2018 16:24 17,2 C 17,2 C 17,2 C 16,7 C 16,7 C 50 % 0 lf 0 lf 5 cb 3 cb 10 cb 1012,2 hPa 0,0 mm 17,5 km/h (3 Bft) O-NO 294 2 min 0,000 mm 1,2 UV-I 592 W/m 6,7 C 13,2 C 27,4 km/h (4 Bft)
21/09/2018 16:22 17,3 C 17,2 C 17,2 C 16,7 C 16,7 C 49 % 0 lf 0 lf 5 cb 3 cb 10 cb 1012,2 hPa 0,0 mm 26,1 km/h (4 Bft) O 270 2 min 0,000 mm 0,9 UV-I 417 W/m 6,5 C 11,5 C 45,1 km/h (6 Bft)
21/09/2018 16:20 17,4 C 17,8 C 17,2 C 16,7 C 16,7 C 49 % 0 lf 0 lf 5 cb 3 cb 10 cb 1012,0 hPa 0,0 mm 22,1 km/h (4 Bft) O 265 0 min 0,000 mm 0,8 UV-I 100 W/m 6,6 C 12,4 C 30,6 km/h (5 Bft)
21/09/2018 16:18 17,6 C 18,3 C 17,2 C 16,7 C 16,7 C 48 % 0 lf 0 lf 5 cb 3 cb 10 cb 1012,1 hPa 0,0 mm 21,9 km/h (4 Bft) O 275 0 min 0,000 mm 1,1 UV-I 163 W/m 6,5 C 12,7 C 35,4 km/h (5 Bft)
21/09/2018 16:16 17,7 C 18,3 C 17,2 C 16,7 C 16,7 C 48 % 0 lf 0 lf 5 cb 3 cb 10 cb 1012,0 hPa 0,0 mm 22,7 km/h (4 Bft) O-SO 254 2 min 0,000 mm 1,3 UV-I 612 W/m 6,6 C 12,7 C 43,5 km/h (6 Bft)
21/09/2018 16:14 17,6 C 18,3 C 17,2 C 16,7 C 16,7 C 48 % 0 lf 0 lf 5 cb 3 cb 10 cb 1012,1 hPa 0,0 mm 20,3 km/h (4 Bft) O 271 2 min 0,000 mm 1,3 UV-I 599 W/m 6,5 C 13,0 C 30,6 km/h (5 Bft)
21/09/2018 16:12 17,6 C 18,3 C 17,2 C 16,7 C 16,7 C 48 % 0 lf 0 lf 5 cb 3 cb 10 cb 1012,1 hPa 0,0 mm 24,9 km/h (4 Bft) SO 236 2 min 0,000 mm 1,3 UV-I 598 W/m 6,5 C 12,1 C 40,2 km/h (6 Bft)
21/09/2018 16:10 17,8 C 18,9 C 17,2 C 16,7 C 16,7 C 51 % 0 lf 0 lf 5 cb 3 cb 10 cb 1012,3 hPa 0,0 mm 21,0 km/h (4 Bft) O 281 2 min 0,000 mm 1,2 UV-I 636 W/m 7,5 C 13,2 C 35,4 km/h (5 Bft)
21/09/2018 16:08 18,0 C 19,4 C 17,2 C 16,7 C 16,7 C 52 % 0 lf 0 lf 5 cb 3 cb 10 cb 1012,1 hPa 0,0 mm 17,2 km/h (3 Bft) O 280 2 min 0,000 mm 1,4 UV-I 636 W/m 8,0 C 14,3 C 35,4 km/h (5 Bft)
21/09/2018 16:06 17,8 C 18,9 C 17,2 C 16,7 C 16,7 C 54 % 0 lf 0 lf 5 cb 3 cb 10 cb 1012,2 hPa 0,0 mm 13,5 km/h (3 Bft) O-SO 258 2 min 0,000 mm 1,4 UV-I 682 W/m 8,4 C 15,0 C 22,5 km/h (4 Bft)
21/09/2018 16:04 17,4 C 18,9 C 17,2 C 16,7 C 16,7 C 53 % 0 lf 0 lf 5 cb 3 cb 10 cb 1012,1 hPa 0,0 mm 14,2 km/h (3 Bft) O 268 2 min 0,000 mm 1,4 UV-I 693 W/m 7,7 C 14,3 C 24,1 km/h (4 Bft)
21/09/2018 16:02 17,3 C 18,9 C 17,2 C 16,7 C 16,7 C 53 % 0 lf 0 lf 5 cb 3 cb 10 cb 1012,1 hPa 0,0 mm 19,1 km/h (3 Bft) O 279 2 min 0,000 mm 1,1 UV-I 643 W/m 7,6 C 12,9 C 40,2 km/h (6 Bft)
21/09/2018 16:00 17,4 C 18,9 C 17,2 C 16,7 C 16,7 C 51 % 0 lf 0 lf 5 cb 3 cb 10 cb 1012,2 hPa 0,0 mm 20,4 km/h (4 Bft) O 272 0 min 0,330 mm 1,4 UV-I 163 W/m 7,2 C 12,8 C 33,8 km/h (5 Bft)
21/09/2018 15:58 17,7 C 18,9 C 17,2 C 16,7 C 16,7 C 51 % 0 lf 0 lf 5 cb 3 cb 10 cb 1012,2 hPa 0,0 mm 18,8 km/h (3 Bft) O-NO 295 0 min 0,000 mm 1,0 UV-I 163 W/m 7,4 C 13,5 C 35,4 km/h (5 Bft)
21/09/2018 15:56 17,9 C 19,4 C 17,2 C 16,7 C 16,7 C 52 % 0 lf 0 lf 5 cb 3 cb 10 cb 1012,1 hPa 0,0 mm 16,6 km/h (3 Bft) O-SO 258 2 min 0,000 mm 1,5 UV-I 610 W/m 7,9 C 14,3 C 29,0 km/h (5 Bft)
21/09/2018 15:54 17,8 C 19,4 C 17,2 C 16,7 C 16,7 C 52 % 0 lf 0 lf 5 cb 3 cb 10 cb 1012,2 hPa 0,0 mm 15,9 km/h (3 Bft) O 260 2 min 0,000 mm 1,5 UV-I 621 W/m 7,8 C 14,3 C 30,6 km/h (5 Bft)
21/09/2018 15:52 17,8 C 19,4 C 17,2 C 16,7 C 16,7 C 52 % 0 lf 0 lf 5 cb 3 cb 10 cb 1012,1 hPa 0,0 mm 19,5 km/h (3 Bft) O 269 2 min 0,000 mm 1,6 UV-I 679 W/m 7,8 C 13,5 C 38,6 km/h (5 Bft)
21/09/2018 15:50 17,6 C 19,4 C 17,2 C 16,7 C 16,7 C 52 % 0 lf 0 lf 5 cb 3 cb 10 cb 1012,1 hPa 0,0 mm 12,2 km/h (2 Bft) O-NO 290 2 min 0,000 mm 1,6 UV-I 686 W/m 7,6 C 15,2 C 24,1 km/h (4 Bft)
21/09/2018 15:48 17,4 C 18,9 C 17,2 C 16,7 C 16,7 C 51 % 0 lf 0 lf 5 cb 3 cb 10 cb 1012,2 hPa 0,0 mm 13,2 km/h (3 Bft) O 281 2 min 0,000 mm 1,6 UV-I 673 W/m 7,2 C 14,6 C 22,5 km/h (4 Bft)
21/09/2018 15:46 17,4 C 18,9 C 17,2 C 16,7 C 16,7 C 51 % 0 lf 0 lf 5 cb 3 cb 10 cb 1012,1 hPa 0,0 mm 17,6 km/h (3 Bft) O 262 2 min 0,000 mm 1,5 UV-I 640 W/m 7,2 C 13,4 C 30,6 km/h (5 Bft)
21/09/2018 15:44 17,3 C 18,9 C 17,2 C 16,7 C 16,7 C 52 % 0 lf 0 lf 5 cb 3 cb 10 cb 1012,1 hPa 0,0 mm 14,3 km/h (3 Bft) O 267 2 min 0,000 mm 1,5 UV-I 612 W/m 7,3 C 14,2 C 22,5 km/h (4 Bft)
21/09/2018 15:42 17,3 C 18,9 C 17,2 C 16,7 C 16,7 C 52 % 0 lf 0 lf 5 cb 3 cb 10 cb 1012,1 hPa 0,0 mm 22,3 km/h (4 Bft) O 275 2 min 0,000 mm 1,2 UV-I 633 W/m 7,3 C 12,2 C 38,6 km/h (5 Bft)
21/09/2018 15:40 17,3 C 18,9 C 17,2 C 16,7 C 16,7 C 54 % 0 lf 0 lf 5 cb 3 cb 10 cb 1012,1 hPa 0,0 mm 18,5 km/h (3 Bft) O-SO 240 2 min 0,000 mm 1,5 UV-I 622 W/m 7,9 C 13,1 C 30,6 km/h (5 Bft)
21/09/2018 15:38 17,2 C 18,3 C 17,2 C 16,7 C 16,7 C 55 % 0 lf 0 lf 5 cb 3 cb 10 cb 1012,0 hPa 0,0 mm 10,0 km/h (2 Bft) O 269 2 min 0,000 mm 1,6 UV-I 643 W/m 8,1 C 15,5 C 20,9 km/h (4 Bft)
21/09/2018 15:36 16,9 C 18,3 C 17,2 C 16,7 C 16,7 C 53 % 0 lf 0 lf 5 cb 3 cb 10 cb 1012,0 hPa 0,0 mm 15,9 km/h (3 Bft) O 271 2 min 0,000 mm 1,1 UV-I 643 W/m 7,3 C 13,2 C 33,8 km/h (5 Bft)
21/09/2018 15:34 16,8 C 17,8 C 17,2 C 16,7 C 16,7 C 52 % 0 lf 0 lf 5 cb 3 cb 10 cb 1012,0 hPa 0,0 mm 19,3 km/h (3 Bft) O 267 2 min 0,000 mm 1,6 UV-I 643 W/m 6,9 C 12,2 C 35,4 km/h (5 Bft)
21/09/2018 15:32 16,8 C 17,8 C 17,2 C 16,7 C 16,7 C 51 % 0 lf 0 lf 5 cb 3 cb 10 cb 1011,9 hPa 0,0 mm 17,1 km/h (3 Bft) O-NO 298 0 min 0,000 mm 1,0 UV-I 178 W/m 6,6 C 12,8 C 38,6 km/h (5 Bft)
21/09/2018 15:30 16,9 C 17,8 C 17,2 C 16,7 C 16,7 C 50 % 0 lf 0 lf 5 cb 3 cb 10 cb 1011,9 hPa 0,0 mm 13,7 km/h (3 Bft) O-SO 244 0 min 0,000 mm 1,0 UV-I 199 W/m 6,4 C 13,9 C 30,6 km/h (5 Bft)
21/09/2018 15:28 17,1 C 17,8 C 17,2 C 16,7 C 16,7 C 48 % 0 lf 0 lf 5 cb 3 cb 10 cb 1011,8 hPa 0,0 mm 15,7 km/h (3 Bft) O 275 0 min 0,000 mm 0,8 UV-I 214 W/m 6,0 C 13,5 C 33,8 km/h (5 Bft)
21/09/2018 15:26 17,3 C 18,3 C 17,2 C 16,7 C 16,7 C 48 % 0 lf 0 lf 5 cb 3 cb 10 cb 1011,8 hPa 0,0 mm 21,3 km/h (4 Bft) O-SO 252 0 min 0,000 mm 0,9 UV-I 190 W/m 6,2 C 12,4 C 41,8 km/h (6 Bft)
21/09/2018 15:24 17,6 C 18,9 C 17,2 C 16,7 C 16,7 C 48 % 0 lf 0 lf 5 cb 3 cb 10 cb 1011,7 hPa 0,0 mm 18,6 km/h (3 Bft) O 271 0 min 0,000 mm 0,9 UV-I 148 W/m 6,5 C 13,4 C 37,0 km/h (5 Bft)
21/09/2018 15:22 17,5 C 19,4 C 17,2 C 16,7 C 16,7 C 48 % 0 lf 0 lf 5 cb 3 cb 10 cb 1011,8 hPa 0,0 mm 16,6 km/h (3 Bft) O-NO 286 2 min 0,000 mm 1,6 UV-I 657 W/m 6,4 C 13,8 C 27,4 km/h (4 Bft)
21/09/2018 15:20 17,2 C 18,9 C 17,2 C 16,7 C 16,7 C 48 % 0 lf 0 lf 5 cb 3 cb 10 cb 1011,7 hPa 0,0 mm 11,5 km/h (2 Bft) O 272 2 min 0,000 mm 1,6 UV-I 698 W/m 6,1 C 15,0 C 22,5 km/h (4 Bft)
21/09/2018 15:18 17,1 C 18,9 C 17,2 C 16,7 C 16,7 C 46 % 0 lf 0 lf 5 cb 3 cb 10 cb 1011,7 hPa 0,0 mm 19,3 km/h (3 Bft) NO 319 0 min 0,000 mm 1,4 UV-I 241 W/m 5,4 C 12,6 C 30,6 km/h (5 Bft)
21/09/2018 15:16 16,9 C 18,3 C 17,2 C 16,7 C 16,7 C 48 % 0 lf 0 lf 5 cb 3 cb 10 cb 1011,8 hPa 0,0 mm 13,2 km/h (3 Bft) NO 311 0 min 0,000 mm 1,7 UV-I 251 W/m 5,8 C 14,1 C 29,0 km/h (5 Bft)
21/09/2018 15:14 16,8 C 17,8 C 17,2 C 16,7 C 16,7 C 47 % 0 lf 0 lf 5 cb 3 cb 10 cb 1011,8 hPa 0,0 mm 16,2 km/h (3 Bft) O 272 0 min 0,000 mm 1,1 UV-I 251 W/m 5,4 C 13,0 C 27,4 km/h (4 Bft)
21/09/2018 15:12 16,8 C 17,8 C 17,2 C 16,7 C 16,7 C 47 % 0 lf 0 lf 5 cb 3 cb 10 cb 1011,9 hPa 0,0 mm 17,2 km/h (3 Bft) O-NO 287 0 min 0,000 mm 1,2 UV-I 229 W/m 5,4 C 12,8 C 27,4 km/h (4 Bft)
21/09/2018 15:10 16,9 C 18,3 C 17,2 C 16,7 C 16,7 C 47 % 0 lf 0 lf 5 cb 3 cb 10 cb 1011,9 hPa 0,0 mm 18,2 km/h (3 Bft) O-NO 301 0 min 0,000 mm 1,2 UV-I 204 W/m 5,5 C 12,6 C 30,6 km/h (5 Bft)
21/09/2018 15:08 16,9 C 18,3 C 17,2 C 16,7 C 16,7 C 47 % 0 lf 0 lf 5 cb 3 cb 10 cb 1011,6 hPa 0,0 mm 16,3 km/h (3 Bft) O 275 0 min 0,000 mm 1,1 UV-I 165 W/m 5,5 C 13,1 C 30,6 km/h (5 Bft)
21/09/2018 15:06 16,8 C 18,3 C 17,2 C 16,7 C 16,7 C 47 % 0 lf 0 lf 5 cb 3 cb 10 cb 1011,6 hPa 0,0 mm 12,1 km/h (2 Bft) O 259 0 min 0,000 mm 1,2 UV-I 153 W/m 5,4 C 14,3 C 22,5 km/h (4 Bft)
21/09/2018 15:04 16,8 C 18,3 C 17,2 C 16,7 C 16,7 C 46 % 0 lf 0 lf 5 cb 3 cb 10 cb 1011,7 hPa 0,0 mm 19,2 km/h (3 Bft) NO 315 0 min 0,000 mm 1,7 UV-I 127 W/m 5,1 C 12,3 C 38,6 km/h (5 Bft)
21/09/2018 15:02 17,1 C 18,3 C 17,2 C 16,7 C 16,7 C 47 % 0 lf 0 lf 5 cb 3 cb 10 cb 1011,6 hPa 0,0 mm 16,9 km/h (3 Bft) O 279 0 min 0,000 mm 1,0 UV-I 127 W/m 5,7 C 13,2 C 35,4 km/h (5 Bft)
21/09/2018 15:00 17,3 C 18,9 C 17,2 C 16,7 C 16,7 C 46 % 0 lf 0 lf 5 cb 3 cb 10 cb 1011,6 hPa 0,0 mm 15,8 km/h (3 Bft) O 266 0 min 0,406 mm 1,0 UV-I 116 W/m 5,6 C 13,8 C 27,4 km/h (4 Bft)
21/09/2018 14:58 17,6 C 19,4 C 17,2 C 16,7 C 16,7 C 46 % 0 lf 0 lf 5 cb 3 cb 10 cb 1011,6 hPa 0,0 mm 19,0 km/h (3 Bft) O 273 0 min 0,000 mm 1,1 UV-I 234 W/m 5,8 C 13,3 C 33,8 km/h (5 Bft)
21/09/2018 14:56 17,7 C 19,4 C 17,2 C 16,7 C 16,7 C 47 % 0 lf 0 lf 5 cb 3 cb 10 cb 1011,6 hPa 0,0 mm 12,9 km/h (3 Bft) O 270 0 min 0,000 mm 1,3 UV-I 234 W/m 6,2 C 15,1 C 27,4 km/h (4 Bft)
21/09/2018 14:54 17,6 C 19,4 C 17,2 C 16,7 C 16,7 C 47 % 0 lf 0 lf 5 cb 3 cb 10 cb 1011,6 hPa 0,0 mm 14,1 km/h (3 Bft) NO 323 0 min 0,000 mm 2,0 UV-I 234 W/m 6,2 C 14,6 C 29,0 km/h (5 Bft)
21/09/2018 14:52 17,5 C 19,4 C 17,2 C 16,7 C 16,7 C 47 % 0 lf 0 lf 5 cb 3 cb 10 cb 1011,5 hPa 0,0 mm 16,7 km/h (3 Bft) O-NO 283 2 min 0,000 mm 2,0 UV-I 775 W/m 6,1 C 13,8 C 32,2 km/h (5 Bft)
21/09/2018 14:50 17,3 C 18,9 C 17,2 C 16,7 C 16,7 C 47 % 0 lf 0 lf 5 cb 3 cb 10 cb 1011,6 hPa 0,0 mm 18,4 km/h (3 Bft) O 263 0 min 0,000 mm 2,1 UV-I 216 W/m 5,9 C 13,1 C 38,6 km/h (5 Bft)
21/09/2018 14:48 17,3 C 18,9 C 17,2 C 16,7 C 16,7 C 47 % 0 lf 0 lf 5 cb 3 cb 10 cb 1011,4 hPa 0,0 mm 21,9 km/h (4 Bft) O-SO 250 0 min 0,000 mm 2,1 UV-I 216 W/m 5,9 C 12,3 C 38,6 km/h (5 Bft)
21/09/2018 14:46 17,3 C 18,9 C 17,2 C 16,7 C 16,7 C 47 % 0 lf 0 lf 5 cb 3 cb 10 cb 1011,5 hPa 0,0 mm 21,1 km/h (4 Bft) O-NO 300 2 min 0,000 mm 2,2 UV-I 705 W/m 5,9 C 12,5 C 38,6 km/h (5 Bft)
21/09/2018 14:44 17,3 C 18,9 C 17,2 C 16,7 C 16,7 C 46 % 0 lf 0 lf 5 cb 3 cb 10 cb 1011,4 hPa 0,0 mm 26,2 km/h (4 Bft) O-NO 289 2 min 0,000 mm 2,2 UV-I 656 W/m 5,6 C 11,5 C 41,8 km/h (6 Bft)
21/09/2018 14:42 17,4 C 18,9 C 17,2 C 16,7 C 16,7 C 46 % 0 lf 0 lf 5 cb 3 cb 10 cb 1011,7 hPa 0,0 mm 21,3 km/h (4 Bft) O-SO 257 2 min 0,000 mm 2,2 UV-I 642 W/m 5,7 C 12,6 C 33,8 km/h (5 Bft)
21/09/2018 14:40 17,7 C 19,4 C 17,2 C 16,7 C 16,7 C 46 % 0 lf 0 lf 5 cb 3 cb 10 cb 1011,6 hPa 0,0 mm 21,4 km/h (4 Bft) O-NO 291 0 min 0,000 mm 1,6 UV-I 237 W/m 5,9 C 12,9 C 40,2 km/h (6 Bft)
21/09/2018 14:38 17,6 C 19,4 C 17,2 C 16,7 C 16,7 C 47 % 0 lf 0 lf 5 cb 3 cb 10 cb 1011,3 hPa 0,0 mm 11,9 km/h (2 Bft) O-NO 301 2 min 0,000 mm 2,2 UV-I 575 W/m 6,2 C 15,3 C 25,7 km/h (4 Bft)
21/09/2018 14:36 17,4 C 19,4 C 17,2 C 16,7 C 16,7 C 46 % 0 lf 0 lf 5 cb 3 cb 10 cb 1011,5 hPa 0,0 mm 20,9 km/h (4 Bft) O 273 2 min 0,000 mm 2,2 UV-I 541 W/m 5,7 C 12,7 C 33,8 km/h (5 Bft)
21/09/2018 14:34 17,6 C 19,4 C 17,2 C 16,7 C 16,7 C 46 % 0 lf 0 lf 5 cb 3 cb 10 cb 1011,2 hPa 0,0 mm 20,9 km/h (4 Bft) O 259 2 min 0,000 mm 2,2 UV-I 578 W/m 5,8 C 12,9 C 37,0 km/h (5 Bft)
21/09/2018 14:32 17,7 C 20,0 C 17,2 C 16,7 C 16,7 C 48 % 0 lf 0 lf 5 cb 3 cb 10 cb 1011,3 hPa 0,0 mm 23,6 km/h (4 Bft) N-NO 329 2 min 0,000 mm 2,2 UV-I 615 W/m 6,6 C 12,5 C 35,4 km/h (5 Bft)
21/09/2018 14:30 17,7 C 20,0 C 17,2 C 16,7 C 16,7 C 53 % 0 lf 0 lf 5 cb 3 cb 10 cb 1011,1 hPa 0,0 mm 13,7 km/h (3 Bft) N-NO 342 2 min 0,000 mm 2,2 UV-I 647 W/m 8,0 C 14,8 C 24,1 km/h (4 Bft)
21/09/2018 14:28 17,7 C 20,0 C 17,2 C 16,7 C 16,7 C 52 % 0 lf 0 lf 5 cb 3 cb 10 cb 1011,1 hPa 0,0 mm 15,0 km/h (3 Bft) O-NO 303 2 min 0,000 mm 2,2 UV-I 638 W/m 7,7 C 14,5 C 24,1 km/h (4 Bft)
21/09/2018 14:26 17,4 C 19,4 C 17,2 C 16,7 C 16,7 C 53 % 0 lf 0 lf 5 cb 3 cb 10 cb 1011,0 hPa 0,0 mm 10,9 km/h (2 Bft) O 280 2 min 0,000 mm 2,1 UV-I 712 W/m 7,7 C 15,4 C 22,5 km/h (4 Bft)
21/09/2018 14:24 17,2 C 18,9 C 17,2 C 16,7 C 16,7 C 54 % 0 lf 0 lf 5 cb 3 cb 10 cb 1011,0 hPa 0,0 mm 11,7 km/h (2 Bft) O-NO 300 2 min 0,000 mm 2,2 UV-I 712 W/m 7,8 C 14,9 C 20,9 km/h (4 Bft)
21/09/2018 14:22 17,1 C 18,9 C 17,2 C 16,7 C 16,7 C 57 % 0 lf 0 lf 5 cb 3 cb 10 cb 1011,1 hPa 0,0 mm 9,7 km/h (2 Bft) O-NO 303 2 min 0,000 mm 1,4 UV-I 728 W/m 8,5 C 15,6 C 17,7 km/h (3 Bft)
21/09/2018 14:20 16,8 C 18,9 C 17,2 C 16,7 C 16,7 C 57 % 0 lf 0 lf 5 cb 3 cb 10 cb 1011,0 hPa 0,0 mm 12,2 km/h (2 Bft) NO 319 2 min 0,000 mm 2,1 UV-I 654 W/m 8,2 C 14,3 C 22,5 km/h (4 Bft)
21/09/2018 14:18 16,7 C 18,3 C 17,2 C 16,7 C 16,7 C 57 % 0 lf 0 lf 5 cb 3 cb 10 cb 1011,1 hPa 0,0 mm 11,2 km/h (2 Bft) O 267 2 min 0,000 mm 2,1 UV-I 649 W/m 8,1 C 14,5 C 27,4 km/h (4 Bft)
21/09/2018 14:16 16,7 C 17,8 C 17,2 C 16,7 C 16,7 C 57 % 0 lf 0 lf 5 cb 3 cb 10 cb 1011,1 hPa 0,0 mm 13,5 km/h (3 Bft) NO 322 2 min 0,000 mm 2,2 UV-I 656 W/m 8,1 C 13,7 C 25,7 km/h (4 Bft)
21/09/2018 14:14 16,7 C 18,3 C 17,2 C 16,7 C 16,7 C 58 % 0 lf 0 lf 5 cb 3 cb 10 cb 1011,1 hPa 0,0 mm 14,2 km/h (3 Bft) NO 324 2 min 0,000 mm 2,2 UV-I 656 W/m 8,4 C 13,5 C 24,1 km/h (4 Bft)
21/09/2018 14:12 16,6 C 17,8 C 17,2 C 16,7 C 16,7 C 58 % 0 lf 0 lf 5 cb 3 cb 10 cb 1011,1 hPa 0,0 mm 18,0 km/h (3 Bft) O-NO 303 2 min 0,000 mm 2,2 UV-I 649 W/m 8,3 C 12,3 C 32,2 km/h (5 Bft)
21/09/2018 14:10 16,6 C 17,8 C 17,2 C 16,7 C 16,7 C 58 % 0 lf 0 lf 5 cb 3 cb 10 cb 1011,1 hPa 0,0 mm 17,8 km/h (3 Bft) O-NO 302 2 min 0,000 mm 2,1 UV-I 657 W/m 8,3 C 12,4 C 30,6 km/h (5 Bft)
21/09/2018 14:08 16,6 C 17,2 C 17,2 C 16,7 C 16,7 C 58 % 0 lf 0 lf 5 cb 3 cb 10 cb 1011,1 hPa 0,0 mm 9,4 km/h (2 Bft) O-NO 286 2 min 0,000 mm 2,1 UV-I 671 W/m 8,3 C 15,1 C 14,5 km/h (3 Bft)
21/09/2018 14:06 16,8 C 17,8 C 17,2 C 16,7 C 16,7 C 56 % 0 lf 0 lf 5 cb 3 cb 10 cb 1011,0 hPa 0,0 mm 14,6 km/h (3 Bft) O 265 0 min 0,000 mm 1,1 UV-I 132 W/m 8,0 C 13,5 C 24,1 km/h (4 Bft)
21/09/2018 14:04 17,0 C 17,8 C 17,2 C 16,7 C 16,7 C 57 % 0 lf 0 lf 5 cb 3 cb 10 cb 1011,0 hPa 0,0 mm 16,0 km/h (3 Bft) O-NO 302 2 min 0,000 mm 1,2 UV-I 779 W/m 8,4 C 13,3 C 35,4 km/h (5 Bft)
21/09/2018 14:02 17,0 C 17,8 C 17,2 C 16,7 C 16,7 C 56 % 0 lf 0 lf 5 cb 3 cb 10 cb 1011,0 hPa 0,0 mm 16,1 km/h (3 Bft) O-NO 292 2 min 0,000 mm 2,1 UV-I 738 W/m 8,2 C 13,3 C 30,6 km/h (5 Bft)
21/09/2018 14:00 17,0 C 17,8 C 17,2 C 16,7 C 16,7 C 56 % 0 lf 0 lf 5 cb 3 cb 10 cb 1010,9 hPa 0,0 mm 13,7 km/h (3 Bft) NO 319 2 min 0,432 mm 2,1 UV-I 721 W/m 8,2 C 14,0 C 25,7 km/h (4 Bft)
_ Min-Heure 04:04 03:36 04:22 14:00 14:00 14:34 14:00 14:00 14:00 14:00 14:00 14:00 - 01:48 - - - - - - 15:04 04:04 01:48
Minimum _ 9,2 C 7,8 C 16,1 C 16,7 C 16,7 C 46 % 0 lf 0 lf 5 cb 3 cb 10 cb 1010,9 hPa - 0,0 km/h (0 Bft) - - - - - - 5,1 C 9,2 C 0,0 km/h (0 Bft)
_ Max-Heure 16:08 14:28 14:00 14:00 14:00 05:36 10:26 10:28 07:40 14:00 14:00 13:24 13:10 17:40 - - 14:00 14:00 14:12 14:04 12:04 14:22 18:38
Maximum _ 18,0 C 20,0 C 17,2 C 16,7 C 16,7 C 91 % 15 lf 15 lf 6 cb 3 cb 10 cb 1020,8 hPa 0,2 mm 28,6 km/h
O (4 Bft)
- - 2 min 0,432 mm 2,2 UV-I 779 W/m 12,0 C 15,6 C 48,3 km/h
O (6 Bft)
Moyenne _ 13,7 C 13,6 C 16,7 C 16,7 C 16,7 C 74 % 2 lf 2 lf 5 cb 3 cb 10 cb 1016,8 hPa #0,4 mm 8,4 km/h (2 Bft) O - #12 min. #0,457 mm 0,8 UV-I 143 W/m 8,8 C 12,2 C 16,3 km/h (3 Bft)